Provisional Data: Starrucca Creek near Stevens Point, PA


Please select a monitoring station.
Please select start date.
Please select start date.

Toggle Unit: C/F Toggle Unit: C/F
Sample Time Temperature (C) Temperature (F) Specific Conductivity (mS/cm) pH   Turbidity (NTU+) DO (mg/L)
8/1/2022 12:00:00 AM 20.52 68.936 0.11 7.19 1.92 7.58
8/1/2022 12:15:00 AM 20.46 68.828 0.11 7.18 1.7 7.59
8/1/2022 12:30:00 AM 20.39 68.702 0.111 7.18 1.79 7.61
8/1/2022 12:45:00 AM 20.32 68.576 0.111 7.18 1.63 7.63
8/1/2022 1:00:00 AM 20.25 68.45 0.111 7.18 2.25 7.64
8/1/2022 1:15:00 AM 20.19 68.342 0.111 7.18 1.97 7.64
8/1/2022 1:30:00 AM 20.13 68.234 0.111 7.18 1.56 7.65
8/1/2022 1:45:00 AM 20.06 68.108 0.111 7.17 1.63 7.67
8/1/2022 2:00:00 AM 20 68 0.112 7.17 1.64 7.66
8/1/2022 2:15:00 AM 19.93 67.874 0.112 7.17 1.69 7.7
8/1/2022 2:30:00 AM 19.88 67.784 0.112 7.17 1.74 7.7
8/1/2022 2:45:00 AM 19.82 67.676 0.112 7.16 1.71 7.71
8/1/2022 3:00:00 AM 19.76 67.568 0.112 7.17 1.68 7.72
8/1/2022 3:15:00 AM 19.69 67.442 0.112 7.16 1.67 7.74
8/1/2022 3:30:00 AM 19.65 67.37 0.112 7.17 2.11 7.76
8/1/2022 3:45:00 AM 19.6 67.28 0.112 7.16 1.6 7.76
8/1/2022 4:00:00 AM 19.54 67.172 0.112 7.16 1.6 7.77
8/1/2022 4:15:00 AM 19.5 67.1 0.112 7.16 1.78 7.8
8/1/2022 4:30:00 AM 19.44 66.992 0.112 7.16 2.07 7.8
8/1/2022 4:45:00 AM 19.4 66.92 0.112 7.12 1.65 7.81
8/1/2022 5:00:00 AM 19.33 66.794 0.112 7.16 1.65 7.82
8/1/2022 5:15:00 AM 19.27 66.686 0.112 7.1 1.68 7.84
8/1/2022 5:30:00 AM 19.23 66.614 0.112 7.16 1.78 7.85
8/1/2022 5:45:00 AM 19.18 66.524 0.112 7.16 1.61 7.86
8/1/2022 6:00:00 AM 19.12 66.416 0.112 7.16 2.03 7.87
8/1/2022 6:15:00 AM 19.09 66.362 0.112 7.16 2.22 7.89
8/1/2022 6:30:00 AM 19.06 66.308 0.112 7.17 1.89 7.96
8/1/2022 6:45:00 AM 19.03 66.254 0.112 7.18 1.71 8.06
8/1/2022 7:00:00 AM 19.01 66.218 0.112 7.19 1.83 8.13
8/1/2022 7:15:00 AM 18.99 66.182 0.112 7.2 1.76 8.24
8/1/2022 7:30:00 AM 19 66.2 0.112 7.22 1.75 8.29
8/1/2022 7:45:00 AM 19.02 66.236 0.112 7.23 1.67 8.38
8/1/2022 8:00:00 AM 19.03 66.254 0.112 7.24 1.78 8.46
8/1/2022 8:15:00 AM 19.06 66.308 0.112 7.26 2.76 8.51
8/1/2022 8:30:00 AM 19.11 66.398 0.112 7.28 1.76 8.65
8/1/2022 8:45:00 AM 19.14 66.452 0.111 7.3 1.74 8.73
8/1/2022 9:00:00 AM 19.19 66.542 0.111 7.31 1.74 8.81
8/1/2022 9:15:00 AM 19.28 66.704 0.111 7.34 1.62 8.97
8/1/2022 9:30:00 AM 19.41 66.938 0.111 7.38 1.67 9.09
8/1/2022 9:45:00 AM 19.44 66.992 0.111 7.38 1.71 9.05
8/1/2022 10:00:00 AM 19.5 67.1 0.11 7.4 1.65 9.08
8/1/2022 10:15:00 AM 19.61 67.298 0.11 7.43 1.6 9.15
8/1/2022 10:30:00 AM 19.78 67.604 0.11 7.46 1.54 9.18
8/1/2022 10:45:00 AM 19.9 67.82 0.11 7.47 1.75 9.18
8/1/2022 11:00:00 AM 20.02 68.036 0.109 7.5 1.57 9.17
8/1/2022 11:15:00 AM -99999.99 -179968 -99999.99 -99999.99 -99999.99 -99999.99
8/1/2022 11:30:00 AM 20.27 68.486 0.109 7.58 1.54 9.34
8/1/2022 11:45:00 AM 20.56 69.008 0.109 7.61 1.73 9.3
8/1/2022 12:00:00 PM 20.81 69.458 0.109 7.64 1.69 9.25
8/1/2022 12:15:00 PM 20.9 69.62 0.108 7.62 1.76 9.19
8/1/2022 12:30:00 PM 20.92 69.656 0.108 7.65 1.69 9.16
8/1/2022 12:45:00 PM 21.09 69.962 0.11 7.74 1.61 9.19
8/1/2022 1:00:00 PM 21.42 70.556 0.107 7.83 1.51 9.23
8/1/2022 1:15:00 PM 21.77 71.186 0.107 7.91 1.63 9.22
8/1/2022 1:30:00 PM 22.03 71.654 0.107 7.92 1.73 9.12
8/1/2022 1:45:00 PM -99999.99 -179968 -99999.99 -99999.99 -99999.99 -99999.99
8/1/2022 2:00:00 PM 22.24 72.032 0.107 8 1.57 8.99
8/1/2022 2:15:00 PM 22.32 72.176 0.106 7.99 1.62 8.85
8/1/2022 2:30:00 PM 22.58 72.644 0.106 8.02 1.66 8.75
8/1/2022 2:45:00 PM 22.75 72.95 0.105 7.99 1.82 8.66
8/1/2022 3:00:00 PM 23.06 73.508 0.106 8.09 1.66 8.76
8/1/2022 3:15:00 PM -99999.99 -179968 -99999.99 -99999.99 -99999.99 -99999.99
8/1/2022 3:30:00 PM -99999.99 -179968 -99999.99 -99999.99 -99999.99 -99999.99
8/1/2022 3:45:00 PM -99999.99 -179968 -99999.99 -99999.99 -99999.99 -99999.99
8/1/2022 4:00:00 PM -99999.99 -179968 -99999.99 -99999.99 -99999.99 -99999.99
8/1/2022 4:15:00 PM -99999.99 -179968 -99999.99 -99999.99 -99999.99 -99999.99
8/1/2022 4:30:00 PM -99999.99 -179968 -99999.99 -99999.99 -99999.99 -99999.99
8/1/2022 4:45:00 PM -99999.99 -179968 -99999.99 -99999.99 -99999.99 -99999.99
8/1/2022 5:00:00 PM -99999.99 -179968 -99999.99 -99999.99 -99999.99 -99999.99
8/1/2022 5:15:00 PM -99999.99 -179968 -99999.99 -99999.99 -99999.99 -99999.99
8/1/2022 5:30:00 PM -99999.99 -179968 -99999.99 -99999.99 -99999.99 -99999.99
8/1/2022 5:45:00 PM -99999.99 -179968 -99999.99 -99999.99 -99999.99 -99999.99
8/1/2022 6:00:00 PM -99999.99 -179968 -99999.99 -99999.99 -99999.99 -99999.99
8/1/2022 6:15:00 PM -99999.99 -179968 -99999.99 -99999.99 -99999.99 -99999.99
8/1/2022 6:30:00 PM -99999.99 -179968 -99999.99 -99999.99 -99999.99 -99999.99
8/1/2022 6:45:00 PM -99999.99 -179968 -99999.99 -99999.99 -99999.99 -99999.99
8/1/2022 7:00:00 PM -99999.99 -179968 -99999.99 -99999.99 -99999.99 -99999.99
8/1/2022 7:15:00 PM -99999.99 -179968 -99999.99 -99999.99 -99999.99 -99999.99
8/1/2022 7:30:00 PM -99999.99 -179968 -99999.99 -99999.99 -99999.99 -99999.99
8/1/2022 7:45:00 PM -99999.99 -179968 -99999.99 -99999.99 -99999.99 -99999.99
8/1/2022 8:00:00 PM -99999.99 -179968 -99999.99 -99999.99 -99999.99 -99999.99
8/1/2022 8:15:00 PM -99999.99 -179968 -99999.99 -99999.99 -99999.99 -99999.99
8/1/2022 8:30:00 PM -99999.99 -179968 -99999.99 -99999.99 -99999.99 -99999.99
8/1/2022 8:45:00 PM -99999.99 -179968 -99999.99 -99999.99 -99999.99 -99999.99
8/1/2022 9:00:00 PM -99999.99 -179968 -99999.99 -99999.99 -99999.99 -99999.99
8/1/2022 9:15:00 PM -99999.99 -179968 -99999.99 -99999.99 -99999.99 -99999.99
8/1/2022 9:30:00 PM -99999.99 -179968 -99999.99 -99999.99 -99999.99 -99999.99
8/1/2022 9:45:00 PM -99999.99 -179968 -99999.99 -99999.99 -99999.99 -99999.99
8/1/2022 10:00:00 PM -99999.99 -179968 -99999.99 -99999.99 -99999.99 -99999.99
8/1/2022 10:15:00 PM -99999.99 -179968 -99999.99 -99999.99 -99999.99 -99999.99
8/1/2022 10:30:00 PM -99999.99 -179968 -99999.99 -99999.99 -99999.99 -99999.99
8/1/2022 10:45:00 PM -99999.99 -179968 -99999.99 -99999.99 -99999.99 -99999.99
8/1/2022 11:00:00 PM -99999.99 -179968 -99999.99 -99999.99 -99999.99 -99999.99
8/1/2022 11:15:00 PM -99999.99 -179968 -99999.99 -99999.99 -99999.99 -99999.99
8/1/2022 11:30:00 PM -99999.99 -179968 -99999.99 -99999.99 -99999.99 -99999.99
8/1/2022 11:45:00 PM -99999.99 -179968 -99999.99 -99999.99 -99999.99 -99999.99
8/2/2022 12:00:00 AM -99999.99 -179968 -99999.99 -99999.99 -99999.99 -99999.99
8/2/2022 12:15:00 AM -99999.99 -179968 -99999.99 -99999.99 -99999.99 -99999.99
8/2/2022 12:30:00 AM -99999.99 -179968 -99999.99 -99999.99 -99999.99 -99999.99
8/2/2022 12:45:00 AM -99999.99 -179968 -99999.99 -99999.99 -99999.99 -99999.99
8/2/2022 1:00:00 AM -99999.99 -179968 -99999.99 -99999.99 -99999.99 -99999.99
8/2/2022 1:15:00 AM -99999.99 -179968 -99999.99 -99999.99 -99999.99 -99999.99
8/2/2022 1:30:00 AM -99999.99 -179968 -99999.99 -99999.99 -99999.99 -99999.99
8/2/2022 1:45:00 AM -99999.99 -179968 -99999.99 -99999.99 -99999.99 -99999.99
8/2/2022 2:00:00 AM -99999.99 -179968 -99999.99 -99999.99 -99999.99 -99999.99
8/2/2022 2:15:00 AM -99999.99 -179968 -99999.99 -99999.99 -99999.99 -99999.99
8/2/2022 2:30:00 AM -99999.99 -179968 -99999.99 -99999.99 -99999.99 -99999.99
8/2/2022 2:45:00 AM -99999.99 -179968 -99999.99 -99999.99 -99999.99 -99999.99
8/2/2022 3:00:00 AM -99999.99 -179968 -99999.99 -99999.99 -99999.99 -99999.99
8/2/2022 3:15:00 AM -99999.99 -179968 -99999.99 -99999.99 -99999.99 -99999.99
8/2/2022 3:30:00 AM -99999.99 -179968 -99999.99 -99999.99 -99999.99 -99999.99
8/2/2022 3:45:00 AM -99999.99 -179968 -99999.99 -99999.99 -99999.99 -99999.99
8/2/2022 4:00:00 AM -99999.99 -179968 -99999.99 -99999.99 -99999.99 -99999.99
8/2/2022 4:15:00 AM -99999.99 -179968 -99999.99 -99999.99 -99999.99 -99999.99
8/2/2022 4:30:00 AM -99999.99 -179968 -99999.99 -99999.99 -99999.99 -99999.99
8/2/2022 4:45:00 AM -99999.99 -179968 -99999.99 -99999.99 -99999.99 -99999.99
8/2/2022 5:00:00 AM -99999.99 -179968 -99999.99 -99999.99 -99999.99 -99999.99
8/2/2022 5:15:00 AM -99999.99 -179968 -99999.99 -99999.99 -99999.99 -99999.99
8/2/2022 5:30:00 AM -99999.99 -179968 -99999.99 -99999.99 -99999.99 -99999.99
8/2/2022 5:45:00 AM -99999.99 -179968 -99999.99 -99999.99 -99999.99 -99999.99
8/2/2022 6:00:00 AM -99999.99 -179968 -99999.99 -99999.99 -99999.99 -99999.99
8/2/2022 6:15:00 AM -99999.99 -179968 -99999.99 -99999.99 -99999.99 -99999.99
8/2/2022 6:30:00 AM -99999.99 -179968 -99999.99 -99999.99 -99999.99 -99999.99
8/2/2022 6:45:00 AM -99999.99 -179968 -99999.99 -99999.99 -99999.99 -99999.99
8/2/2022 7:00:00 AM -99999.99 -179968 -99999.99 -99999.99 -99999.99 -99999.99
8/2/2022 7:15:00 AM -99999.99 -179968 -99999.99 -99999.99 -99999.99 -99999.99
8/2/2022 7:30:00 AM -99999.99 -179968 -99999.99 -99999.99 -99999.99 -99999.99
8/2/2022 7:45:00 AM -99999.99 -179968 -99999.99 -99999.99 -99999.99 -99999.99
8/2/2022 8:00:00 AM -99999.99 -179968 -99999.99 -99999.99 -99999.99 -99999.99
8/2/2022 8:15:00 AM -99999.99 -179968 -99999.99 -99999.99 -99999.99 -99999.99
8/2/2022 8:30:00 AM -99999.99 -179968 -99999.99 -99999.99 -99999.99 -99999.99
8/2/2022 8:45:00 AM -99999.99 -179968 -99999.99 -99999.99 -99999.99 -99999.99
8/2/2022 9:00:00 AM -99999.99 -179968 -99999.99 -99999.99 -99999.99 -99999.99
8/2/2022 9:15:00 AM -99999.99 -179968 -99999.99 -99999.99 -99999.99 -99999.99
8/2/2022 9:30:00 AM -99999.99 -179968 -99999.99 -99999.99 -99999.99 -99999.99
8/2/2022 9:45:00 AM -99999.99 -179968 -99999.99 -99999.99 -99999.99 -99999.99
8/2/2022 10:00:00 AM -99999.99 -179968 -99999.99 -99999.99 -99999.99 -99999.99
8/2/2022 10:15:00 AM -99999.99 -179968 -99999.99 -99999.99 -99999.99 -99999.99
8/2/2022 10:30:00 AM -99999.99 -179968 -99999.99 -99999.99 -99999.99 -99999.99
8/2/2022 10:45:00 AM -99999.99 -179968 -99999.99 -99999.99 -99999.99 -99999.99
8/2/2022 11:00:00 AM -99999.99 -179968 -99999.99 -99999.99 -99999.99 -99999.99
8/2/2022 11:15:00 AM -99999.99 -179968 -99999.99 -99999.99 -99999.99 -99999.99
8/2/2022 11:30:00 AM -99999.99 -179968 -99999.99 -99999.99 -99999.99 -99999.99
8/2/2022 11:45:00 AM -99999.99 -179968 -99999.99 -99999.99 -99999.99 -99999.99
8/2/2022 12:00:00 PM -99999.99 -179968 -99999.99 -99999.99 -99999.99 -99999.99
8/2/2022 12:15:00 PM -99999.99 -179968 -99999.99 -99999.99 -99999.99 -99999.99
8/2/2022 12:30:00 PM -99999.99 -179968 -99999.99 -99999.99 -99999.99 -99999.99
8/2/2022 12:45:00 PM -99999.99 -179968 -99999.99 -99999.99 -99999.99 -99999.99
8/2/2022 1:00:00 PM -99999.99 -179968 -99999.99 -99999.99 -99999.99 -99999.99
8/2/2022 1:15:00 PM -99999.99 -179968 -99999.99 -99999.99 -99999.99 -99999.99
8/2/2022 1:30:00 PM -99999.99 -179968 -99999.99 -99999.99 -99999.99 -99999.99
8/2/2022 1:45:00 PM -99999.99 -179968 -99999.99 -99999.99 -99999.99 -99999.99
8/2/2022 2:00:00 PM -99999.99 -179968 -99999.99 -99999.99 -99999.99 -99999.99
8/2/2022 2:15:00 PM -99999.99 -179968 -99999.99 -99999.99 -99999.99 -99999.99
8/2/2022 2:30:00 PM -99999.99 -179968 -99999.99 -99999.99 -99999.99 -99999.99
8/2/2022 2:45:00 PM -99999.99 -179968 -99999.99 -99999.99 -99999.99 -99999.99
8/2/2022 3:00:00 PM -99999.99 -179968 -99999.99 -99999.99 -99999.99 -99999.99
8/2/2022 3:15:00 PM -99999.99 -179968 -99999.99 -99999.99 -99999.99 -99999.99
8/2/2022 3:30:00 PM -99999.99 -179968 -99999.99 -99999.99 -99999.99 -99999.99
8/2/2022 3:45:00 PM -99999.99 -179968 -99999.99 -99999.99 -99999.99 -99999.99
8/2/2022 4:00:00 PM -99999.99 -179968 -99999.99 -99999.99 -99999.99 -99999.99
8/2/2022 4:15:00 PM -99999.99 -179968 -99999.99 -99999.99 -99999.99 -99999.99
8/2/2022 4:30:00 PM -99999.99 -179968 -99999.99 -99999.99 -99999.99 -99999.99
8/2/2022 4:45:00 PM -99999.99 -179968 -99999.99 -99999.99 -99999.99 -99999.99
8/2/2022 5:00:00 PM -99999.99 -179968 -99999.99 -99999.99 -99999.99 -99999.99
8/2/2022 5:15:00 PM -99999.99 -179968 -99999.99 -99999.99 -99999.99 -99999.99
8/2/2022 5:30:00 PM -99999.99 -179968 -99999.99 -99999.99 -99999.99 -99999.99
8/2/2022 5:45:00 PM -99999.99 -179968 -99999.99 -99999.99 -99999.99 -99999.99
8/2/2022 6:00:00 PM -99999.99 -179968 -99999.99 -99999.99 -99999.99 -99999.99
8/2/2022 6:15:00 PM -99999.99 -179968 -99999.99 -99999.99 -99999.99 -99999.99
8/2/2022 6:30:00 PM -99999.99 -179968 -99999.99 -99999.99 -99999.99 -99999.99
8/2/2022 6:45:00 PM -99999.99 -179968 -99999.99 -99999.99 -99999.99 -99999.99
8/2/2022 7:00:00 PM -99999.99 -179968 -99999.99 -99999.99 -99999.99 -99999.99
8/2/2022 7:15:00 PM -99999.99 -179968 -99999.99 -99999.99 -99999.99 -99999.99
8/2/2022 7:30:00 PM -99999.99 -179968 -99999.99 -99999.99 -99999.99 -99999.99
8/2/2022 7:45:00 PM -99999.99 -179968 -99999.99 -99999.99 -99999.99 -99999.99
8/2/2022 8:00:00 PM -99999.99 -179968 -99999.99 -99999.99 -99999.99 -99999.99
8/2/2022 8:15:00 PM -99999.99 -179968 -99999.99 -99999.99 -99999.99 -99999.99
8/2/2022 8:30:00 PM -99999.99 -179968 -99999.99 -99999.99 -99999.99 -99999.99
8/2/2022 8:45:00 PM -99999.99 -179968 -99999.99 -99999.99 -99999.99 -99999.99
8/2/2022 9:00:00 PM -99999.99 -179968 -99999.99 -99999.99 -99999.99 -99999.99
8/2/2022 9:15:00 PM -99999.99 -179968 -99999.99 -99999.99 -99999.99 -99999.99
8/2/2022 9:30:00 PM -99999.99 -179968 -99999.99 -99999.99 -99999.99 -99999.99
8/2/2022 9:45:00 PM -99999.99 -179968 -99999.99 -99999.99 -99999.99 -99999.99
8/2/2022 10:00:00 PM -99999.99 -179968 -99999.99 -99999.99 -99999.99 -99999.99
8/2/2022 10:15:00 PM -99999.99 -179968 -99999.99 -99999.99 -99999.99 -99999.99
8/2/2022 10:30:00 PM -99999.99 -179968 -99999.99 -99999.99 -99999.99 -99999.99
8/2/2022 10:45:00 PM -99999.99 -179968 -99999.99 -99999.99 -99999.99 -99999.99
8/2/2022 11:00:00 PM -99999.99 -179968 -99999.99 -99999.99 -99999.99 -99999.99
8/2/2022 11:15:00 PM -99999.99 -179968 -99999.99 -99999.99 -99999.99 -99999.99
8/2/2022 11:30:00 PM -99999.99 -179968 -99999.99 -99999.99 -99999.99 -99999.99
8/2/2022 11:45:00 PM -99999.99 -179968 -99999.99 -99999.99 -99999.99 -99999.99
8/3/2022 12:00:00 AM -99999.99 -179968 -99999.99 -99999.99 -99999.99 -99999.99
8/3/2022 12:15:00 AM -99999.99 -179968 -99999.99 -99999.99 -99999.99 -99999.99
8/3/2022 12:30:00 AM -99999.99 -179968 -99999.99 -99999.99 -99999.99 -99999.99
8/3/2022 12:45:00 AM -99999.99 -179968 -99999.99 -99999.99 -99999.99 -99999.99
8/3/2022 1:00:00 AM -99999.99 -179968 -99999.99 -99999.99 -99999.99 -99999.99
8/3/2022 1:15:00 AM -99999.99 -179968 -99999.99 -99999.99 -99999.99 -99999.99
8/3/2022 1:30:00 AM -99999.99 -179968 -99999.99 -99999.99 -99999.99 -99999.99
8/3/2022 1:45:00 AM -99999.99 -179968 -99999.99 -99999.99 -99999.99 -99999.99
8/3/2022 2:00:00 AM -99999.99 -179968 -99999.99 -99999.99 -99999.99 -99999.99
8/3/2022 2:15:00 AM -99999.99 -179968 -99999.99 -99999.99 -99999.99 -99999.99
8/3/2022 2:30:00 AM -99999.99 -179968 -99999.99 -99999.99 -99999.99 -99999.99
8/3/2022 2:45:00 AM -99999.99 -179968 -99999.99 -99999.99 -99999.99 -99999.99
8/3/2022 3:00:00 AM -99999.99 -179968 -99999.99 -99999.99 -99999.99 -99999.99
8/3/2022 3:15:00 AM -99999.99 -179968 -99999.99 -99999.99 -99999.99 -99999.99
8/3/2022 3:30:00 AM -99999.99 -179968 -99999.99 -99999.99 -99999.99 -99999.99
8/3/2022 3:45:00 AM -99999.99 -179968 -99999.99 -99999.99 -99999.99 -99999.99
8/3/2022 4:00:00 AM -99999.99 -179968 -99999.99 -99999.99 -99999.99 -99999.99
8/3/2022 4:15:00 AM -99999.99 -179968 -99999.99 -99999.99 -99999.99 -99999.99
8/3/2022 4:30:00 AM -99999.99 -179968 -99999.99 -99999.99 -99999.99 -99999.99
8/3/2022 4:45:00 AM -99999.99 -179968 -99999.99 -99999.99 -99999.99 -99999.99
8/3/2022 5:00:00 AM -99999.99 -179968 -99999.99 -99999.99 -99999.99 -99999.99
8/3/2022 5:15:00 AM -99999.99 -179968 -99999.99 -99999.99 -99999.99 -99999.99
8/3/2022 5:30:00 AM -99999.99 -179968 -99999.99 -99999.99 -99999.99 -99999.99
8/3/2022 5:45:00 AM -99999.99 -179968 -99999.99 -99999.99 -99999.99 -99999.99
8/3/2022 6:00:00 AM -99999.99 -179968 -99999.99 -99999.99 -99999.99 -99999.99
8/3/2022 6:15:00 AM -99999.99 -179968 -99999.99 -99999.99 -99999.99 -99999.99
8/3/2022 6:30:00 AM -99999.99 -179968 -99999.99 -99999.99 -99999.99 -99999.99
8/3/2022 6:45:00 AM -99999.99 -179968 -99999.99 -99999.99 -99999.99 -99999.99
8/3/2022 7:00:00 AM -99999.99 -179968 -99999.99 -99999.99 -99999.99 -99999.99
8/3/2022 7:15:00 AM -99999.99 -179968 -99999.99 -99999.99 -99999.99 -99999.99
8/3/2022 7:30:00 AM -99999.99 -179968 -99999.99 -99999.99 -99999.99 -99999.99
8/3/2022 7:45:00 AM -99999.99 -179968 -99999.99 -99999.99 -99999.99 -99999.99
8/3/2022 8:00:00 AM -99999.99 -179968 -99999.99 -99999.99 -99999.99 -99999.99
8/3/2022 8:15:00 AM -99999.99 -179968 -99999.99 -99999.99 -99999.99 -99999.99
8/3/2022 8:30:00 AM -99999.99 -179968 -99999.99 -99999.99 -99999.99 -99999.99
8/3/2022 8:45:00 AM -99999.99 -179968 -99999.99 -99999.99 -99999.99 -99999.99
8/3/2022 9:00:00 AM -99999.99 -179968 -99999.99 -99999.99 -99999.99 -99999.99
8/3/2022 9:15:00 AM -99999.99 -179968 -99999.99 -99999.99 -99999.99 -99999.99
8/3/2022 9:30:00 AM -99999.99 -179968 -99999.99 -99999.99 -99999.99 -99999.99
8/3/2022 9:45:00 AM -99999.99 -179968 -99999.99 -99999.99 -99999.99 -99999.99
8/3/2022 10:00:00 AM -99999.99 -179968 -99999.99 -99999.99 -99999.99 -99999.99
8/3/2022 10:15:00 AM -99999.99 -179968 -99999.99 -99999.99 -99999.99 -99999.99
8/3/2022 10:30:00 AM -99999.99 -179968 -99999.99 -99999.99 -99999.99 -99999.99
8/3/2022 10:45:00 AM -99999.99 -179968 -99999.99 -99999.99 -99999.99 -99999.99
8/3/2022 11:00:00 AM -99999.99 -179968 -99999.99 -99999.99 -99999.99 -99999.99
8/3/2022 11:15:00 AM -99999.99 -179968 -99999.99 -99999.99 -99999.99 -99999.99
8/3/2022 11:30:00 AM -99999.99 -179968 -99999.99 -99999.99 -99999.99 -99999.99
8/3/2022 11:45:00 AM -99999.99 -179968 -99999.99 -99999.99 -99999.99 -99999.99
8/3/2022 12:00:00 PM -99999.99 -179968 -99999.99 -99999.99 -99999.99 -99999.99
8/3/2022 12:15:00 PM -99999.99 -179968 -99999.99 -99999.99 -99999.99 -99999.99
8/3/2022 12:30:00 PM -99999.99 -179968 -99999.99 -99999.99 -99999.99 -99999.99
8/3/2022 12:45:00 PM -99999.99 -179968 -99999.99 -99999.99 -99999.99 -99999.99
8/3/2022 1:00:00 PM -99999.99 -179968 -99999.99 -99999.99 -99999.99 -99999.99
8/3/2022 1:15:00 PM -99999.99 -179968 -99999.99 -99999.99 -99999.99 -99999.99
8/3/2022 1:30:00 PM -99999.99 -179968 -99999.99 -99999.99 -99999.99 -99999.99
8/3/2022 1:45:00 PM -99999.99 -179968 -99999.99 -99999.99 -99999.99 -99999.99
8/3/2022 2:00:00 PM -99999.99 -179968 -99999.99 -99999.99 -99999.99 -99999.99
8/3/2022 2:15:00 PM -99999.99 -179968 -99999.99 -99999.99 -99999.99 -99999.99
8/3/2022 2:30:00 PM -99999.99 -179968 -99999.99 -99999.99 -99999.99 -99999.99
8/3/2022 2:45:00 PM -99999.99 -179968 -99999.99 -99999.99 -99999.99 -99999.99
8/3/2022 3:00:00 PM -99999.99 -179968 -99999.99 -99999.99 -99999.99 -99999.99
8/3/2022 3:15:00 PM -99999.99 -179968 -99999.99 -99999.99 -99999.99 -99999.99
8/3/2022 3:30:00 PM -99999.99 -179968 -99999.99 -99999.99 -99999.99 -99999.99
8/3/2022 3:45:00 PM -99999.99 -179968 -99999.99 -99999.99 -99999.99 -99999.99
8/3/2022 4:00:00 PM -99999.99 -179968 -99999.99 -99999.99 -99999.99 -99999.99
8/3/2022 4:15:00 PM -99999.99 -179968 -99999.99 -99999.99 -99999.99 -99999.99
8/3/2022 4:30:00 PM -99999.99 -179968 -99999.99 -99999.99 -99999.99 -99999.99
8/3/2022 4:45:00 PM -99999.99 -179968 -99999.99 -99999.99 -99999.99 -99999.99
8/3/2022 5:00:00 PM -99999.99 -179968 -99999.99 -99999.99 -99999.99 -99999.99
8/3/2022 5:15:00 PM -99999.99 -179968 -99999.99 -99999.99 -99999.99 -99999.99
8/3/2022 5:30:00 PM -99999.99 -179968 -99999.99 -99999.99 -99999.99 -99999.99
8/3/2022 5:45:00 PM -99999.99 -179968 -99999.99 -99999.99 -99999.99 -99999.99
8/3/2022 6:00:00 PM -99999.99 -179968 -99999.99 -99999.99 -99999.99 -99999.99
8/3/2022 6:15:00 PM -99999.99 -179968 -99999.99 -99999.99 -99999.99 -99999.99
8/3/2022 6:30:00 PM -99999.99 -179968 -99999.99 -99999.99 -99999.99 -99999.99
8/3/2022 6:45:00 PM -99999.99 -179968 -99999.99 -99999.99 -99999.99 -99999.99
8/3/2022 7:00:00 PM -99999.99 -179968 -99999.99 -99999.99 -99999.99 -99999.99
8/3/2022 7:15:00 PM -99999.99 -179968 -99999.99 -99999.99 -99999.99 -99999.99
8/3/2022 7:30:00 PM -99999.99 -179968 -99999.99 -99999.99 -99999.99 -99999.99
8/3/2022 7:45:00 PM -99999.99 -179968 -99999.99 -99999.99 -99999.99 -99999.99
8/3/2022 8:00:00 PM -99999.99 -179968 -99999.99 -99999.99 -99999.99 -99999.99
8/3/2022 8:15:00 PM -99999.99 -179968 -99999.99 -99999.99 -99999.99 -99999.99
8/3/2022 8:30:00 PM -99999.99 -179968 -99999.99 -99999.99 -99999.99 -99999.99
8/3/2022 8:45:00 PM -99999.99 -179968 -99999.99 -99999.99 -99999.99 -99999.99
8/3/2022 9:00:00 PM -99999.99 -179968 -99999.99 -99999.99 -99999.99 -99999.99
8/3/2022 9:15:00 PM -99999.99 -179968 -99999.99 -99999.99 -99999.99 -99999.99
8/3/2022 9:30:00 PM -99999.99 -179968 -99999.99 -99999.99 -99999.99 -99999.99
8/3/2022 9:45:00 PM -99999.99 -179968 -99999.99 -99999.99 -99999.99 -99999.99
8/3/2022 10:00:00 PM -99999.99 -179968 -99999.99 -99999.99 -99999.99 -99999.99
8/3/2022 10:15:00 PM -99999.99 -179968 -99999.99 -99999.99 -99999.99 -99999.99
8/3/2022 10:30:00 PM -99999.99 -179968 -99999.99 -99999.99 -99999.99 -99999.99
8/3/2022 10:45:00 PM -99999.99 -179968 -99999.99 -99999.99 -99999.99 -99999.99
8/3/2022 11:00:00 PM -99999.99 -179968 -99999.99 -99999.99 -99999.99 -99999.99
8/3/2022 11:15:00 PM -99999.99 -179968 -99999.99 -99999.99 -99999.99 -99999.99
8/3/2022 11:30:00 PM -99999.99 -179968 -99999.99 -99999.99 -99999.99 -99999.99
8/3/2022 11:45:00 PM -99999.99 -179968 -99999.99 -99999.99 -99999.99 -99999.99
8/4/2022 12:00:00 AM -99999.99 -179968 -99999.99 -99999.99 -99999.99 -99999.99
8/4/2022 12:15:00 AM -99999.99 -179968 -99999.99 -99999.99 -99999.99 -99999.99
8/4/2022 12:30:00 AM -99999.99 -179968 -99999.99 -99999.99 -99999.99 -99999.99
8/4/2022 12:45:00 AM -99999.99 -179968 -99999.99 -99999.99 -99999.99 -99999.99
8/4/2022 1:00:00 AM -99999.99 -179968 -99999.99 -99999.99 -99999.99 -99999.99
8/4/2022 1:15:00 AM -99999.99 -179968 -99999.99 -99999.99 -99999.99 -99999.99
8/4/2022 1:30:00 AM -99999.99 -179968 -99999.99 -99999.99 -99999.99 -99999.99
8/4/2022 1:45:00 AM -99999.99 -179968 -99999.99 -99999.99 -99999.99 -99999.99
8/4/2022 2:00:00 AM -99999.99 -179968 -99999.99 -99999.99 -99999.99 -99999.99
8/4/2022 2:15:00 AM -99999.99 -179968 -99999.99 -99999.99 -99999.99 -99999.99
8/4/2022 2:30:00 AM -99999.99 -179968 -99999.99 -99999.99 -99999.99 -99999.99
8/4/2022 2:45:00 AM -99999.99 -179968 -99999.99 -99999.99 -99999.99 -99999.99
8/4/2022 3:00:00 AM -99999.99 -179968 -99999.99 -99999.99 -99999.99 -99999.99
8/4/2022 3:15:00 AM -99999.99 -179968 -99999.99 -99999.99 -99999.99 -99999.99
8/4/2022 3:30:00 AM -99999.99 -179968 -99999.99 -99999.99 -99999.99 -99999.99
8/4/2022 3:45:00 AM -99999.99 -179968 -99999.99 -99999.99 -99999.99 -99999.99
8/4/2022 4:00:00 AM -99999.99 -179968 -99999.99 -99999.99 -99999.99 -99999.99
8/4/2022 4:15:00 AM -99999.99 -179968 -99999.99 -99999.99 -99999.99 -99999.99
8/4/2022 4:30:00 AM -99999.99 -179968 -99999.99 -99999.99 -99999.99 -99999.99
8/4/2022 4:45:00 AM -99999.99 -179968 -99999.99 -99999.99 -99999.99 -99999.99
8/4/2022 5:00:00 AM -99999.99 -179968 -99999.99 -99999.99 -99999.99 -99999.99
8/4/2022 5:15:00 AM -99999.99 -179968 -99999.99 -99999.99 -99999.99 -99999.99
8/4/2022 5:30:00 AM -99999.99 -179968 -99999.99 -99999.99 -99999.99 -99999.99
8/4/2022 5:45:00 AM -99999.99 -179968 -99999.99 -99999.99 -99999.99 -99999.99
8/4/2022 6:00:00 AM -99999.99 -179968 -99999.99 -99999.99 -99999.99 -99999.99
8/4/2022 6:15:00 AM -99999.99 -179968 -99999.99 -99999.99 -99999.99 -99999.99
8/4/2022 6:30:00 AM -99999.99 -179968 -99999.99 -99999.99 -99999.99 -99999.99
8/4/2022 6:45:00 AM -99999.99 -179968 -99999.99 -99999.99 -99999.99 -99999.99
8/4/2022 7:00:00 AM -99999.99 -179968 -99999.99 -99999.99 -99999.99 -99999.99
8/4/2022 7:15:00 AM -99999.99 -179968 -99999.99 -99999.99 -99999.99 -99999.99
8/4/2022 7:30:00 AM -99999.99 -179968 -99999.99 -99999.99 -99999.99 -99999.99
8/4/2022 7:45:00 AM -99999.99 -179968 -99999.99 -99999.99 -99999.99 -99999.99
8/4/2022 8:00:00 AM -99999.99 -179968 -99999.99 -99999.99 -99999.99 -99999.99
8/4/2022 8:15:00 AM -99999.99 -179968 -99999.99 -99999.99 -99999.99 -99999.99
8/4/2022 8:30:00 AM -99999.99 -179968 -99999.99 -99999.99 -99999.99 -99999.99
8/4/2022 8:45:00 AM -99999.99 -179968 -99999.99 -99999.99 -99999.99 -99999.99
8/4/2022 9:00:00 AM -99999.99 -179968 -99999.99 -99999.99 -99999.99 -99999.99
8/4/2022 9:15:00 AM -99999.99 -179968 -99999.99 -99999.99 -99999.99 -99999.99
8/4/2022 9:30:00 AM -99999.99 -179968 -99999.99 -99999.99 -99999.99 -99999.99
8/4/2022 9:45:00 AM -99999.99 -179968 -99999.99 -99999.99 -99999.99 -99999.99
8/4/2022 10:00:00 AM -99999.99 -179968 -99999.99 -99999.99 -99999.99 -99999.99
8/4/2022 10:15:00 AM -99999.99 -179968 -99999.99 -99999.99 -99999.99 -99999.99
8/4/2022 10:30:00 AM -99999.99 -179968 -99999.99 -99999.99 -99999.99 -99999.99
8/4/2022 10:45:00 AM -99999.99 -179968 -99999.99 -99999.99 -99999.99 -99999.99
8/4/2022 11:00:00 AM -99999.99 -179968 -99999.99 -99999.99 -99999.99 -99999.99
8/4/2022 11:15:00 AM -99999.99 -179968 -99999.99 -99999.99 -99999.99 -99999.99
8/4/2022 11:30:00 AM -99999.99 -179968 -99999.99 -99999.99 -99999.99 -99999.99
8/4/2022 11:45:00 AM -99999.99 -179968 -99999.99 -99999.99 -99999.99 -99999.99
8/4/2022 12:00:00 PM -99999.99 -179968 -99999.99 -99999.99 -99999.99 -99999.99
8/4/2022 12:15:00 PM -99999.99 -179968 -99999.99 -99999.99 -99999.99 -99999.99
8/4/2022 12:30:00 PM -99999.99 -179968 -99999.99 -99999.99 -99999.99 -99999.99
8/4/2022 12:45:00 PM -99999.99 -179968 -99999.99 -99999.99 -99999.99 -99999.99
8/4/2022 1:00:00 PM -99999.99 -179968 -99999.99 -99999.99 -99999.99 -99999.99
8/4/2022 1:15:00 PM -99999.99 -179968 -99999.99 -99999.99 -99999.99 -99999.99
8/4/2022 1:30:00 PM -99999.99 -179968 -99999.99 -99999.99 -99999.99 -99999.99
8/4/2022 1:45:00 PM -99999.99 -179968 -99999.99 -99999.99 -99999.99 -99999.99
8/4/2022 2:00:00 PM -99999.99 -179968 -99999.99 -99999.99 -99999.99 -99999.99
8/4/2022 2:15:00 PM -99999.99 -179968 -99999.99 -99999.99 -99999.99 -99999.99
8/4/2022 2:30:00 PM -99999.99 -179968 -99999.99 -99999.99 -99999.99 -99999.99
8/4/2022 2:45:00 PM -99999.99 -179968 -99999.99 -99999.99 -99999.99 -99999.99
8/4/2022 3:00:00 PM -99999.99 -179968 -99999.99 -99999.99 -99999.99 -99999.99
8/4/2022 3:15:00 PM -99999.99 -179968 -99999.99 -99999.99 -99999.99 -99999.99
8/4/2022 3:30:00 PM -99999.99 -179968 -99999.99 -99999.99 -99999.99 -99999.99
8/4/2022 3:45:00 PM -99999.99 -179968 -99999.99 -99999.99 -99999.99 -99999.99
8/4/2022 4:00:00 PM -99999.99 -179968 -99999.99 -99999.99 -99999.99 -99999.99
8/4/2022 4:15:00 PM -99999.99 -179968 -99999.99 -99999.99 -99999.99 -99999.99
8/4/2022 4:30:00 PM -99999.99 -179968 -99999.99 -99999.99 -99999.99 -99999.99
8/4/2022 4:45:00 PM -99999.99 -179968 -99999.99 -99999.99 -99999.99 -99999.99
8/4/2022 5:00:00 PM -99999.99 -179968 -99999.99 -99999.99 -99999.99 -99999.99
8/4/2022 5:15:00 PM -99999.99 -179968 -99999.99 -99999.99 -99999.99 -99999.99
8/4/2022 5:30:00 PM -99999.99 -179968 -99999.99 -99999.99 -99999.99 -99999.99
8/4/2022 5:45:00 PM -99999.99 -179968 -99999.99 -99999.99 -99999.99 -99999.99
8/4/2022 6:00:00 PM -99999.99 -179968 -99999.99 -99999.99 -99999.99 -99999.99
8/4/2022 6:15:00 PM -99999.99 -179968 -99999.99 -99999.99 -99999.99 -99999.99
8/4/2022 6:30:00 PM -99999.99 -179968 -99999.99 -99999.99 -99999.99 -99999.99
8/4/2022 6:45:00 PM -99999.99 -179968 -99999.99 -99999.99 -99999.99 -99999.99
8/4/2022 7:00:00 PM -99999.99 -179968 -99999.99 -99999.99 -99999.99 -99999.99
8/4/2022 7:15:00 PM -99999.99 -179968 -99999.99 -99999.99 -99999.99 -99999.99
8/4/2022 7:30:00 PM -99999.99 -179968 -99999.99 -99999.99 -99999.99 -99999.99
8/4/2022 7:45:00 PM -99999.99 -179968 -99999.99 -99999.99 -99999.99 -99999.99
8/4/2022 8:00:00 PM -99999.99 -179968 -99999.99 -99999.99 -99999.99 -99999.99
8/4/2022 8:15:00 PM -99999.99 -179968 -99999.99 -99999.99 -99999.99 -99999.99
8/4/2022 8:30:00 PM -99999.99 -179968 -99999.99 -99999.99 -99999.99 -99999.99
8/4/2022 8:45:00 PM -99999.99 -179968 -99999.99 -99999.99 -99999.99 -99999.99
8/4/2022 9:00:00 PM -99999.99 -179968 -99999.99 -99999.99 -99999.99 -99999.99
8/4/2022 9:15:00 PM -99999.99 -179968 -99999.99 -99999.99 -99999.99 -99999.99
8/4/2022 9:30:00 PM -99999.99 -179968 -99999.99 -99999.99 -99999.99 -99999.99
8/4/2022 9:45:00 PM -99999.99 -179968 -99999.99 -99999.99 -99999.99 -99999.99
8/4/2022 10:00:00 PM -99999.99 -179968 -99999.99 -99999.99 -99999.99 -99999.99
8/4/2022 10:15:00 PM -99999.99 -179968 -99999.99 -99999.99 -99999.99 -99999.99
8/4/2022 10:30:00 PM -99999.99 -179968 -99999.99 -99999.99 -99999.99 -99999.99
8/4/2022 10:45:00 PM -99999.99 -179968 -99999.99 -99999.99 -99999.99 -99999.99
8/4/2022 11:00:00 PM -99999.99 -179968 -99999.99 -99999.99 -99999.99 -99999.99
8/4/2022 11:15:00 PM -99999.99 -179968 -99999.99 -99999.99 -99999.99 -99999.99
8/4/2022 11:30:00 PM -99999.99 -179968 -99999.99 -99999.99 -99999.99 -99999.99
8/4/2022 11:45:00 PM -99999.99 -179968 -99999.99 -99999.99 -99999.99 -99999.99
8/5/2022 12:00:00 AM -99999.99 -179968 -99999.99 -99999.99 -99999.99 -99999.99
8/5/2022 12:15:00 AM -99999.99 -179968 -99999.99 -99999.99 -99999.99 -99999.99
8/5/2022 12:30:00 AM -99999.99 -179968 -99999.99 -99999.99 -99999.99 -99999.99
8/5/2022 12:45:00 AM -99999.99 -179968 -99999.99 -99999.99 -99999.99 -99999.99
8/5/2022 1:00:00 AM -99999.99 -179968 -99999.99 -99999.99 -99999.99 -99999.99
8/5/2022 1:15:00 AM -99999.99 -179968 -99999.99 -99999.99 -99999.99 -99999.99
8/5/2022 1:30:00 AM -99999.99 -179968 -99999.99 -99999.99 -99999.99 -99999.99
8/5/2022 1:45:00 AM -99999.99 -179968 -99999.99 -99999.99 -99999.99 -99999.99
8/5/2022 2:00:00 AM -99999.99 -179968 -99999.99 -99999.99 -99999.99 -99999.99
8/5/2022 2:15:00 AM -99999.99 -179968 -99999.99 -99999.99 -99999.99 -99999.99
8/5/2022 2:30:00 AM -99999.99 -179968 -99999.99 -99999.99 -99999.99 -99999.99
8/5/2022 2:45:00 AM -99999.99 -179968 -99999.99 -99999.99 -99999.99 -99999.99
8/5/2022 3:00:00 AM -99999.99 -179968 -99999.99 -99999.99 -99999.99 -99999.99
8/5/2022 3:15:00 AM -99999.99 -179968 -99999.99 -99999.99 -99999.99 -99999.99
8/5/2022 3:30:00 AM -99999.99 -179968 -99999.99 -99999.99 -99999.99 -99999.99
8/5/2022 3:45:00 AM -99999.99 -179968 -99999.99 -99999.99 -99999.99 -99999.99
8/5/2022 4:00:00 AM -99999.99 -179968 -99999.99 -99999.99 -99999.99 -99999.99
8/5/2022 4:15:00 AM -99999.99 -179968 -99999.99 -99999.99 -99999.99 -99999.99
8/5/2022 4:30:00 AM -99999.99 -179968 -99999.99 -99999.99 -99999.99 -99999.99
8/5/2022 4:45:00 AM -99999.99 -179968 -99999.99 -99999.99 -99999.99 -99999.99
8/5/2022 5:00:00 AM -99999.99 -179968 -99999.99 -99999.99 -99999.99 -99999.99
8/5/2022 5:15:00 AM -99999.99 -179968 -99999.99 -99999.99 -99999.99 -99999.99
8/5/2022 5:30:00 AM -99999.99 -179968 -99999.99 -99999.99 -99999.99 -99999.99
8/5/2022 5:45:00 AM -99999.99 -179968 -99999.99 -99999.99 -99999.99 -99999.99
8/5/2022 6:00:00 AM -99999.99 -179968 -99999.99 -99999.99 -99999.99 -99999.99
8/5/2022 6:15:00 AM -99999.99 -179968 -99999.99 -99999.99 -99999.99 -99999.99
8/5/2022 6:30:00 AM -99999.99 -179968 -99999.99 -99999.99 -99999.99 -99999.99
8/5/2022 6:45:00 AM -99999.99 -179968 -99999.99 -99999.99 -99999.99 -99999.99
8/5/2022 7:00:00 AM -99999.99 -179968 -99999.99 -99999.99 -99999.99 -99999.99
8/5/2022 7:15:00 AM -99999.99 -179968 -99999.99 -99999.99 -99999.99 -99999.99
8/5/2022 7:30:00 AM -99999.99 -179968 -99999.99 -99999.99 -99999.99 -99999.99
8/5/2022 7:45:00 AM -99999.99 -179968 -99999.99 -99999.99 -99999.99 -99999.99
8/5/2022 8:00:00 AM -99999.99 -179968 -99999.99 -99999.99 -99999.99 -99999.99
8/5/2022 8:15:00 AM -99999.99 -179968 -99999.99 -99999.99 -99999.99 -99999.99
8/5/2022 8:30:00 AM -99999.99 -179968 -99999.99 -99999.99 -99999.99 -99999.99
8/5/2022 8:45:00 AM -99999.99 -179968 -99999.99 -99999.99 -99999.99 -99999.99
8/5/2022 9:00:00 AM -99999.99 -179968 -99999.99 -99999.99 -99999.99 -99999.99
8/5/2022 9:15:00 AM -99999.99 -179968 -99999.99 -99999.99 -99999.99 -99999.99
8/5/2022 9:30:00 AM -99999.99 -179968 -99999.99 -99999.99 -99999.99 -99999.99
8/5/2022 9:45:00 AM -99999.99 -179968 -99999.99 -99999.99 -99999.99 -99999.99
8/5/2022 10:00:00 AM -99999.99 -179968 -99999.99 -99999.99 -99999.99 -99999.99
8/5/2022 10:15:00 AM -99999.99 -179968 -99999.99 -99999.99 -99999.99 -99999.99
8/5/2022 10:30:00 AM -99999.99 -179968 -99999.99 -99999.99 -99999.99 -99999.99
8/5/2022 10:45:00 AM -99999.99 -179968 -99999.99 -99999.99 -99999.99 -99999.99
8/5/2022 11:00:00 AM -99999.99 -179968 -99999.99 -99999.99 -99999.99 -99999.99
8/5/2022 11:15:00 AM -99999.99 -179968 -99999.99 -99999.99 -99999.99 -99999.99
8/5/2022 11:30:00 AM -99999.99 -179968 -99999.99 -99999.99 -99999.99 -99999.99
8/5/2022 11:45:00 AM -99999.99 -179968 -99999.99 -99999.99 -99999.99 -99999.99
8/5/2022 12:00:00 PM -99999.99 -179968 -99999.99 -99999.99 -99999.99 -99999.99
8/5/2022 12:15:00 PM -99999.99 -179968 -99999.99 -99999.99 -99999.99 -99999.99
8/5/2022 12:30:00 PM -99999.99 -179968 -99999.99 -99999.99 -99999.99 -99999.99
8/5/2022 12:45:00 PM -99999.99 -179968 -99999.99 -99999.99 -99999.99 -99999.99
8/5/2022 1:00:00 PM -99999.99 -179968 -99999.99 -99999.99 -99999.99 -99999.99
8/5/2022 1:15:00 PM -99999.99 -179968 -99999.99 -99999.99 -99999.99 -99999.99
8/5/2022 1:30:00 PM -99999.99 -179968 -99999.99 -99999.99 -99999.99 -99999.99
8/5/2022 1:45:00 PM -99999.99 -179968 -99999.99 -99999.99 -99999.99 -99999.99
8/5/2022 2:00:00 PM -99999.99 -179968 -99999.99 -99999.99 -99999.99 -99999.99
8/5/2022 2:15:00 PM -99999.99 -179968 -99999.99 -99999.99 -99999.99 -99999.99
8/5/2022 2:30:00 PM -99999.99 -179968 -99999.99 -99999.99 -99999.99 -99999.99
8/5/2022 2:45:00 PM -99999.99 -179968 -99999.99 -99999.99 -99999.99 -99999.99
8/5/2022 3:00:00 PM -99999.99 -179968 -99999.99 -99999.99 -99999.99 -99999.99
8/5/2022 3:15:00 PM -99999.99 -179968 -99999.99 -99999.99 -99999.99 -99999.99
8/5/2022 3:30:00 PM -99999.99 -179968 -99999.99 -99999.99 -99999.99 -99999.99
8/5/2022 3:45:00 PM -99999.99 -179968 -99999.99 -99999.99 -99999.99 -99999.99
8/5/2022 4:00:00 PM -99999.99 -179968 -99999.99 -99999.99 -99999.99 -99999.99
8/5/2022 4:15:00 PM -99999.99 -179968 -99999.99 -99999.99 -99999.99 -99999.99
8/5/2022 4:30:00 PM -99999.99 -179968 -99999.99 -99999.99 -99999.99 -99999.99
8/5/2022 4:45:00 PM -99999.99 -179968 -99999.99 -99999.99 -99999.99 -99999.99
8/5/2022 5:00:00 PM -99999.99 -179968 -99999.99 -99999.99 -99999.99 -99999.99
8/5/2022 5:15:00 PM -99999.99 -179968 -99999.99 -99999.99 -99999.99 -99999.99
8/5/2022 5:30:00 PM -99999.99 -179968 -99999.99 -99999.99 -99999.99 -99999.99
8/5/2022 5:45:00 PM -99999.99 -179968 -99999.99 -99999.99 -99999.99 -99999.99
8/5/2022 6:00:00 PM -99999.99 -179968 -99999.99 -99999.99 -99999.99 -99999.99
8/5/2022 6:15:00 PM -99999.99 -179968 -99999.99 -99999.99 -99999.99 -99999.99
8/5/2022 6:30:00 PM -99999.99 -179968 -99999.99 -99999.99 -99999.99 -99999.99
8/5/2022 6:45:00 PM -99999.99 -179968 -99999.99 -99999.99 -99999.99 -99999.99
8/5/2022 7:00:00 PM -99999.99 -179968 -99999.99 -99999.99 -99999.99 -99999.99
8/5/2022 7:15:00 PM -99999.99 -179968 -99999.99 -99999.99 -99999.99 -99999.99
8/5/2022 7:30:00 PM -99999.99 -179968 -99999.99 -99999.99 -99999.99 -99999.99
8/5/2022 7:45:00 PM -99999.99 -179968 -99999.99 -99999.99 -99999.99 -99999.99
8/5/2022 8:00:00 PM -99999.99 -179968 -99999.99 -99999.99 -99999.99 -99999.99
8/5/2022 8:15:00 PM -99999.99 -179968 -99999.99 -99999.99 -99999.99 -99999.99
8/5/2022 8:30:00 PM -99999.99 -179968 -99999.99 -99999.99 -99999.99 -99999.99
8/5/2022 8:45:00 PM -99999.99 -179968 -99999.99 -99999.99 -99999.99 -99999.99
8/5/2022 9:00:00 PM -99999.99 -179968 -99999.99 -99999.99 -99999.99 -99999.99
8/5/2022 9:15:00 PM -99999.99 -179968 -99999.99 -99999.99 -99999.99 -99999.99
8/5/2022 9:30:00 PM -99999.99 -179968 -99999.99 -99999.99 -99999.99 -99999.99
8/5/2022 9:45:00 PM -99999.99 -179968 -99999.99 -99999.99 -99999.99 -99999.99
8/5/2022 10:00:00 PM -99999.99 -179968 -99999.99 -99999.99 -99999.99 -99999.99
8/5/2022 10:15:00 PM -99999.99 -179968 -99999.99 -99999.99 -99999.99 -99999.99
8/5/2022 10:30:00 PM -99999.99 -179968 -99999.99 -99999.99 -99999.99 -99999.99
8/5/2022 10:45:00 PM -99999.99 -179968 -99999.99 -99999.99 -99999.99 -99999.99
8/5/2022 11:00:00 PM -99999.99 -179968 -99999.99 -99999.99 -99999.99 -99999.99
8/5/2022 11:15:00 PM -99999.99 -179968 -99999.99 -99999.99 -99999.99 -99999.99
8/5/2022 11:30:00 PM -99999.99 -179968 -99999.99 -99999.99 -99999.99 -99999.99
8/5/2022 11:45:00 PM -99999.99 -179968 -99999.99 -99999.99 -99999.99 -99999.99
8/6/2022 12:00:00 AM -99999.99 -179968 -99999.99 -99999.99 -99999.99 -99999.99
8/6/2022 12:15:00 AM -99999.99 -179968 -99999.99 -99999.99 -99999.99 -99999.99
8/6/2022 12:30:00 AM -99999.99 -179968 -99999.99 -99999.99 -99999.99 -99999.99
8/6/2022 12:45:00 AM -99999.99 -179968 -99999.99 -99999.99 -99999.99 -99999.99
8/6/2022 1:00:00 AM -99999.99 -179968 -99999.99 -99999.99 -99999.99 -99999.99
8/6/2022 1:15:00 AM -99999.99 -179968 -99999.99 -99999.99 -99999.99 -99999.99
8/6/2022 1:30:00 AM -99999.99 -179968 -99999.99 -99999.99 -99999.99 -99999.99
8/6/2022 1:45:00 AM -99999.99 -179968 -99999.99 -99999.99 -99999.99 -99999.99
8/6/2022 2:00:00 AM -99999.99 -179968 -99999.99 -99999.99 -99999.99 -99999.99
8/6/2022 2:15:00 AM -99999.99 -179968 -99999.99 -99999.99 -99999.99 -99999.99
8/6/2022 2:30:00 AM -99999.99 -179968 -99999.99 -99999.99 -99999.99 -99999.99
8/6/2022 2:45:00 AM -99999.99 -179968 -99999.99 -99999.99 -99999.99 -99999.99
8/6/2022 3:00:00 AM -99999.99 -179968 -99999.99 -99999.99 -99999.99 -99999.99
8/6/2022 3:15:00 AM -99999.99 -179968 -99999.99 -99999.99 -99999.99 -99999.99
8/6/2022 3:30:00 AM -99999.99 -179968 -99999.99 -99999.99 -99999.99 -99999.99
8/6/2022 3:45:00 AM -99999.99 -179968 -99999.99 -99999.99 -99999.99 -99999.99
8/6/2022 4:00:00 AM -99999.99 -179968 -99999.99 -99999.99 -99999.99 -99999.99
8/6/2022 4:15:00 AM -99999.99 -179968 -99999.99 -99999.99 -99999.99 -99999.99
8/6/2022 4:30:00 AM -99999.99 -179968 -99999.99 -99999.99 -99999.99 -99999.99
8/6/2022 4:45:00 AM -99999.99 -179968 -99999.99 -99999.99 -99999.99 -99999.99
8/6/2022 5:00:00 AM -99999.99 -179968 -99999.99 -99999.99 -99999.99 -99999.99
8/6/2022 5:15:00 AM -99999.99 -179968 -99999.99 -99999.99 -99999.99 -99999.99
8/6/2022 5:30:00 AM -99999.99 -179968 -99999.99 -99999.99 -99999.99 -99999.99
8/6/2022 5:45:00 AM -99999.99 -179968 -99999.99 -99999.99 -99999.99 -99999.99
8/6/2022 6:00:00 AM -99999.99 -179968 -99999.99 -99999.99 -99999.99 -99999.99
8/6/2022 6:15:00 AM -99999.99 -179968 -99999.99 -99999.99 -99999.99 -99999.99
8/6/2022 6:30:00 AM -99999.99 -179968 -99999.99 -99999.99 -99999.99 -99999.99
8/6/2022 6:45:00 AM -99999.99 -179968 -99999.99 -99999.99 -99999.99 -99999.99
8/6/2022 7:00:00 AM -99999.99 -179968 -99999.99 -99999.99 -99999.99 -99999.99
8/6/2022 7:15:00 AM -99999.99 -179968 -99999.99 -99999.99 -99999.99 -99999.99
8/6/2022 7:30:00 AM -99999.99 -179968 -99999.99 -99999.99 -99999.99 -99999.99
8/6/2022 7:45:00 AM -99999.99 -179968 -99999.99 -99999.99 -99999.99 -99999.99
8/6/2022 8:00:00 AM -99999.99 -179968 -99999.99 -99999.99 -99999.99 -99999.99
8/6/2022 8:15:00 AM -99999.99 -179968 -99999.99 -99999.99 -99999.99 -99999.99
8/6/2022 8:30:00 AM -99999.99 -179968 -99999.99 -99999.99 -99999.99 -99999.99
8/6/2022 8:45:00 AM -99999.99 -179968 -99999.99 -99999.99 -99999.99 -99999.99
8/6/2022 9:00:00 AM -99999.99 -179968 -99999.99 -99999.99 -99999.99 -99999.99
8/6/2022 9:15:00 AM -99999.99 -179968 -99999.99 -99999.99 -99999.99 -99999.99
8/6/2022 9:30:00 AM -99999.99 -179968 -99999.99 -99999.99 -99999.99 -99999.99
8/6/2022 9:45:00 AM -99999.99 -179968 -99999.99 -99999.99 -99999.99 -99999.99
8/6/2022 10:00:00 AM -99999.99 -179968 -99999.99 -99999.99 -99999.99 -99999.99
8/6/2022 10:15:00 AM -99999.99 -179968 -99999.99 -99999.99 -99999.99 -99999.99
8/6/2022 10:30:00 AM -99999.99 -179968 -99999.99 -99999.99 -99999.99 -99999.99
8/6/2022 10:45:00 AM -99999.99 -179968 -99999.99 -99999.99 -99999.99 -99999.99
8/6/2022 11:00:00 AM -99999.99 -179968 -99999.99 -99999.99 -99999.99 -99999.99
8/6/2022 11:15:00 AM -99999.99 -179968 -99999.99 -99999.99 -99999.99 -99999.99
8/6/2022 11:30:00 AM -99999.99 -179968 -99999.99 -99999.99 -99999.99 -99999.99
8/6/2022 11:45:00 AM -99999.99 -179968 -99999.99 -99999.99 -99999.99 -99999.99
8/6/2022 12:00:00 PM -99999.99 -179968 -99999.99 -99999.99 -99999.99 -99999.99
8/6/2022 12:15:00 PM -99999.99 -179968 -99999.99 -99999.99 -99999.99 -99999.99
8/6/2022 12:30:00 PM -99999.99 -179968 -99999.99 -99999.99 -99999.99 -99999.99
8/6/2022 12:45:00 PM -99999.99 -179968 -99999.99 -99999.99 -99999.99 -99999.99
8/6/2022 1:00:00 PM -99999.99 -179968 -99999.99 -99999.99 -99999.99 -99999.99
8/6/2022 1:15:00 PM -99999.99 -179968 -99999.99 -99999.99 -99999.99 -99999.99
8/6/2022 1:30:00 PM -99999.99 -179968 -99999.99 -99999.99 -99999.99 -99999.99
8/6/2022 1:45:00 PM -99999.99 -179968 -99999.99 -99999.99 -99999.99 -99999.99
8/6/2022 2:00:00 PM -99999.99 -179968 -99999.99 -99999.99 -99999.99 -99999.99
8/6/2022 2:15:00 PM -99999.99 -179968 -99999.99 -99999.99 -99999.99 -99999.99
8/6/2022 2:30:00 PM -99999.99 -179968 -99999.99 -99999.99 -99999.99 -99999.99
8/6/2022 2:45:00 PM -99999.99 -179968 -99999.99 -99999.99 -99999.99 -99999.99
8/6/2022 3:00:00 PM -99999.99 -179968 -99999.99 -99999.99 -99999.99 -99999.99
8/6/2022 3:15:00 PM -99999.99 -179968 -99999.99 -99999.99 -99999.99 -99999.99
8/6/2022 3:30:00 PM -99999.99 -179968 -99999.99 -99999.99 -99999.99 -99999.99
8/6/2022 3:45:00 PM -99999.99 -179968 -99999.99 -99999.99 -99999.99 -99999.99
8/6/2022 4:00:00 PM -99999.99 -179968 -99999.99 -99999.99 -99999.99 -99999.99
8/6/2022 4:15:00 PM -99999.99 -179968 -99999.99 -99999.99 -99999.99 -99999.99
8/6/2022 4:30:00 PM -99999.99 -179968 -99999.99 -99999.99 -99999.99 -99999.99
8/6/2022 4:45:00 PM -99999.99 -179968 -99999.99 -99999.99 -99999.99 -99999.99
8/6/2022 5:00:00 PM -99999.99 -179968 -99999.99 -99999.99 -99999.99 -99999.99
8/6/2022 5:15:00 PM -99999.99 -179968 -99999.99 -99999.99 -99999.99 -99999.99
8/6/2022 5:30:00 PM -99999.99 -179968 -99999.99 -99999.99 -99999.99 -99999.99
8/6/2022 5:45:00 PM -99999.99 -179968 -99999.99 -99999.99 -99999.99 -99999.99
8/6/2022 6:00:00 PM -99999.99 -179968 -99999.99 -99999.99 -99999.99 -99999.99
8/6/2022 6:15:00 PM -99999.99 -179968 -99999.99 -99999.99 -99999.99 -99999.99
8/6/2022 6:30:00 PM -99999.99 -179968 -99999.99 -99999.99 -99999.99 -99999.99
8/6/2022 6:45:00 PM -99999.99 -179968 -99999.99 -99999.99 -99999.99 -99999.99
8/6/2022 7:00:00 PM -99999.99 -179968 -99999.99 -99999.99 -99999.99 -99999.99
8/6/2022 7:15:00 PM -99999.99 -179968 -99999.99 -99999.99 -99999.99 -99999.99
8/6/2022 7:30:00 PM -99999.99 -179968 -99999.99 -99999.99 -99999.99 -99999.99
8/6/2022 7:45:00 PM -99999.99 -179968 -99999.99 -99999.99 -99999.99 -99999.99
8/6/2022 8:00:00 PM -99999.99 -179968 -99999.99 -99999.99 -99999.99 -99999.99
8/6/2022 8:15:00 PM -99999.99 -179968 -99999.99 -99999.99 -99999.99 -99999.99
8/6/2022 8:30:00 PM -99999.99 -179968 -99999.99 -99999.99 -99999.99 -99999.99
8/6/2022 8:45:00 PM -99999.99 -179968 -99999.99 -99999.99 -99999.99 -99999.99
8/6/2022 9:00:00 PM -99999.99 -179968 -99999.99 -99999.99 -99999.99 -99999.99
8/6/2022 9:15:00 PM -99999.99 -179968 -99999.99 -99999.99 -99999.99 -99999.99
8/6/2022 9:30:00 PM -99999.99 -179968 -99999.99 -99999.99 -99999.99 -99999.99
8/6/2022 9:45:00 PM -99999.99 -179968 -99999.99 -99999.99 -99999.99 -99999.99
8/6/2022 10:00:00 PM -99999.99 -179968 -99999.99 -99999.99 -99999.99 -99999.99
8/6/2022 10:15:00 PM -99999.99 -179968 -99999.99 -99999.99 -99999.99 -99999.99
8/6/2022 10:30:00 PM -99999.99 -179968 -99999.99 -99999.99 -99999.99 -99999.99
8/6/2022 10:45:00 PM -99999.99 -179968 -99999.99 -99999.99 -99999.99 -99999.99
8/6/2022 11:00:00 PM -99999.99 -179968 -99999.99 -99999.99 -99999.99 -99999.99
8/6/2022 11:15:00 PM -99999.99 -179968 -99999.99 -99999.99 -99999.99 -99999.99
8/6/2022 11:30:00 PM -99999.99 -179968 -99999.99 -99999.99 -99999.99 -99999.99
8/6/2022 11:45:00 PM -99999.99 -179968 -99999.99 -99999.99 -99999.99 -99999.99
8/7/2022 12:00:00 AM -99999.99 -179968 -99999.99 -99999.99 -99999.99 -99999.99
8/7/2022 12:15:00 AM -99999.99 -179968 -99999.99 -99999.99 -99999.99 -99999.99
8/7/2022 12:30:00 AM -99999.99 -179968 -99999.99 -99999.99 -99999.99 -99999.99
8/7/2022 12:45:00 AM -99999.99 -179968 -99999.99 -99999.99 -99999.99 -99999.99
8/7/2022 1:00:00 AM -99999.99 -179968 -99999.99 -99999.99 -99999.99 -99999.99
8/7/2022 1:15:00 AM -99999.99 -179968 -99999.99 -99999.99 -99999.99 -99999.99
8/7/2022 1:30:00 AM -99999.99 -179968 -99999.99 -99999.99 -99999.99 -99999.99
8/7/2022 1:45:00 AM -99999.99 -179968 -99999.99 -99999.99 -99999.99 -99999.99
8/7/2022 2:00:00 AM -99999.99 -179968 -99999.99 -99999.99 -99999.99 -99999.99
8/7/2022 2:15:00 AM -99999.99 -179968 -99999.99 -99999.99 -99999.99 -99999.99
8/7/2022 2:30:00 AM -99999.99 -179968 -99999.99 -99999.99 -99999.99 -99999.99
8/7/2022 2:45:00 AM -99999.99 -179968 -99999.99 -99999.99 -99999.99 -99999.99
8/7/2022 3:00:00 AM -99999.99 -179968 -99999.99 -99999.99 -99999.99 -99999.99
8/7/2022 3:15:00 AM -99999.99 -179968 -99999.99 -99999.99 -99999.99 -99999.99
8/7/2022 3:30:00 AM -99999.99 -179968 -99999.99 -99999.99 -99999.99 -99999.99
8/7/2022 3:45:00 AM -99999.99 -179968 -99999.99 -99999.99 -99999.99 -99999.99
8/7/2022 4:00:00 AM -99999.99 -179968 -99999.99 -99999.99 -99999.99 -99999.99
8/7/2022 4:15:00 AM -99999.99 -179968 -99999.99 -99999.99 -99999.99 -99999.99
8/7/2022 4:30:00 AM -99999.99 -179968 -99999.99 -99999.99 -99999.99 -99999.99
8/7/2022 4:45:00 AM -99999.99 -179968 -99999.99 -99999.99 -99999.99 -99999.99
8/7/2022 5:00:00 AM -99999.99 -179968 -99999.99 -99999.99 -99999.99 -99999.99
8/7/2022 5:15:00 AM -99999.99 -179968 -99999.99 -99999.99 -99999.99 -99999.99
8/7/2022 5:30:00 AM -99999.99 -179968 -99999.99 -99999.99 -99999.99 -99999.99
8/7/2022 5:45:00 AM -99999.99 -179968 -99999.99 -99999.99 -99999.99 -99999.99
8/7/2022 6:00:00 AM -99999.99 -179968 -99999.99 -99999.99 -99999.99 -99999.99
8/7/2022 6:15:00 AM -99999.99 -179968 -99999.99 -99999.99 -99999.99 -99999.99
8/7/2022 6:30:00 AM -99999.99 -179968 -99999.99 -99999.99 -99999.99 -99999.99
8/7/2022 6:45:00 AM -99999.99 -179968 -99999.99 -99999.99 -99999.99 -99999.99
8/7/2022 7:00:00 AM -99999.99 -179968 -99999.99 -99999.99 -99999.99 -99999.99
8/7/2022 7:15:00 AM -99999.99 -179968 -99999.99 -99999.99 -99999.99 -99999.99
8/7/2022 7:30:00 AM -99999.99 -179968 -99999.99 -99999.99 -99999.99 -99999.99
8/7/2022 7:45:00 AM -99999.99 -179968 -99999.99 -99999.99 -99999.99 -99999.99
8/7/2022 8:00:00 AM -99999.99 -179968 -99999.99 -99999.99 -99999.99 -99999.99
8/7/2022 8:15:00 AM -99999.99 -179968 -99999.99 -99999.99 -99999.99 -99999.99
8/7/2022 8:30:00 AM -99999.99 -179968 -99999.99 -99999.99 -99999.99 -99999.99
8/7/2022 8:45:00 AM -99999.99 -179968 -99999.99 -99999.99 -99999.99 -99999.99
8/7/2022 9:00:00 AM -99999.99 -179968 -99999.99 -99999.99 -99999.99 -99999.99
8/7/2022 9:15:00 AM -99999.99 -179968 -99999.99 -99999.99 -99999.99 -99999.99
8/7/2022 9:30:00 AM -99999.99 -179968 -99999.99 -99999.99 -99999.99 -99999.99
8/7/2022 9:45:00 AM -99999.99 -179968 -99999.99 -99999.99 -99999.99 -99999.99
8/7/2022 10:00:00 AM -99999.99 -179968 -99999.99 -99999.99 -99999.99 -99999.99
8/7/2022 10:15:00 AM -99999.99 -179968 -99999.99 -99999.99 -99999.99 -99999.99
8/7/2022 10:30:00 AM -99999.99 -179968 -99999.99 -99999.99 -99999.99 -99999.99
8/7/2022 10:45:00 AM -99999.99 -179968 -99999.99 -99999.99 -99999.99 -99999.99
8/7/2022 11:00:00 AM -99999.99 -179968 -99999.99 -99999.99 -99999.99 -99999.99
8/7/2022 11:15:00 AM -99999.99 -179968 -99999.99 -99999.99 -99999.99 -99999.99
8/7/2022 11:30:00 AM -99999.99 -179968 -99999.99 -99999.99 -99999.99 -99999.99
8/7/2022 11:45:00 AM -99999.99 -179968 -99999.99 -99999.99 -99999.99 -99999.99
8/7/2022 12:00:00 PM -99999.99 -179968 -99999.99 -99999.99 -99999.99 -99999.99
8/7/2022 12:15:00 PM -99999.99 -179968 -99999.99 -99999.99 -99999.99 -99999.99
8/7/2022 12:30:00 PM -99999.99 -179968 -99999.99 -99999.99 -99999.99 -99999.99
8/7/2022 12:45:00 PM -99999.99 -179968 -99999.99 -99999.99 -99999.99 -99999.99
8/7/2022 1:00:00 PM -99999.99 -179968 -99999.99 -99999.99 -99999.99 -99999.99
8/7/2022 1:15:00 PM -99999.99 -179968 -99999.99 -99999.99 -99999.99 -99999.99
8/7/2022 1:30:00 PM -99999.99 -179968 -99999.99 -99999.99 -99999.99 -99999.99
8/7/2022 1:45:00 PM -99999.99 -179968 -99999.99 -99999.99 -99999.99 -99999.99
8/7/2022 2:00:00 PM -99999.99 -179968 -99999.99 -99999.99 -99999.99 -99999.99
8/7/2022 2:15:00 PM -99999.99 -179968 -99999.99 -99999.99 -99999.99 -99999.99
8/7/2022 2:30:00 PM -99999.99 -179968 -99999.99 -99999.99 -99999.99 -99999.99
8/7/2022 2:45:00 PM -99999.99 -179968 -99999.99 -99999.99 -99999.99 -99999.99
8/7/2022 3:00:00 PM -99999.99 -179968 -99999.99 -99999.99 -99999.99 -99999.99
8/7/2022 3:15:00 PM -99999.99 -179968 -99999.99 -99999.99 -99999.99 -99999.99
8/7/2022 3:30:00 PM -99999.99 -179968 -99999.99 -99999.99 -99999.99 -99999.99
8/7/2022 3:45:00 PM -99999.99 -179968 -99999.99 -99999.99 -99999.99 -99999.99
8/7/2022 4:00:00 PM -99999.99 -179968 -99999.99 -99999.99 -99999.99 -99999.99
8/7/2022 4:15:00 PM -99999.99 -179968 -99999.99 -99999.99 -99999.99 -99999.99
8/7/2022 4:30:00 PM -99999.99 -179968 -99999.99 -99999.99 -99999.99 -99999.99
8/7/2022 4:45:00 PM -99999.99 -179968 -99999.99 -99999.99 -99999.99 -99999.99
8/7/2022 5:00:00 PM -99999.99 -179968 -99999.99 -99999.99 -99999.99 -99999.99
8/7/2022 5:15:00 PM -99999.99 -179968 -99999.99 -99999.99 -99999.99 -99999.99
8/7/2022 5:30:00 PM -99999.99 -179968 -99999.99 -99999.99 -99999.99 -99999.99
8/7/2022 5:45:00 PM -99999.99 -179968 -99999.99 -99999.99 -99999.99 -99999.99
8/7/2022 6:00:00 PM -99999.99 -179968 -99999.99 -99999.99 -99999.99 -99999.99
8/7/2022 6:15:00 PM -99999.99 -179968 -99999.99 -99999.99 -99999.99 -99999.99
8/7/2022 6:30:00 PM -99999.99 -179968 -99999.99 -99999.99 -99999.99 -99999.99
8/7/2022 6:45:00 PM -99999.99 -179968 -99999.99 -99999.99 -99999.99 -99999.99
8/7/2022 7:00:00 PM -99999.99 -179968 -99999.99 -99999.99 -99999.99 -99999.99
8/7/2022 7:15:00 PM -99999.99 -179968 -99999.99 -99999.99 -99999.99 -99999.99
8/7/2022 7:30:00 PM -99999.99 -179968 -99999.99 -99999.99 -99999.99 -99999.99
8/7/2022 7:45:00 PM -99999.99 -179968 -99999.99 -99999.99 -99999.99 -99999.99
8/7/2022 8:00:00 PM -99999.99 -179968 -99999.99 -99999.99 -99999.99 -99999.99
8/7/2022 8:15:00 PM -99999.99 -179968 -99999.99 -99999.99 -99999.99 -99999.99
8/7/2022 8:30:00 PM -99999.99 -179968 -99999.99 -99999.99 -99999.99 -99999.99
8/7/2022 8:45:00 PM -99999.99 -179968 -99999.99 -99999.99 -99999.99 -99999.99
8/7/2022 9:00:00 PM -99999.99 -179968 -99999.99 -99999.99 -99999.99 -99999.99
8/7/2022 9:15:00 PM -99999.99 -179968 -99999.99 -99999.99 -99999.99 -99999.99
8/7/2022 9:30:00 PM -99999.99 -179968 -99999.99 -99999.99 -99999.99 -99999.99
8/7/2022 9:45:00 PM -99999.99 -179968 -99999.99 -99999.99 -99999.99 -99999.99
8/7/2022 10:00:00 PM -99999.99 -179968 -99999.99 -99999.99 -99999.99 -99999.99
8/7/2022 10:15:00 PM -99999.99 -179968 -99999.99 -99999.99 -99999.99 -99999.99
8/7/2022 10:30:00 PM -99999.99 -179968 -99999.99 -99999.99 -99999.99 -99999.99
8/7/2022 10:45:00 PM -99999.99 -179968 -99999.99 -99999.99 -99999.99 -99999.99
8/7/2022 11:00:00 PM -99999.99 -179968 -99999.99 -99999.99 -99999.99 -99999.99
8/7/2022 11:15:00 PM -99999.99 -179968 -99999.99 -99999.99 -99999.99 -99999.99
8/7/2022 11:30:00 PM -99999.99 -179968 -99999.99 -99999.99 -99999.99 -99999.99
8/7/2022 11:45:00 PM -99999.99 -179968 -99999.99 -99999.99 -99999.99 -99999.99
8/8/2022 12:00:00 AM -99999.99 -179968 -99999.99 -99999.99 -99999.99 -99999.99
8/8/2022 12:15:00 AM -99999.99 -179968 -99999.99 -99999.99 -99999.99 -99999.99
8/8/2022 12:30:00 AM -99999.99 -179968 -99999.99 -99999.99 -99999.99 -99999.99
8/8/2022 12:45:00 AM -99999.99 -179968 -99999.99 -99999.99 -99999.99 -99999.99
8/8/2022 1:00:00 AM -99999.99 -179968 -99999.99 -99999.99 -99999.99 -99999.99
8/8/2022 1:15:00 AM -99999.99 -179968 -99999.99 -99999.99 -99999.99 -99999.99
8/8/2022 1:30:00 AM -99999.99 -179968 -99999.99 -99999.99 -99999.99 -99999.99
8/8/2022 1:45:00 AM -99999.99 -179968 -99999.99 -99999.99 -99999.99 -99999.99
8/8/2022 2:00:00 AM -99999.99 -179968 -99999.99 -99999.99 -99999.99 -99999.99
8/8/2022 2:15:00 AM -99999.99 -179968 -99999.99 -99999.99 -99999.99 -99999.99
8/8/2022 2:30:00 AM -99999.99 -179968 -99999.99 -99999.99 -99999.99 -99999.99
8/8/2022 2:45:00 AM -99999.99 -179968 -99999.99 -99999.99 -99999.99 -99999.99
8/8/2022 3:00:00 AM -99999.99 -179968 -99999.99 -99999.99 -99999.99 -99999.99
8/8/2022 3:15:00 AM -99999.99 -179968 -99999.99 -99999.99 -99999.99 -99999.99
8/8/2022 3:30:00 AM -99999.99 -179968 -99999.99 -99999.99 -99999.99 -99999.99
8/8/2022 3:45:00 AM -99999.99 -179968 -99999.99 -99999.99 -99999.99 -99999.99
8/8/2022 4:00:00 AM -99999.99 -179968 -99999.99 -99999.99 -99999.99 -99999.99
8/8/2022 4:15:00 AM -99999.99 -179968 -99999.99 -99999.99 -99999.99 -99999.99
8/8/2022 4:30:00 AM -99999.99 -179968 -99999.99 -99999.99 -99999.99 -99999.99
8/8/2022 4:45:00 AM -99999.99 -179968 -99999.99 -99999.99 -99999.99 -99999.99
8/8/2022 5:00:00 AM -99999.99 -179968 -99999.99 -99999.99 -99999.99 -99999.99
8/8/2022 5:15:00 AM -99999.99 -179968 -99999.99 -99999.99 -99999.99 -99999.99
8/8/2022 5:30:00 AM -99999.99 -179968 -99999.99 -99999.99 -99999.99 -99999.99
8/8/2022 5:45:00 AM -99999.99 -179968 -99999.99 -99999.99 -99999.99 -99999.99
8/8/2022 6:00:00 AM -99999.99 -179968 -99999.99 -99999.99 -99999.99 -99999.99
8/8/2022 6:15:00 AM -99999.99 -179968 -99999.99 -99999.99 -99999.99 -99999.99
8/8/2022 6:30:00 AM -99999.99 -179968 -99999.99 -99999.99 -99999.99 -99999.99
8/8/2022 6:45:00 AM -99999.99 -179968 -99999.99 -99999.99 -99999.99 -99999.99
8/8/2022 7:00:00 AM -99999.99 -179968 -99999.99 -99999.99 -99999.99 -99999.99
8/8/2022 7:15:00 AM -99999.99 -179968 -99999.99 -99999.99 -99999.99 -99999.99
8/8/2022 7:30:00 AM -99999.99 -179968 -99999.99 -99999.99 -99999.99 -99999.99
8/8/2022 7:45:00 AM -99999.99 -179968 -99999.99 -99999.99 -99999.99 -99999.99
8/8/2022 8:00:00 AM -99999.99 -179968 -99999.99 -99999.99 -99999.99 -99999.99
8/8/2022 8:15:00 AM -99999.99 -179968 -99999.99 -99999.99 -99999.99 -99999.99
8/8/2022 8:30:00 AM -99999.99 -179968 -99999.99 -99999.99 -99999.99 -99999.99
8/8/2022 8:45:00 AM -99999.99 -179968 -99999.99 -99999.99 -99999.99 -99999.99
8/8/2022 9:00:00 AM -99999.99 -179968 -99999.99 -99999.99 -99999.99 -99999.99
8/8/2022 9:15:00 AM -99999.99 -179968 -99999.99 -99999.99 -99999.99 -99999.99
8/8/2022 9:30:00 AM -99999.99 -179968 -99999.99 -99999.99 -99999.99 -99999.99
8/8/2022 9:45:00 AM -99999.99 -179968 -99999.99 -99999.99 -99999.99 -99999.99
8/8/2022 10:00:00 AM -99999.99 -179968 -99999.99 -99999.99 -99999.99 -99999.99
8/8/2022 10:15:00 AM -99999.99 -179968 -99999.99 -99999.99 -99999.99 -99999.99
8/8/2022 10:30:00 AM -99999.99 -179968 -99999.99 -99999.99 -99999.99 -99999.99
8/8/2022 10:45:00 AM -99999.99 -179968 -99999.99 -99999.99 -99999.99 -99999.99
8/8/2022 11:00:00 AM -99999.99 -179968 -99999.99 -99999.99 -99999.99 -99999.99
8/8/2022 11:15:00 AM -99999.99 -179968 -99999.99 -99999.99 -99999.99 -99999.99
8/8/2022 11:30:00 AM -99999.99 -179968 -99999.99 -99999.99 -99999.99 -99999.99
8/8/2022 11:45:00 AM -99999.99 -179968 -99999.99 -99999.99 -99999.99 -99999.99
8/8/2022 12:00:00 PM -99999.99 -179968 -99999.99 -99999.99 -99999.99 -99999.99
8/8/2022 12:15:00 PM -99999.99 -179968 -99999.99 -99999.99 -99999.99 -99999.99
8/8/2022 12:30:00 PM -99999.99 -179968 -99999.99 -99999.99 -99999.99 -99999.99
8/8/2022 12:45:00 PM -99999.99 -179968 -99999.99 -99999.99 -99999.99 -99999.99
8/8/2022 1:00:00 PM -99999.99 -179968 -99999.99 -99999.99 -99999.99 -99999.99
8/8/2022 1:15:00 PM -99999.99 -179968 -99999.99 -99999.99 -99999.99 -99999.99
8/8/2022 1:30:00 PM -99999.99 -179968 -99999.99 -99999.99 -99999.99 -99999.99
8/8/2022 1:45:00 PM -99999.99 -179968 -99999.99 -99999.99 -99999.99 -99999.99
8/8/2022 2:00:00 PM -99999.99 -179968 -99999.99 -99999.99 -99999.99 -99999.99
8/8/2022 2:15:00 PM -99999.99 -179968 -99999.99 -99999.99 -99999.99 -99999.99
8/8/2022 2:30:00 PM -99999.99 -179968 -99999.99 -99999.99 -99999.99 -99999.99
8/8/2022 2:45:00 PM -99999.99 -179968 -99999.99 -99999.99 -99999.99 -99999.99
8/8/2022 3:00:00 PM -99999.99 -179968 -99999.99 -99999.99 -99999.99 -99999.99
8/8/2022 3:15:00 PM -99999.99 -179968 -99999.99 -99999.99 -99999.99 -99999.99
8/8/2022 3:30:00 PM -99999.99 -179968 -99999.99 -99999.99 -99999.99 -99999.99
8/8/2022 3:45:00 PM -99999.99 -179968 -99999.99 -99999.99 -99999.99 -99999.99
8/8/2022 4:00:00 PM -99999.99 -179968 -99999.99 -99999.99 -99999.99 -99999.99
8/8/2022 4:15:00 PM -99999.99 -179968 -99999.99 -99999.99 -99999.99 -99999.99
8/8/2022 4:30:00 PM -99999.99 -179968 -99999.99 -99999.99 -99999.99 -99999.99
8/8/2022 4:45:00 PM -99999.99 -179968 -99999.99 -99999.99 -99999.99 -99999.99
8/8/2022 5:00:00 PM -99999.99 -179968 -99999.99 -99999.99 -99999.99 -99999.99
8/8/2022 5:15:00 PM -99999.99 -179968 -99999.99 -99999.99 -99999.99 -99999.99
8/8/2022 5:30:00 PM -99999.99 -179968 -99999.99 -99999.99 -99999.99 -99999.99
8/8/2022 5:45:00 PM -99999.99 -179968 -99999.99 -99999.99 -99999.99 -99999.99
8/8/2022 6:00:00 PM -99999.99 -179968 -99999.99 -99999.99 -99999.99 -99999.99
8/8/2022 6:15:00 PM -99999.99 -179968 -99999.99 -99999.99 -99999.99 -99999.99
8/8/2022 6:30:00 PM -99999.99 -179968 -99999.99 -99999.99 -99999.99 -99999.99
8/8/2022 6:45:00 PM -99999.99 -179968 -99999.99 -99999.99 -99999.99 -99999.99
8/8/2022 7:00:00 PM -99999.99 -179968 -99999.99 -99999.99 -99999.99 -99999.99
8/8/2022 7:15:00 PM -99999.99 -179968 -99999.99 -99999.99 -99999.99 -99999.99
8/8/2022 7:30:00 PM -99999.99 -179968 -99999.99 -99999.99 -99999.99 -99999.99
8/8/2022 7:45:00 PM -99999.99 -179968 -99999.99 -99999.99 -99999.99 -99999.99
8/8/2022 8:00:00 PM -99999.99 -179968 -99999.99 -99999.99 -99999.99 -99999.99
8/8/2022 8:15:00 PM -99999.99 -179968 -99999.99 -99999.99 -99999.99 -99999.99
8/8/2022 8:30:00 PM -99999.99 -179968 -99999.99 -99999.99 -99999.99 -99999.99
8/8/2022 8:45:00 PM -99999.99 -179968 -99999.99 -99999.99 -99999.99 -99999.99
8/8/2022 9:00:00 PM -99999.99 -179968 -99999.99 -99999.99 -99999.99 -99999.99
8/8/2022 9:15:00 PM -99999.99 -179968 -99999.99 -99999.99 -99999.99 -99999.99
8/8/2022 9:30:00 PM -99999.99 -179968 -99999.99 -99999.99 -99999.99 -99999.99
8/8/2022 9:45:00 PM -99999.99 -179968 -99999.99 -99999.99 -99999.99 -99999.99
8/8/2022 10:00:00 PM -99999.99 -179968 -99999.99 -99999.99 -99999.99 -99999.99
8/8/2022 10:15:00 PM -99999.99 -179968 -99999.99 -99999.99 -99999.99 -99999.99
8/8/2022 10:30:00 PM -99999.99 -179968 -99999.99 -99999.99 -99999.99 -99999.99
8/8/2022 10:45:00 PM -99999.99 -179968 -99999.99 -99999.99 -99999.99 -99999.99
8/8/2022 11:00:00 PM -99999.99 -179968 -99999.99 -99999.99 -99999.99 -99999.99
8/8/2022 11:15:00 PM -99999.99 -179968 -99999.99 -99999.99 -99999.99 -99999.99
8/8/2022 11:30:00 PM -99999.99 -179968 -99999.99 -99999.99 -99999.99 -99999.99
8/8/2022 11:45:00 PM -99999.99 -179968 -99999.99 -99999.99 -99999.99 -99999.99
8/9/2022 12:00:00 AM -99999.99 -179968 -99999.99 -99999.99 -99999.99 -99999.99
8/9/2022 12:15:00 AM -99999.99 -179968 -99999.99 -99999.99 -99999.99 -99999.99
8/9/2022 12:30:00 AM -99999.99 -179968 -99999.99 -99999.99 -99999.99 -99999.99
8/9/2022 12:45:00 AM -99999.99 -179968 -99999.99 -99999.99 -99999.99 -99999.99
8/9/2022 1:00:00 AM -99999.99 -179968 -99999.99 -99999.99 -99999.99 -99999.99
8/9/2022 1:15:00 AM -99999.99 -179968 -99999.99 -99999.99 -99999.99 -99999.99
8/9/2022 1:30:00 AM -99999.99 -179968 -99999.99 -99999.99 -99999.99 -99999.99
8/9/2022 1:45:00 AM -99999.99 -179968 -99999.99 -99999.99 -99999.99 -99999.99
8/9/2022 2:00:00 AM -99999.99 -179968 -99999.99 -99999.99 -99999.99 -99999.99
8/9/2022 2:15:00 AM -99999.99 -179968 -99999.99 -99999.99 -99999.99 -99999.99
8/9/2022 2:30:00 AM -99999.99 -179968 -99999.99 -99999.99 -99999.99 -99999.99
8/9/2022 2:45:00 AM -99999.99 -179968 -99999.99 -99999.99 -99999.99 -99999.99
8/9/2022 3:00:00 AM -99999.99 -179968 -99999.99 -99999.99 -99999.99 -99999.99
8/9/2022 3:15:00 AM -99999.99 -179968 -99999.99 -99999.99 -99999.99 -99999.99
8/9/2022 3:30:00 AM -99999.99 -179968 -99999.99 -99999.99 -99999.99 -99999.99
8/9/2022 3:45:00 AM -99999.99 -179968 -99999.99 -99999.99 -99999.99 -99999.99
8/9/2022 4:00:00 AM -99999.99 -179968 -99999.99 -99999.99 -99999.99 -99999.99
8/9/2022 4:15:00 AM -99999.99 -179968 -99999.99 -99999.99 -99999.99 -99999.99
8/9/2022 4:30:00 AM -99999.99 -179968 -99999.99 -99999.99 -99999.99 -99999.99
8/9/2022 4:45:00 AM -99999.99 -179968 -99999.99 -99999.99 -99999.99 -99999.99
8/9/2022 5:00:00 AM -99999.99 -179968 -99999.99 -99999.99 -99999.99 -99999.99
8/9/2022 5:15:00 AM -99999.99 -179968 -99999.99 -99999.99 -99999.99 -99999.99
8/9/2022 5:30:00 AM -99999.99 -179968 -99999.99 -99999.99 -99999.99 -99999.99
8/9/2022 5:45:00 AM -99999.99 -179968 -99999.99 -99999.99 -99999.99 -99999.99
8/9/2022 6:00:00 AM -99999.99 -179968 -99999.99 -99999.99 -99999.99 -99999.99
8/9/2022 6:15:00 AM -99999.99 -179968 -99999.99 -99999.99 -99999.99 -99999.99
8/9/2022 6:30:00 AM -99999.99 -179968 -99999.99 -99999.99 -99999.99 -99999.99
8/9/2022 6:45:00 AM -99999.99 -179968 -99999.99 -99999.99 -99999.99 -99999.99
8/9/2022 7:00:00 AM -99999.99 -179968 -99999.99 -99999.99 -99999.99 -99999.99
8/9/2022 7:15:00 AM -99999.99 -179968 -99999.99 -99999.99 -99999.99 -99999.99
8/9/2022 7:30:00 AM -99999.99 -179968 -99999.99 -99999.99 -99999.99 -99999.99
8/9/2022 7:45:00 AM -99999.99 -179968 -99999.99 -99999.99 -99999.99 -99999.99
8/9/2022 8:00:00 AM -99999.99 -179968 -99999.99 -99999.99 -99999.99 -99999.99
8/9/2022 8:15:00 AM -99999.99 -179968 -99999.99 -99999.99 -99999.99 -99999.99
8/9/2022 8:30:00 AM -99999.99 -179968 -99999.99 -99999.99 -99999.99 -99999.99
8/9/2022 8:45:00 AM -99999.99 -179968 -99999.99 -99999.99 -99999.99 -99999.99
8/9/2022 9:00:00 AM -99999.99 -179968 -99999.99 -99999.99 -99999.99 -99999.99
8/9/2022 9:15:00 AM -99999.99 -179968 -99999.99 -99999.99 -99999.99 -99999.99
8/9/2022 9:30:00 AM -99999.99 -179968 -99999.99 -99999.99 -99999.99 -99999.99
8/9/2022 9:45:00 AM -99999.99 -179968 -99999.99 -99999.99 -99999.99 -99999.99
8/9/2022 10:00:00 AM -99999.99 -179968 -99999.99 -99999.99 -99999.99 -99999.99
8/9/2022 10:15:00 AM -99999.99 -179968 -99999.99 -99999.99 -99999.99 -99999.99
8/9/2022 10:30:00 AM -99999.99 -179968 -99999.99 -99999.99 -99999.99 -99999.99
8/9/2022 10:45:00 AM -99999.99 -179968 -99999.99 -99999.99 -99999.99 -99999.99
8/9/2022 11:00:00 AM -99999.99 -179968 -99999.99 -99999.99 -99999.99 -99999.99
8/9/2022 11:15:00 AM -99999.99 -179968 -99999.99 -99999.99 -99999.99 -99999.99
8/9/2022 11:30:00 AM -99999.99 -179968 -99999.99 -99999.99 -99999.99 -99999.99
8/9/2022 11:45:00 AM -99999.99 -179968 -99999.99 -99999.99 -99999.99 -99999.99
8/9/2022 12:00:00 PM -99999.99 -179968 -99999.99 -99999.99 -99999.99 -99999.99
8/9/2022 12:15:00 PM -99999.99 -179968 -99999.99 -99999.99 -99999.99 -99999.99
8/9/2022 12:30:00 PM -99999.99 -179968 -99999.99 -99999.99 -99999.99 -99999.99
8/9/2022 12:45:00 PM -99999.99 -179968 -99999.99 -99999.99 -99999.99 -99999.99
8/9/2022 1:00:00 PM -99999.99 -179968 -99999.99 -99999.99 -99999.99 -99999.99
8/9/2022 1:15:00 PM -99999.99 -179968 -99999.99 -99999.99 -99999.99 -99999.99
8/9/2022 1:30:00 PM -99999.99 -179968 -99999.99 -99999.99 -99999.99 -99999.99
8/9/2022 1:45:00 PM -99999.99 -179968 -99999.99 -99999.99 -99999.99 -99999.99
8/9/2022 2:00:00 PM -99999.99 -179968 -99999.99 -99999.99 -99999.99 -99999.99
8/9/2022 2:15:00 PM -99999.99 -179968 -99999.99 -99999.99 -99999.99 -99999.99
8/9/2022 2:30:00 PM -99999.99 -179968 -99999.99 -99999.99 -99999.99 -99999.99
8/9/2022 2:45:00 PM -99999.99 -179968 -99999.99 -99999.99 -99999.99 -99999.99
8/9/2022 3:00:00 PM -99999.99 -179968 -99999.99 -99999.99 -99999.99 -99999.99
8/9/2022 3:15:00 PM -99999.99 -179968 -99999.99 -99999.99 -99999.99 -99999.99
8/9/2022 3:30:00 PM -99999.99 -179968 -99999.99 -99999.99 -99999.99 -99999.99
8/9/2022 3:45:00 PM -99999.99 -179968 -99999.99 -99999.99 -99999.99 -99999.99
8/9/2022 4:00:00 PM -99999.99 -179968 -99999.99 -99999.99 -99999.99 -99999.99
8/9/2022 4:15:00 PM -99999.99 -179968 -99999.99 -99999.99 -99999.99 -99999.99
8/9/2022 4:30:00 PM -99999.99 -179968 -99999.99 -99999.99 -99999.99 -99999.99
8/9/2022 4:45:00 PM -99999.99 -179968 -99999.99 -99999.99 -99999.99 -99999.99
8/9/2022 5:00:00 PM -99999.99 -179968 -99999.99 -99999.99 -99999.99 -99999.99
8/9/2022 5:15:00 PM -99999.99 -179968 -99999.99 -99999.99 -99999.99 -99999.99
8/9/2022 5:30:00 PM -99999.99 -179968 -99999.99 -99999.99 -99999.99 -99999.99
8/9/2022 5:45:00 PM -99999.99 -179968 -99999.99 -99999.99 -99999.99 -99999.99
8/9/2022 6:00:00 PM -99999.99 -179968 -99999.99 -99999.99 -99999.99 -99999.99
8/9/2022 6:15:00 PM -99999.99 -179968 -99999.99 -99999.99 -99999.99 -99999.99
8/9/2022 6:30:00 PM -99999.99 -179968 -99999.99 -99999.99 -99999.99 -99999.99
8/9/2022 6:45:00 PM -99999.99 -179968 -99999.99 -99999.99 -99999.99 -99999.99
8/9/2022 7:00:00 PM -99999.99 -179968 -99999.99 -99999.99 -99999.99 -99999.99
8/9/2022 7:15:00 PM -99999.99 -179968 -99999.99 -99999.99 -99999.99 -99999.99
8/9/2022 7:30:00 PM -99999.99 -179968 -99999.99 -99999.99 -99999.99 -99999.99
8/9/2022 7:45:00 PM -99999.99 -179968 -99999.99 -99999.99 -99999.99 -99999.99
8/9/2022 8:00:00 PM -99999.99 -179968 -99999.99 -99999.99 -99999.99 -99999.99
8/9/2022 8:15:00 PM -99999.99 -179968 -99999.99 -99999.99 -99999.99 -99999.99
8/9/2022 8:30:00 PM -99999.99 -179968 -99999.99 -99999.99 -99999.99 -99999.99
8/9/2022 8:45:00 PM -99999.99 -179968 -99999.99 -99999.99 -99999.99 -99999.99
8/9/2022 9:00:00 PM -99999.99 -179968 -99999.99 -99999.99 -99999.99 -99999.99
8/9/2022 9:15:00 PM -99999.99 -179968 -99999.99 -99999.99 -99999.99 -99999.99
8/9/2022 9:30:00 PM -99999.99 -179968 -99999.99 -99999.99 -99999.99 -99999.99
8/9/2022 9:45:00 PM -99999.99 -179968 -99999.99 -99999.99 -99999.99 -99999.99
8/9/2022 10:00:00 PM -99999.99 -179968 -99999.99 -99999.99 -99999.99 -99999.99
8/9/2022 10:15:00 PM -99999.99 -179968 -99999.99 -99999.99 -99999.99 -99999.99
8/9/2022 10:30:00 PM -99999.99 -179968 -99999.99 -99999.99 -99999.99 -99999.99
8/9/2022 10:45:00 PM -99999.99 -179968 -99999.99 -99999.99 -99999.99 -99999.99
8/9/2022 11:00:00 PM -99999.99 -179968 -99999.99 -99999.99 -99999.99 -99999.99
8/9/2022 11:15:00 PM -99999.99 -179968 -99999.99 -99999.99 -99999.99 -99999.99
8/9/2022 11:30:00 PM -99999.99 -179968 -99999.99 -99999.99 -99999.99 -99999.99
8/9/2022 11:45:00 PM -99999.99 -179968 -99999.99 -99999.99 -99999.99 -99999.99
8/10/2022 12:00:00 AM -99999.99 -179968 -99999.99 -99999.99 -99999.99 -99999.99
8/10/2022 12:15:00 AM -99999.99 -179968 -99999.99 -99999.99 -99999.99 -99999.99
8/10/2022 12:30:00 AM -99999.99 -179968 -99999.99 -99999.99 -99999.99 -99999.99
8/10/2022 12:45:00 AM -99999.99 -179968 -99999.99 -99999.99 -99999.99 -99999.99
8/10/2022 1:00:00 AM -99999.99 -179968 -99999.99 -99999.99 -99999.99 -99999.99
8/10/2022 1:15:00 AM -99999.99 -179968 -99999.99 -99999.99 -99999.99 -99999.99
8/10/2022 1:30:00 AM -99999.99 -179968 -99999.99 -99999.99 -99999.99 -99999.99
8/10/2022 1:45:00 AM -99999.99 -179968 -99999.99 -99999.99 -99999.99 -99999.99
8/10/2022 2:00:00 AM -99999.99 -179968 -99999.99 -99999.99 -99999.99 -99999.99
8/10/2022 2:15:00 AM -99999.99 -179968 -99999.99 -99999.99 -99999.99 -99999.99
8/10/2022 2:30:00 AM -99999.99 -179968 -99999.99 -99999.99 -99999.99 -99999.99
8/10/2022 2:45:00 AM -99999.99 -179968 -99999.99 -99999.99 -99999.99 -99999.99
8/10/2022 3:00:00 AM -99999.99 -179968 -99999.99 -99999.99 -99999.99 -99999.99
8/10/2022 3:15:00 AM -99999.99 -179968 -99999.99 -99999.99 -99999.99 -99999.99
8/10/2022 3:30:00 AM -99999.99 -179968 -99999.99 -99999.99 -99999.99 -99999.99
8/10/2022 3:45:00 AM -99999.99 -179968 -99999.99 -99999.99 -99999.99 -99999.99
8/10/2022 4:00:00 AM -99999.99 -179968 -99999.99 -99999.99 -99999.99 -99999.99
8/10/2022 4:15:00 AM -99999.99 -179968 -99999.99 -99999.99 -99999.99 -99999.99
8/10/2022 4:30:00 AM -99999.99 -179968 -99999.99 -99999.99 -99999.99 -99999.99
8/10/2022 4:45:00 AM -99999.99 -179968 -99999.99 -99999.99 -99999.99 -99999.99
8/10/2022 5:00:00 AM -99999.99 -179968 -99999.99 -99999.99 -99999.99 -99999.99
8/10/2022 5:15:00 AM -99999.99 -179968 -99999.99 -99999.99 -99999.99 -99999.99
8/10/2022 5:30:00 AM -99999.99 -179968 -99999.99 -99999.99 -99999.99 -99999.99
8/10/2022 5:45:00 AM -99999.99 -179968 -99999.99 -99999.99 -99999.99 -99999.99
8/10/2022 6:00:00 AM -99999.99 -179968 -99999.99 -99999.99 -99999.99 -99999.99
8/10/2022 6:15:00 AM -99999.99 -179968 -99999.99 -99999.99 -99999.99 -99999.99
8/10/2022 6:30:00 AM -99999.99 -179968 -99999.99 -99999.99 -99999.99 -99999.99
8/10/2022 6:45:00 AM -99999.99 -179968 -99999.99 -99999.99 -99999.99 -99999.99
8/10/2022 7:00:00 AM -99999.99 -179968 -99999.99 -99999.99 -99999.99 -99999.99
8/10/2022 7:15:00 AM -99999.99 -179968 -99999.99 -99999.99 -99999.99 -99999.99
8/10/2022 7:30:00 AM -99999.99 -179968 -99999.99 -99999.99 -99999.99 -99999.99
8/10/2022 7:45:00 AM -99999.99 -179968 -99999.99 -99999.99 -99999.99 -99999.99
8/10/2022 8:00:00 AM -99999.99 -179968 -99999.99 -99999.99 -99999.99 -99999.99
8/10/2022 8:15:00 AM -99999.99 -179968 -99999.99 -99999.99 -99999.99 -99999.99
8/10/2022 8:30:00 AM -99999.99 -179968 -99999.99 -99999.99 -99999.99 -99999.99
8/10/2022 8:45:00 AM -99999.99 -179968 -99999.99 -99999.99 -99999.99 -99999.99
8/10/2022 9:00:00 AM -99999.99 -179968 -99999.99 -99999.99 -99999.99 -99999.99
8/10/2022 9:15:00 AM -99999.99 -179968 -99999.99 -99999.99 -99999.99 -99999.99
8/10/2022 9:30:00 AM -99999.99 -179968 -99999.99 -99999.99 -99999.99 -99999.99
8/10/2022 9:45:00 AM -99999.99 -179968 -99999.99 -99999.99 -99999.99 -99999.99
8/10/2022 10:00:00 AM -99999.99 -179968 -99999.99 -99999.99 -99999.99 -99999.99
8/10/2022 10:15:00 AM -99999.99 -179968 -99999.99 -99999.99 -99999.99 -99999.99
8/10/2022 10:30:00 AM -99999.99 -179968 -99999.99 -99999.99 -99999.99 -99999.99
8/10/2022 10:45:00 AM -99999.99 -179968 -99999.99 -99999.99 -99999.99 -99999.99
8/10/2022 11:00:00 AM -99999.99 -179968 -99999.99 -99999.99 -99999.99 -99999.99
8/10/2022 11:15:00 AM -99999.99 -179968 -99999.99 -99999.99 -99999.99 -99999.99
8/10/2022 11:30:00 AM -99999.99 -179968 -99999.99 -99999.99 -99999.99 -99999.99
8/10/2022 11:45:00 AM -99999.99 -179968 -99999.99 -99999.99 -99999.99 -99999.99
8/10/2022 12:00:00 PM -99999.99 -179968 -99999.99 -99999.99 -99999.99 -99999.99
8/10/2022 12:15:00 PM -99999.99 -179968 -99999.99 -99999.99 -99999.99 -99999.99
8/10/2022 12:30:00 PM -99999.99 -179968 -99999.99 -99999.99 -99999.99 -99999.99
8/10/2022 12:45:00 PM -99999.99 -179968 -99999.99 -99999.99 -99999.99 -99999.99
8/10/2022 1:00:00 PM -99999.99 -179968 -99999.99 -99999.99 -99999.99 -99999.99
8/10/2022 1:15:00 PM -99999.99 -179968 -99999.99 -99999.99 -99999.99 -99999.99
8/10/2022 1:30:00 PM -99999.99 -179968 -99999.99 -99999.99 -99999.99 -99999.99
8/10/2022 1:45:00 PM -99999.99 -179968 -99999.99 -99999.99 -99999.99 -99999.99
8/10/2022 2:00:00 PM -99999.99 -179968 -99999.99 -99999.99 -99999.99 -99999.99
8/10/2022 2:15:00 PM -99999.99 -179968 -99999.99 -99999.99 -99999.99 -99999.99
8/10/2022 2:30:00 PM -99999.99 -179968 -99999.99 -99999.99 -99999.99 -99999.99
8/10/2022 2:45:00 PM -99999.99 -179968 -99999.99 -99999.99 -99999.99 -99999.99
8/10/2022 3:00:00 PM -99999.99 -179968 -99999.99 -99999.99 -99999.99 -99999.99
8/10/2022 3:15:00 PM -99999.99 -179968 -99999.99 -99999.99 -99999.99 -99999.99
8/10/2022 3:30:00 PM -99999.99 -179968 -99999.99 -99999.99 -99999.99 -99999.99
8/10/2022 3:45:00 PM -99999.99 -179968 -99999.99 -99999.99 -99999.99 -99999.99
8/10/2022 4:00:00 PM -99999.99 -179968 -99999.99 -99999.99 -99999.99 -99999.99
8/10/2022 4:15:00 PM -99999.99 -179968 -99999.99 -99999.99 -99999.99 -99999.99
8/10/2022 4:30:00 PM -99999.99 -179968 -99999.99 -99999.99 -99999.99 -99999.99
8/10/2022 4:45:00 PM -99999.99 -179968 -99999.99 -99999.99 -99999.99 -99999.99
8/10/2022 5:00:00 PM -99999.99 -179968 -99999.99 -99999.99 -99999.99 -99999.99
8/10/2022 5:15:00 PM -99999.99 -179968 -99999.99 -99999.99 -99999.99 -99999.99
8/10/2022 5:30:00 PM -99999.99 -179968 -99999.99 -99999.99 -99999.99 -99999.99
8/10/2022 5:45:00 PM -99999.99 -179968 -99999.99 -99999.99 -99999.99 -99999.99
8/10/2022 6:00:00 PM -99999.99 -179968 -99999.99 -99999.99 -99999.99 -99999.99
8/10/2022 6:15:00 PM -99999.99 -179968 -99999.99 -99999.99 -99999.99 -99999.99
8/10/2022 6:30:00 PM -99999.99 -179968 -99999.99 -99999.99 -99999.99 -99999.99
8/10/2022 6:45:00 PM -99999.99 -179968 -99999.99 -99999.99 -99999.99 -99999.99
8/10/2022 7:00:00 PM -99999.99 -179968 -99999.99 -99999.99 -99999.99 -99999.99
8/10/2022 7:15:00 PM -99999.99 -179968 -99999.99 -99999.99 -99999.99 -99999.99
8/10/2022 7:30:00 PM -99999.99 -179968 -99999.99 -99999.99 -99999.99 -99999.99
8/10/2022 7:45:00 PM -99999.99 -179968 -99999.99 -99999.99 -99999.99 -99999.99
8/10/2022 8:00:00 PM -99999.99 -179968 -99999.99 -99999.99 -99999.99 -99999.99
8/10/2022 8:15:00 PM -99999.99 -179968 -99999.99 -99999.99 -99999.99 -99999.99
8/10/2022 8:30:00 PM -99999.99 -179968 -99999.99 -99999.99 -99999.99 -99999.99
8/10/2022 8:45:00 PM -99999.99 -179968 -99999.99 -99999.99 -99999.99 -99999.99
8/10/2022 9:00:00 PM -99999.99 -179968 -99999.99 -99999.99 -99999.99 -99999.99
8/10/2022 9:15:00 PM -99999.99 -179968 -99999.99 -99999.99 -99999.99 -99999.99
8/10/2022 9:30:00 PM -99999.99 -179968 -99999.99 -99999.99 -99999.99 -99999.99
8/10/2022 9:45:00 PM -99999.99 -179968 -99999.99 -99999.99 -99999.99 -99999.99
8/10/2022 10:00:00 PM -99999.99 -179968 -99999.99 -99999.99 -99999.99 -99999.99
8/10/2022 10:15:00 PM -99999.99 -179968 -99999.99 -99999.99 -99999.99 -99999.99
8/10/2022 10:30:00 PM -99999.99 -179968 -99999.99 -99999.99 -99999.99 -99999.99
8/10/2022 10:45:00 PM -99999.99 -179968 -99999.99 -99999.99 -99999.99 -99999.99
8/10/2022 11:00:00 PM -99999.99 -179968 -99999.99 -99999.99 -99999.99 -99999.99
8/10/2022 11:15:00 PM -99999.99 -179968 -99999.99 -99999.99 -99999.99 -99999.99
8/10/2022 11:30:00 PM -99999.99 -179968 -99999.99 -99999.99 -99999.99 -99999.99
8/10/2022 11:45:00 PM -99999.99 -179968 -99999.99 -99999.99 -99999.99 -99999.99
8/11/2022 12:00:00 AM -99999.99 -179968 -99999.99 -99999.99 -99999.99 -99999.99
8/11/2022 12:15:00 AM -99999.99 -179968 -99999.99 -99999.99 -99999.99 -99999.99
8/11/2022 12:30:00 AM -99999.99 -179968 -99999.99 -99999.99 -99999.99 -99999.99
8/11/2022 12:45:00 AM -99999.99 -179968 -99999.99 -99999.99 -99999.99 -99999.99
8/11/2022 1:00:00 AM -99999.99 -179968 -99999.99 -99999.99 -99999.99 -99999.99
8/11/2022 1:15:00 AM -99999.99 -179968 -99999.99 -99999.99 -99999.99 -99999.99
8/11/2022 1:30:00 AM -99999.99 -179968 -99999.99 -99999.99 -99999.99 -99999.99
8/11/2022 1:45:00 AM -99999.99 -179968 -99999.99 -99999.99 -99999.99 -99999.99
8/11/2022 2:00:00 AM -99999.99 -179968 -99999.99 -99999.99 -99999.99 -99999.99
8/11/2022 2:15:00 AM -99999.99 -179968 -99999.99 -99999.99 -99999.99 -99999.99
8/11/2022 2:30:00 AM -99999.99 -179968 -99999.99 -99999.99 -99999.99 -99999.99
8/11/2022 2:45:00 AM -99999.99 -179968 -99999.99 -99999.99 -99999.99 -99999.99
8/11/2022 3:00:00 AM -99999.99 -179968 -99999.99 -99999.99 -99999.99 -99999.99
8/11/2022 3:15:00 AM -99999.99 -179968 -99999.99 -99999.99 -99999.99 -99999.99
8/11/2022 3:30:00 AM -99999.99 -179968 -99999.99 -99999.99 -99999.99 -99999.99
8/11/2022 3:45:00 AM -99999.99 -179968 -99999.99 -99999.99 -99999.99 -99999.99
8/11/2022 4:00:00 AM -99999.99 -179968 -99999.99 -99999.99 -99999.99 -99999.99
8/11/2022 4:15:00 AM -99999.99 -179968 -99999.99 -99999.99 -99999.99 -99999.99
8/11/2022 4:30:00 AM -99999.99 -179968 -99999.99 -99999.99 -99999.99 -99999.99
8/11/2022 4:45:00 AM -99999.99 -179968 -99999.99 -99999.99 -99999.99 -99999.99
8/11/2022 5:00:00 AM -99999.99 -179968 -99999.99 -99999.99 -99999.99 -99999.99
8/11/2022 5:15:00 AM -99999.99 -179968 -99999.99 -99999.99 -99999.99 -99999.99
8/11/2022 5:30:00 AM -99999.99 -179968 -99999.99 -99999.99 -99999.99 -99999.99
8/11/2022 5:45:00 AM -99999.99 -179968 -99999.99 -99999.99 -99999.99 -99999.99
8/11/2022 6:00:00 AM -99999.99 -179968 -99999.99 -99999.99 -99999.99 -99999.99
8/11/2022 6:15:00 AM -99999.99 -179968 -99999.99 -99999.99 -99999.99 -99999.99
8/11/2022 6:30:00 AM -99999.99 -179968 -99999.99 -99999.99 -99999.99 -99999.99
8/11/2022 6:45:00 AM -99999.99 -179968 -99999.99 -99999.99 -99999.99 -99999.99
8/11/2022 7:00:00 AM -99999.99 -179968 -99999.99 -99999.99 -99999.99 -99999.99
8/11/2022 7:15:00 AM -99999.99 -179968 -99999.99 -99999.99 -99999.99 -99999.99
8/11/2022 7:30:00 AM -99999.99 -179968 -99999.99 -99999.99 -99999.99 -99999.99
8/11/2022 7:45:00 AM -99999.99 -179968 -99999.99 -99999.99 -99999.99 -99999.99
8/11/2022 8:00:00 AM -99999.99 -179968 -99999.99 -99999.99 -99999.99 -99999.99
8/11/2022 8:15:00 AM -99999.99 -179968 -99999.99 -99999.99 -99999.99 -99999.99
8/11/2022 8:30:00 AM -99999.99 -179968 -99999.99 -99999.99 -99999.99 -99999.99
8/11/2022 8:45:00 AM -99999.99 -179968 -99999.99 -99999.99 -99999.99 -99999.99
8/11/2022 9:00:00 AM -99999.99 -179968 -99999.99 -99999.99 -99999.99 -99999.99
8/11/2022 9:15:00 AM 17.91 64.238 0.114 7.52 1.27 8.91
8/11/2022 9:30:00 AM 18.04 64.472 0.114 7.46 1.1 8.96
8/11/2022 9:45:00 AM 18.16 64.688 0.114 7.47 1.05 9.05
8/11/2022 10:00:00 AM 18.29 64.922 0.113 7.46 1.22 9.21
8/11/2022 10:15:00 AM 18.46 65.228 0.113 7.48 1.13 9.32
8/11/2022 10:30:00 AM 18.69 65.642 0.113 7.51 1.05 9.42
8/11/2022 10:45:00 AM 18.93 66.074 0.112 7.54 1.06 9.46
8/11/2022 11:00:00 AM 19.16 66.488 0.112 7.55 1.14 9.42
8/11/2022 11:15:00 AM 19.45 67.01 0.112 7.59 1.08 9.4
8/11/2022 11:30:00 AM 19.82 67.676 0.112 7.61 1.02 9.46
8/11/2022 11:45:00 AM 20.14 68.252 0.112 7.65 1.19 9.4
8/11/2022 12:00:00 PM 20.5 68.9 0.111 7.7 1.11 9.42
8/11/2022 12:15:00 PM 20.85 69.53 0.111 7.74 1.08 9.44
8/11/2022 12:30:00 PM 21.24 70.232 0.111 7.82 0.96 9.37
8/11/2022 12:45:00 PM 21.66 70.988 0.111 7.92 0.95 9.33
8/11/2022 1:00:00 PM 22.08 71.744 0.111 8.04 0.96 9.36
8/11/2022 1:15:00 PM 22.39 72.302 0.111 8.1 1.1 9.22
8/11/2022 1:30:00 PM 22.67 72.806 0.11 8.11 1.04 9.07
8/11/2022 1:45:00 PM 23.01 73.418 0.11 8.23 1.09 9.08
8/11/2022 2:00:00 PM 23.19 73.742 0.11 8.29 0.97 9.01
8/11/2022 2:15:00 PM 23.39 74.102 0.11 8.34 0.98 8.9
8/11/2022 2:30:00 PM 23.57 74.426 0.11 8.37 1.02 8.86
8/11/2022 2:45:00 PM 23.65 74.57 0.11 8.41 0.96 8.85
8/11/2022 3:00:00 PM 23.79 74.82201 0.109 8.47 0.85 8.86
8/11/2022 3:15:00 PM 23.95 75.11 0.11 8.48 0.96 8.75
8/11/2022 3:30:00 PM 24.03 75.254 0.11 8.44 1.08 8.64
8/11/2022 3:45:00 PM 24.1 75.38 0.11 8.43 0.96 8.59
8/11/2022 4:00:00 PM 24.09 75.362 0.11 8.39 0.98 8.5
8/11/2022 4:15:00 PM 24.11 75.398 0.11 8.33 1.13 8.51
8/11/2022 4:30:00 PM 24.09 75.362 0.11 8.29 0.91 8.46
8/11/2022 4:45:00 PM 23.98 75.164 0.11 8.22 0.69 8.31
8/11/2022 5:00:00 PM 23.97 75.146 0.11 8.15 0.84 8.28
8/11/2022 5:15:00 PM 23.92 75.056 0.11 8.11 0.96 8.24
8/11/2022 5:30:00 PM 23.82 74.876 0.11 8.05 0.91 8.17
8/11/2022 5:45:00 PM 23.69 74.642 0.111 7.95 0.94 8.08
8/11/2022 6:00:00 PM 23.5 74.3 0.111 7.85 0.88 8.02
8/11/2022 6:15:00 PM 23.28 73.904 0.111 7.79 0.9 7.93
8/11/2022 6:30:00 PM 23.08 73.544 0.112 7.71 0.98 7.86
8/11/2022 6:45:00 PM 22.86 73.148 0.112 7.65 0.82 7.82
8/11/2022 7:00:00 PM 22.63 72.734 0.112 7.6 0.92 7.78
8/11/2022 7:15:00 PM 22.45 72.41 0.112 7.58 0.94 7.75
8/11/2022 7:30:00 PM 22.3 72.14 0.112 7.54 1.07 7.71
8/11/2022 7:45:00 PM 22.13 71.834 0.112 7.52 1.12 7.71
8/11/2022 8:00:00 PM 21.95 71.51 0.113 7.48 1.04 7.67
8/11/2022 8:15:00 PM 21.77 71.186 0.113 7.43 1.06 7.63
8/11/2022 8:30:00 PM 21.62 70.916 0.113 7.42 1.11 7.56
8/11/2022 8:45:00 PM 21.48 70.664 0.113 7.4 1.46 7.52
8/11/2022 9:00:00 PM 21.34 70.412 0.113 7.35 1.02 7.52
8/11/2022 9:15:00 PM 21.22 70.196 0.113 7.34 1.14 7.51
8/11/2022 9:30:00 PM 21.1 69.98 0.113 7.33 0.97 7.53
8/11/2022 9:45:00 PM 20.98 69.764 0.113 7.32 1.25 7.53
8/11/2022 10:00:00 PM 20.87 69.566 0.113 7.23 1.28 7.51
8/11/2022 10:15:00 PM 20.77 69.386 0.113 7.24 1.13 7.52
8/11/2022 10:30:00 PM 20.68 69.224 0.113 7.24 1.18 7.54
8/11/2022 10:45:00 PM 20.57 69.026 0.113 7.25 1.3 7.57
8/11/2022 11:00:00 PM 20.45 68.81 0.113 7.22 1.27 7.58
8/11/2022 11:15:00 PM 20.33 68.594 0.114 7.22 1.22 7.62
8/11/2022 11:30:00 PM 20.2 68.36 0.114 7.19 1.13 7.67
8/11/2022 11:45:00 PM 20.08 68.144 0.114 7.18 1.09 7.68
8/12/2022 12:00:00 AM 19.94 67.892 0.114 7.2 1.27 7.71
8/12/2022 12:15:00 AM 19.8 67.64 0.114 7.17 1.27 7.72
8/12/2022 12:30:00 AM 19.66 67.388 0.114 7.16 1.21 7.74
8/12/2022 12:45:00 AM 19.52 67.136 0.114 7.17 1.22 7.75
8/12/2022 1:00:00 AM 19.38 66.884 0.114 7.17 1.36 7.78
8/12/2022 1:15:00 AM 19.25 66.65 0.114 7.16 1.22 7.81
8/12/2022 1:30:00 AM 19.11 66.398 0.115 7.13 1.31 7.86
8/12/2022 1:45:00 AM 18.97 66.146 0.115 7.15 1.18 7.9
8/12/2022 2:00:00 AM 18.83 65.894 0.115 7.14 1.09 7.93
8/12/2022 2:15:00 AM 18.73 65.714 0.115 7.16 1.13 7.95
8/12/2022 2:30:00 AM 18.59 65.462 0.115 7.13 1.14 7.98
8/12/2022 2:45:00 AM 18.47 65.246 0.115 7.15 1.21 7.99
8/12/2022 3:00:00 AM 18.35 65.03 0.115 7.14 1.23 7.99
8/12/2022 3:15:00 AM 18.24 64.832 0.115 7.12 1.15 8.03
8/12/2022 3:30:00 AM 18.12 64.616 0.115 7.12 1.25 8.07
8/12/2022 3:45:00 AM 18.02 64.436 0.115 7.15 1.1 8.1
8/12/2022 4:00:00 AM 17.91 64.238 0.115 7.12 1.29 8.14
8/12/2022 4:15:00 AM 17.79 64.022 0.115 7.12 1.24 8.16
8/12/2022 4:30:00 AM 17.71 63.878 0.115 7.15 1.15 8.18
8/12/2022 4:45:00 AM 17.62 63.716 0.115 7.12 1.2 8.18
8/12/2022 5:00:00 AM 17.54 63.572 0.115 7.12 1.26 8.19
8/12/2022 5:15:00 AM 17.47 63.446 0.115 7.12 1.2 8.21
8/12/2022 5:30:00 AM 17.38 63.284 0.115 7.12 1.13 8.22
8/12/2022 5:45:00 AM 17.28 63.104 0.115 7.13 1.2 8.25
8/12/2022 6:00:00 AM 17.2 62.96 0.115 7.13 1.32 8.29
8/12/2022 6:15:00 AM 17.09 62.762 0.115 7.1 1.14 8.33
8/12/2022 6:30:00 AM 17.02 62.636 0.115 7.13 1.2 8.37
8/12/2022 6:45:00 AM 16.93 62.474 0.115 7.12 1.64 8.39
8/12/2022 7:00:00 AM 16.85 62.33 0.115 7.14 1.06 8.47
8/12/2022 7:15:00 AM 16.77 62.186 0.115 7.13 1.14 8.5
8/12/2022 7:30:00 AM 16.69 62.042 0.114 7.11 0.95 8.54
8/12/2022 7:45:00 AM 16.65 61.97 0.114 7.12 1.18 8.62
8/12/2022 8:00:00 AM 16.61 61.898 0.114 7.15 1.04 8.69
8/12/2022 8:15:00 AM 16.58 61.844 0.114 7.14 1.18 8.76
8/12/2022 8:30:00 AM 16.6 61.88 0.114 7.18 1.15 8.86
8/12/2022 8:45:00 AM 16.65 61.97 0.114 7.18 1.12 8.95
8/12/2022 9:00:00 AM 16.74 62.132 0.114 7.24 0.96 9.05
8/12/2022 9:15:00 AM 16.85 62.33 0.113 7.24 1.11 9.12
8/12/2022 9:30:00 AM 16.97 62.546 0.113 7.26 0.99 9.17
8/12/2022 9:45:00 AM 17.08 62.744 0.113 7.3 0.96 9.22
8/12/2022 10:00:00 AM 17.21 62.978 0.113 7.31 1 9.25
8/12/2022 10:15:00 AM 17.36 63.248 0.113 7.32 1.16 9.28
8/12/2022 10:30:00 AM 17.55 63.59 0.112 7.33 1.09 9.31
8/12/2022 10:45:00 AM 17.81 64.058 0.112 7.34 0.95 9.31
8/12/2022 11:00:00 AM 18.13 64.634 0.112 7.38 0.88 9.33
8/12/2022 11:15:00 AM 18.43 65.174 0.112 7.39 1.05 9.36
8/12/2022 11:30:00 AM 18.75 65.75 0.112 7.43 1.07 9.35
8/12/2022 11:45:00 AM 19.08 66.344 0.112 7.46 1.09 9.36
8/12/2022 12:00:00 PM 19.41 66.938 0.112 7.46 0.97 9.38
8/12/2022 12:15:00 PM 19.77 67.586 0.112 7.5 0.98 9.39
8/12/2022 12:30:00 PM 20.08 68.144 0.111 7.55 0.89 9.35
8/12/2022 12:45:00 PM 20.42 68.756 0.111 7.57 1.19 9.31
8/12/2022 1:00:00 PM 20.68 69.224 0.111 7.64 0.83 9.29
8/12/2022 1:15:00 PM 21.02 69.836 0.111 7.65 0.94 9.27
8/12/2022 1:30:00 PM 21.31 70.358 0.111 7.72 1.01 9.22
8/12/2022 1:45:00 PM 21.53 70.754 0.111 7.78 1.06 9.16
8/12/2022 2:00:00 PM 21.77 71.186 0.111 7.84 0.99 9.11
8/12/2022 2:15:00 PM 22 71.6 0.11 7.89 0.99 9.07
8/12/2022 2:30:00 PM 22.17 71.906 0.11 7.92 1.05 9.01
8/12/2022 2:45:00 PM 22.38 72.284 0.11 7.99 1 8.93
8/12/2022 3:00:00 PM 22.5 72.5 0.11 7.99 1.06 8.86
8/12/2022 3:15:00 PM 22.62 72.716 0.11 8.05 1.09 8.81
8/12/2022 3:30:00 PM 22.76 72.968 0.11 8.03 1 8.75
8/12/2022 3:45:00 PM 22.81 73.058 0.11 8.04 0.96 8.7
8/12/2022 4:00:00 PM 22.85 73.13 0.11 8.06 1.09 8.66
8/12/2022 4:15:00 PM 22.88 73.184 0.11 8.08 1.21 8.63
8/12/2022 4:30:00 PM 22.87 73.166 0.11 8.02 1.12 8.58
8/12/2022 4:45:00 PM 22.79 73.022 0.111 8.02 1.24 8.55
8/12/2022 5:00:00 PM 22.69 72.842 0.111 7.95 1.28 8.5
8/12/2022 5:15:00 PM 22.57 72.626 0.111 7.87 2.79 8.45
8/12/2022 5:30:00 PM 22.4 72.32 0.111 7.84 1 8.43
8/12/2022 5:45:00 PM 22.25 72.05 0.112 7.77 0.94 8.38
8/12/2022 6:00:00 PM 22 71.6 0.112 7.69 0.87 8.35
8/12/2022 6:15:00 PM 21.78 71.204 0.112 7.63 1.07 8.28
8/12/2022 6:30:00 PM 21.59 70.862 0.112 7.61 1.05 8.26
8/12/2022 6:45:00 PM 21.39 70.502 0.112 7.54 0.97 8.23
8/12/2022 7:00:00 PM 21.18 70.124 0.112 7.52 0.96 8.19
8/12/2022 7:15:00 PM 20.96 69.728 0.112 7.49 1.04 8.15
8/12/2022 7:30:00 PM 20.77 69.386 0.112 7.44 1.08 8.1
8/12/2022 7:45:00 PM 20.59 69.062 0.112 7.42 1.02 8.06
8/12/2022 8:00:00 PM 20.4 68.72 0.112 7.37 1 8.03
8/12/2022 8:15:00 PM 20.23 68.414 0.112 7.36 1.02 7.99
8/12/2022 8:30:00 PM 20.07 68.126 0.112 7.33 1.3 7.95
8/12/2022 8:45:00 PM 19.92 67.856 0.112 7.34 1.11 7.93
8/12/2022 9:00:00 PM 19.76 67.568 0.112 7.28 1.28 7.89
8/12/2022 9:15:00 PM 19.61 67.298 0.112 7.31 1.27 7.89
8/12/2022 9:30:00 PM 19.47 67.046 0.113 7.26 1.28 7.88
8/12/2022 9:45:00 PM 19.35 66.83 0.113 7.27 1.08 7.85
8/12/2022 10:00:00 PM 19.24 66.632 0.113 7.23 1.53 7.86
8/12/2022 10:15:00 PM 19.13 66.434 0.113 7.23 1.04 7.89
8/12/2022 10:30:00 PM 19.03 66.254 0.113 7.23 1.25 7.91
8/12/2022 10:45:00 PM 18.91 66.038 0.113 7.19 1.22 7.92
8/12/2022 11:00:00 PM 18.8 65.84 0.114 7.21 1.03 7.93
8/12/2022 11:15:00 PM 18.69 65.642 0.114 7.17 1.15 7.95
8/12/2022 11:30:00 PM 18.56 65.408 0.114 7.14 1.2 7.97
8/12/2022 11:45:00 PM 18.43 65.174 0.114 7.17 1.21 8.01
8/13/2022 12:00:00 AM 18.29 64.922 0.114 7.15 1.15 8.03
8/13/2022 12:15:00 AM 18.15 64.67 0.114 7.15 1.1 8.08
8/13/2022 12:30:00 AM 18 64.4 0.114 7.15 1.1 8.14
8/13/2022 12:45:00 AM 17.86 64.148 0.114 7.15 1.12 8.16
8/13/2022 1:00:00 AM 17.71 63.878 0.114 7.13 1.18 8.18
8/13/2022 1:15:00 AM 17.57 63.626 0.114 7.12 1.07 8.19
8/13/2022 1:30:00 AM 17.43 63.374 0.114 7.1 1.22 8.22
8/13/2022 1:45:00 AM 17.3 63.14 0.114 7.11 1.22 8.24
8/13/2022 2:00:00 AM 17.17 62.906 0.114 7.09 1.14 8.3
8/13/2022 2:15:00 AM 17.03 62.654 0.114 7.11 1.07 8.33
8/13/2022 2:30:00 AM 16.91 62.438 0.114 7.11 1.21 8.38
8/13/2022 2:45:00 AM 16.77 62.186 0.114 7.09 1.08 8.42
8/13/2022 3:00:00 AM 16.61 61.898 0.114 7.11 1.17 8.44
8/13/2022 3:15:00 AM 16.47 61.646 0.114 7.1 1.29 8.43
8/13/2022 3:30:00 AM 16.33 61.394 0.115 7.1 1.16 8.47
8/13/2022 3:45:00 AM 16.21 61.178 0.115 7.11 1.29 8.52
8/13/2022 4:00:00 AM 16.07 60.926 0.115 7.11 1.01 8.55
8/13/2022 4:15:00 AM 15.94 60.692 0.115 7.1 1.1 8.58
8/13/2022 4:30:00 AM 15.81 60.458 0.115 7.09 1.21 8.63
8/13/2022 4:45:00 AM 15.67 60.206 0.115 7.07 1.28 8.65
8/13/2022 5:00:00 AM 15.53 59.954 0.115 7.08 1.18 8.65
8/13/2022 5:15:00 AM 15.41 59.738 0.115 7.07 1.36 8.65
8/13/2022 5:30:00 AM 15.29 59.522 0.115 7.06 1.31 8.71
8/13/2022 5:45:00 AM 15.16 59.288 0.115 7.07 1.09 8.69
8/13/2022 6:00:00 AM 15.05 59.09 0.115 7.06 1.42 8.73
8/13/2022 6:15:00 AM 14.93 58.874 0.115 7.04 1.28 8.77
8/13/2022 6:30:00 AM 14.84 58.712 0.115 7.07 1.22 8.83
8/13/2022 6:45:00 AM 14.73 58.514 0.115 7.06 1.14 8.87
8/13/2022 7:00:00 AM 14.64 58.352 0.115 7.03 1.07 8.94
8/13/2022 7:15:00 AM 14.56 58.208 0.114 7.05 1.12 9
8/13/2022 7:30:00 AM 14.48 58.064 0.114 7.05 1.04 9.06
8/13/2022 7:45:00 AM 14.43 57.974 0.114 7.03 1.22 9.13
8/13/2022 8:00:00 AM 14.39 57.902 0.114 7.06 1.08 9.19
8/13/2022 8:15:00 AM 14.38 57.884 0.114 7.05 1.21 9.25
8/13/2022 8:30:00 AM 14.38 57.884 0.114 7.09 0.97 9.32
8/13/2022 8:45:00 AM 14.43 57.974 0.113 7.12 1.09 9.4
8/13/2022 9:00:00 AM 14.5 58.1 0.113 7.15 1.1 9.46
8/13/2022 9:15:00 AM 14.61 58.298 0.113 7.15 1.12 9.51
8/13/2022 9:30:00 AM 14.75 58.55 0.113 7.19 1.1 9.59
8/13/2022 9:45:00 AM 14.92 58.856 0.113 7.21 1.05 9.62
8/13/2022 10:00:00 AM 15.04 59.072 0.113 7.19 1.1 9.64
8/13/2022 10:15:00 AM 15.25 59.45 0.112 7.24 1.1 9.69
8/13/2022 10:30:00 AM 15.5 59.9 0.112 7.24 1.19 9.73
8/13/2022 10:45:00 AM 15.8 60.44 0.112 7.29 1.03 9.75
8/13/2022 11:00:00 AM 16.16 61.088 0.112 7.29 1.06 9.74
8/13/2022 11:15:00 AM 16.54 61.772 0.112 7.34 1.03 9.73
8/13/2022 11:30:00 AM 16.94 62.492 0.112 7.38 1.08 9.7
8/13/2022 11:45:00 AM 17.35 63.23 0.111 7.38 1.09 9.68
8/13/2022 12:00:00 PM 17.74 63.932 0.111 7.41 1.1 9.66
8/13/2022 12:15:00 PM 18.09 64.562 0.111 7.45 1.04 9.65
8/13/2022 12:30:00 PM 18.47 65.246 0.111 7.45 1.14 9.67
8/13/2022 12:45:00 PM 18.84 65.912 0.111 7.5 1.04 9.64
8/13/2022 1:00:00 PM 19.2 66.56 0.111 7.53 1.2 9.58
8/13/2022 1:15:00 PM 19.51 67.118 0.111 7.59 1.06 9.52
8/13/2022 1:30:00 PM 19.82 67.676 0.111 7.6 0.99 9.43
8/13/2022 1:45:00 PM 20.13 68.234 0.111 7.68 1.02 9.39
8/13/2022 2:00:00 PM 20.38 68.684 0.11 7.72 1.03 9.35
8/13/2022 2:15:00 PM 20.66 69.188 0.11 7.72 1.2 9.31
8/13/2022 2:30:00 PM 20.9 69.62 0.11 7.77 0.94 9.21
8/13/2022 2:45:00 PM 21.13 70.034 0.11 7.81 0.98 9.14
8/13/2022 3:00:00 PM 21.29 70.32201 0.11 7.81 1.01 9.07
8/13/2022 3:15:00 PM 21.49 70.682 0.11 7.88 0.97 9.01
8/13/2022 3:30:00 PM 21.69 71.042 0.109 7.91 1.06 8.96
8/13/2022 3:45:00 PM 21.83 71.294 0.11 7.93 1 8.88
8/13/2022 4:00:00 PM 21.95 71.51 0.11 7.94 0.94 8.82
8/13/2022 4:15:00 PM 22.08 71.744 0.11 7.93 1.02 8.77
8/13/2022 4:30:00 PM 22.14 71.852 0.11 7.93 1.04 8.73
8/13/2022 4:45:00 PM 22.15 71.87 0.11 7.87 0.89 8.68
8/13/2022 5:00:00 PM 22.18 71.924 0.11 7.86 1.08 8.62
8/13/2022 5:15:00 PM 22.14 71.852 0.111 7.82 0.93 8.57
8/13/2022 5:30:00 PM 22.05 71.69 0.111 7.8 0.98 8.51
8/13/2022 5:45:00 PM 21.88 71.384 0.111 7.71 0.95 8.43
8/13/2022 6:00:00 PM 21.7 71.06 0.112 7.67 1.08 8.37
8/13/2022 6:15:00 PM 21.48 70.664 0.112 7.61 1.03 8.29
8/13/2022 6:30:00 PM 21.28 70.304 0.112 7.56 1.19 8.23
8/13/2022 6:45:00 PM 21.08 69.944 0.112 7.54 0.98 8.19
8/13/2022 7:00:00 PM 20.87 69.566 0.112 7.49 0.94 8.16
8/13/2022 7:15:00 PM 20.69 69.242 0.112 7.45 1.01 8.12
8/13/2022 7:30:00 PM 20.51 68.918 0.112 7.43 1.26 8.09
8/13/2022 7:45:00 PM 20.32 68.576 0.112 7.4 1.07 8.07
8/13/2022 8:00:00 PM 20.14 68.252 0.112 7.39 1.25 8.04
8/13/2022 8:15:00 PM 19.96 67.92799 0.112 7.35 1.08 8.01
8/13/2022 8:30:00 PM 19.76 67.568 0.112 7.31 1.02 7.96
8/13/2022 8:45:00 PM 19.59 67.262 0.112 7.33 1.14 7.95
8/13/2022 9:00:00 PM 19.43 66.974 0.112 7.29 1.09 7.95
8/13/2022 9:15:00 PM 19.26 66.668 0.112 7.31 1.27 7.95
8/13/2022 9:30:00 PM 19.13 66.434 0.112 7.29 1.17 7.94
8/13/2022 9:45:00 PM 18.99 66.182 0.112 7.27 1.33 7.94
8/13/2022 10:00:00 PM 18.85 65.93 0.112 7.22 1.15 7.96
8/13/2022 10:15:00 PM 18.75 65.75 0.112 7.22 1.23 7.97
8/13/2022 10:30:00 PM 18.64 65.552 0.113 7.23 1.17 7.98
8/13/2022 10:45:00 PM 18.51 65.318 0.113 7.2 1.11 7.99
8/13/2022 11:00:00 PM 18.41 65.138 0.113 7.19 1.15 8.03
8/13/2022 11:15:00 PM 18.27 64.886 0.113 7.17 1.17 8.04
8/13/2022 11:30:00 PM 18.15 64.67 0.113 7.17 1.11 8.07
8/13/2022 11:45:00 PM 18.04 64.472 0.113 7.15 1.11 8.1
8/14/2022 12:00:00 AM 17.91 64.238 0.114 7.15 1.38 8.11
8/14/2022 12:15:00 AM 17.77 63.986 0.114 7.13 1.14 8.13
8/14/2022 12:30:00 AM 17.65 63.77 0.114 7.09 1.06 8.17
8/14/2022 12:45:00 AM 17.52 63.536 0.114 7.09 1.23 8.18
8/14/2022 1:00:00 AM 17.38 63.284 0.114 7.1 1.12 8.21
8/14/2022 1:15:00 AM 17.25 63.05 0.114 7.1 1.15 8.23
8/14/2022 1:30:00 AM 17.1 62.78 0.114 7.06 1.09 8.28
8/14/2022 1:45:00 AM 16.97 62.546 0.114 7.06 1.07 8.31
8/14/2022 2:00:00 AM 16.84 62.312 0.114 7.08 1.09 8.35
8/14/2022 2:15:00 AM 16.7 62.06 0.114 7.04 1.09 8.39
8/14/2022 2:30:00 AM 16.55 61.79 0.114 7.07 1.14 8.43
8/14/2022 2:45:00 AM 16.4 61.52 0.114 7.04 1.29 8.44
8/14/2022 3:00:00 AM 16.3 61.34 0.114 7.07 1.15 8.48
8/14/2022 3:15:00 AM 16.16 61.088 0.114 7.05 1.13 8.49
8/14/2022 3:30:00 AM 16.03 60.854 0.114 7.05 1.26 8.53
8/14/2022 3:45:00 AM 15.88 60.584 0.114 7.01 1.33 8.53
8/14/2022 4:00:00 AM 15.76 60.368 0.114 7.04 1.07 8.55
8/14/2022 4:15:00 AM 15.64 60.152 0.114 7.01 1.15 8.57
8/14/2022 4:30:00 AM 15.53 59.954 0.114 7.03 1.05 8.59
8/14/2022 4:45:00 AM 15.41 59.738 0.114 7.04 1.03 8.65
8/14/2022 5:00:00 AM 15.33 59.594 0.114 7.02 1.26 8.66
8/14/2022 5:15:00 AM 15.19 59.342 0.114 7.04 1.16 8.7
8/14/2022 5:30:00 AM 15.1 59.18 0.114 7.03 1.08 8.71
8/14/2022 5:45:00 AM 15 59 0.114 7.03 1.07 8.73
8/14/2022 6:00:00 AM 14.89 58.802 0.115 7.03 1.12 8.78
8/14/2022 6:15:00 AM 14.78 58.604 0.114 7.02 1.16 8.8
8/14/2022 6:30:00 AM 14.71 58.478 0.114 7.03 1.07 8.82
8/14/2022 6:45:00 AM 14.61 58.298 0.114 7 1.1 8.88
8/14/2022 7:00:00 AM 14.55 58.19 0.114 7.02 1.14 8.93
8/14/2022 7:15:00 AM 14.48 58.064 0.114 7.03 1.2 8.99
8/14/2022 7:30:00 AM 14.42 57.956 0.114 7.05 1.18 9.06
8/14/2022 7:45:00 AM 14.38 57.884 0.114 7.03 1.02 9.1
8/14/2022 8:00:00 AM 14.35 57.83 0.114 7.07 1.17 9.15
8/14/2022 8:15:00 AM 14.33 57.794 0.114 7.08 1.08 9.2
8/14/2022 8:30:00 AM 14.34 57.812 0.113 7.07 1.14 9.25
8/14/2022 8:45:00 AM 14.39 57.902 0.113 7.13 1.05 9.35
8/14/2022 9:00:00 AM 14.47 58.046 0.113 7.15 1.1 9.43
8/14/2022 9:15:00 AM 14.57 58.226 0.113 7.14 1.09 9.47
8/14/2022 9:30:00 AM 14.7 58.46 0.113 7.16 1.16 9.55
8/14/2022 9:45:00 AM 14.88 58.784 0.112 7.15 1.15 9.6
8/14/2022 10:00:00 AM 14.99 58.982 0.112 7.19 1 9.63
8/14/2022 10:15:00 AM 15.18 59.324 0.112 7.2 1.04 9.67
8/14/2022 10:30:00 AM 15.45 59.81 0.112 7.19 1.22 9.71
8/14/2022 10:45:00 AM 15.77 60.386 0.112 7.25 0.99 9.75
8/14/2022 11:00:00 AM 16.13 61.034 0.111 7.27 0.97 9.75
8/14/2022 11:15:00 AM 16.54 61.772 0.111 7.27 1.11 9.75
8/14/2022 11:30:00 AM 16.95 62.51 0.111 7.34 1.06 9.73
8/14/2022 11:45:00 AM 17.38 63.284 0.111 7.37 1.01 9.72
8/14/2022 12:00:00 PM 17.81 64.058 0.111 7.39 1.18 9.68
8/14/2022 12:15:00 PM 18.31 64.958 0.11 7.42 1.02 9.72
8/14/2022 12:30:00 PM 18.77 65.786 0.11 7.48 1.1 9.75
8/14/2022 12:45:00 PM 19.23 66.614 0.11 7.52 1.07 9.66
8/14/2022 1:00:00 PM 19.66 67.388 0.11 7.53 1.1 9.65
8/14/2022 1:15:00 PM 20.03 68.054 0.11 7.62 0.98 9.65
8/14/2022 1:30:00 PM 20.31 68.558 0.109 7.65 1 9.59
8/14/2022 1:45:00 PM 20.54 68.972 0.109 7.7 1.17 9.55
8/14/2022 2:00:00 PM 20.77 69.386 0.109 7.76 1.09 9.51
8/14/2022 2:15:00 PM 21.08 69.944 0.109 7.87 1.3 9.41
8/14/2022 2:30:00 PM 21.33 70.394 0.109 7.87 1.23 9.28
8/14/2022 2:45:00 PM 21.51 70.718 0.108 7.85 1.34 9.1
8/14/2022 3:00:00 PM 21.59 70.862 0.108 7.85 1 8.94
8/14/2022 3:15:00 PM 21.84 71.312 0.108 7.91 1.11 8.99
8/14/2022 3:30:00 PM 22.1 71.78 0.108 7.99 1.16 8.99
8/14/2022 3:45:00 PM 22.2 71.96 0.108 8.01 1.18 8.94
8/14/2022 4:00:00 PM 22.37 72.266 0.108 8.06 1.01 8.92
8/14/2022 4:15:00 PM 22.43 72.374 0.108 8.03 1.18 8.81
8/14/2022 4:30:00 PM 22.48 72.464 0.109 8.06 0.96 8.85
8/14/2022 4:45:00 PM 22.49 72.482 0.109 8.1 0.98 8.86
8/14/2022 5:00:00 PM 22.45 72.41 0.109 8.06 1.14 8.81
8/14/2022 5:15:00 PM 22.46 72.42799 0.109 8.05 1.07 8.83
8/14/2022 5:30:00 PM 22.4 72.32 0.108 8.06 1.08 8.79
8/14/2022 5:45:00 PM 22.33 72.194 0.108 8.01 1 8.72
8/14/2022 6:00:00 PM 22.24 72.032 0.108 7.97 1.2 8.64
8/14/2022 6:15:00 PM 22.14 71.852 0.109 7.91 1.16 8.54
8/14/2022 6:30:00 PM 22.01 71.618 0.109 7.86 1.13 8.46
8/14/2022 6:45:00 PM 21.89 71.402 0.109 7.8 1.01 8.4
8/14/2022 7:00:00 PM 21.74 71.132 0.109 7.72 1.21 8.34
8/14/2022 7:15:00 PM 21.58 70.844 0.109 7.67 1.16 8.27
8/14/2022 7:30:00 PM 21.42 70.556 0.109 7.63 1.07 8.18
8/14/2022 7:45:00 PM 21.26 70.268 0.11 7.58 1.17 8.08
8/14/2022 8:00:00 PM 21.09 69.962 0.11 7.49 1.27 7.98
8/14/2022 8:15:00 PM 20.95 69.71 0.11 7.5 1.12 7.91
8/14/2022 8:30:00 PM 20.8 69.44 0.111 7.43 1.19 7.84
8/14/2022 8:45:00 PM 20.67 69.206 0.111 7.43 1.11 7.78
8/14/2022 9:00:00 PM 20.53 68.954 0.111 7.37 1.27 7.71
8/14/2022 9:15:00 PM 20.41 68.738 0.111 7.35 1.19 7.68
8/14/2022 9:30:00 PM 20.32 68.576 0.112 7.35 1.23 7.67
8/14/2022 9:45:00 PM 20.21 68.378 0.112 7.32 1.29 7.66
8/14/2022 10:00:00 PM 20.12 68.216 0.112 7.27 1.27 7.63
8/14/2022 10:15:00 PM 20.02 68.036 0.112 7.28 1.29 7.64
8/14/2022 10:30:00 PM 19.93 67.874 0.112 7.27 1.18 7.64
8/14/2022 10:45:00 PM 19.85 67.73 0.112 7.27 1.27 7.66
8/14/2022 11:00:00 PM 19.75 67.55 0.112 7.22 1.3 7.68
8/14/2022 11:15:00 PM 19.66 67.388 0.112 7.22 1.23 7.69
8/14/2022 11:30:00 PM 19.57 67.226 0.112 7.22 1.18 7.72
8/14/2022 11:45:00 PM 19.48 67.064 0.112 7.22 1.17 7.75
8/15/2022 12:00:00 AM 19.39 66.902 0.112 7.22 1.21 7.77
8/15/2022 12:15:00 AM 19.29 66.722 0.112 7.2 1.34 7.78
8/15/2022 12:30:00 AM 19.18 66.524 0.113 7.22 1.09 7.8
8/15/2022 12:45:00 AM 19.07 66.326 0.113 7.17 1.22 7.83
8/15/2022 1:00:00 AM 18.98 66.164 0.113 7.22 1.19 7.86
8/15/2022 1:15:00 AM 18.89 66.002 0.113 7.17 1.19 7.87
8/15/2022 1:30:00 AM 18.79 65.82201 0.113 7.19 1.36 7.88
8/15/2022 1:45:00 AM 18.68 65.624 0.113 7.17 1.39 7.89
8/15/2022 2:00:00 AM 18.6 65.48 0.113 7.17 1.36 7.92
8/15/2022 2:15:00 AM 18.5 65.3 0.113 7.19 1.23 7.92
8/15/2022 2:30:00 AM 18.41 65.138 0.114 7.18 1.26 7.96
8/15/2022 2:45:00 AM 18.31 64.958 0.114 7.15 1.21 7.99
8/15/2022 3:00:00 AM 18.23 64.814 0.114 7.18 1.22 8.02
8/15/2022 3:15:00 AM 18.13 64.634 0.114 7.17 1.15 8.02
8/15/2022 3:30:00 AM 18.03 64.454 0.114 7.14 1.24 8.06
8/15/2022 3:45:00 AM 17.95 64.31 0.114 7.14 1.21 8.08
8/15/2022 4:00:00 AM 17.88 64.184 0.114 7.15 1.23 8.11
8/15/2022 4:15:00 AM 17.78 64.004 0.114 7.15 1.21 8.13
8/15/2022 4:30:00 AM 17.69 63.842 0.114 7.15 1.2 8.15
8/15/2022 4:45:00 AM 17.62 63.716 0.115 7.15 1.22 8.15
8/15/2022 5:00:00 AM 17.52 63.536 0.115 7.14 1.3 8.16
8/15/2022 5:15:00 AM 17.44 63.392 0.115 7.12 1.13 8.19
8/15/2022 5:30:00 AM 17.35 63.23 0.115 7.13 1.25 8.2
8/15/2022 5:45:00 AM 17.27 63.086 0.115 7.13 1.2 8.2
8/15/2022 6:00:00 AM 17.19 62.942 0.115 7.13 1.21 8.23
8/15/2022 6:15:00 AM 17.11 62.798 0.115 7.14 1.3 8.25
8/15/2022 6:30:00 AM 17.03 62.654 0.115 7.1 1.28 8.29
8/15/2022 6:45:00 AM 16.97 62.546 0.115 7.12 1.33 8.35
8/15/2022 7:00:00 AM 16.89 62.402 0.115 7.15 1.21 8.42
8/15/2022 7:15:00 AM 16.82 62.276 0.114 7.16 1.22 8.47
8/15/2022 7:30:00 AM 16.75 62.15 0.114 7.13 1.38 8.55
8/15/2022 7:45:00 AM 16.71 62.078 0.114 7.16 1.27 8.63
8/15/2022 8:00:00 AM 16.68 62.024 0.114 7.14 1.22 8.71
8/15/2022 8:15:00 AM 16.67 62.006 0.114 7.17 1.21 8.81
8/15/2022 8:30:00 AM 16.67 62.006 0.114 7.18 1.18 8.89
8/15/2022 8:45:00 AM 16.7 62.06 0.114 7.19 1.29 8.97
8/15/2022 9:00:00 AM 16.77 62.186 0.113 7.2 1.2 9.03
8/15/2022 9:15:00 AM 16.88 62.384 0.113 7.23 1.22 9.11
8/15/2022 9:30:00 AM 17 62.6 0.113 7.22 1.22 9.17
8/15/2022 9:45:00 AM 17.13 62.834 0.112 7.24 1.09 9.2
8/15/2022 10:00:00 AM 17.27 63.086 0.112 7.22 1.85 9.22
8/15/2022 10:15:00 AM 17.43 63.374 0.112 7.25 1.55 9.23
8/15/2022 10:30:00 AM 17.66 63.788 0.112 7.27 1.07 9.31
8/15/2022 10:45:00 AM 17.93 64.274 0.112 7.34 1.08 9.38
8/15/2022 11:00:00 AM 18.22 64.796 0.111 7.35 1.15 9.44
8/15/2022 11:15:00 AM 18.48 65.264 0.111 7.38 0.96 9.5
8/15/2022 11:30:00 AM 18.79 65.82201 0.111 7.41 1.06 9.59
8/15/2022 11:45:00 AM 19.08 66.344 0.11 7.48 0.97 9.63
8/15/2022 12:00:00 PM 19.45 67.01 0.11 7.52 0.97 9.63
8/15/2022 12:15:00 PM 19.9 67.82 0.11 7.58 1.01 9.64
8/15/2022 12:30:00 PM 20.29 68.522 0.11 7.62 0.99 9.64
8/15/2022 12:45:00 PM 20.74 69.332 0.11 7.71 1.04 9.6
8/15/2022 1:00:00 PM 21.14 70.052 0.109 7.8 1.11 9.52
8/15/2022 1:15:00 PM 21.52 70.736 0.109 7.85 1.09 9.45
8/15/2022 1:30:00 PM 21.85 71.33 0.109 7.93 1.09 9.35
8/15/2022 1:45:00 PM 22.18 71.924 0.108 7.99 1.3 9.24
8/15/2022 2:00:00 PM 22.48 72.464 0.108 8.08 1.06 9.17
8/15/2022 2:15:00 PM 22.82 73.076 0.108 8.2 1.14 9.13
8/15/2022 2:30:00 PM 23.07 73.526 0.108 8.29 1.07 9.03
8/15/2022 2:45:00 PM 23.31 73.958 0.108 8.34 1.15 8.99
8/15/2022 3:00:00 PM 23.51 74.318 0.108 8.44 1.11 9
8/15/2022 3:15:00 PM 23.72 74.696 0.108 8.51 0.92 9.02
8/15/2022 3:30:00 PM 23.83 74.894 0.108 8.55 1.01 8.89
8/15/2022 3:45:00 PM 23.96 75.128 0.108 8.62 0.98 8.84
8/15/2022 4:00:00 PM 24.1 75.38 0.108 8.64 1.34 8.8
8/15/2022 4:15:00 PM 24.16 75.488 0.108 8.63 1.04 8.72
8/15/2022 4:30:00 PM 24.21 75.578 0.108 8.66 0.91 8.67
8/15/2022 4:45:00 PM 24.2 75.56 0.108 8.61 1.03 8.59
8/15/2022 5:00:00 PM 24.14 75.452 0.108 8.58 1.03 8.52
8/15/2022 5:15:00 PM 24.02 75.236 0.108 8.49 1.05 8.34
8/15/2022 5:30:00 PM 23.86 74.948 0.109 8.34 0.97 8.15
8/15/2022 5:45:00 PM 23.69 74.642 0.109 8.17 1.02 8.03
8/15/2022 6:00:00 PM 23.44 74.192 0.109 8.05 1 7.94
8/15/2022 6:15:00 PM 23.24 73.832 0.11 7.91 1.38 7.84
8/15/2022 6:30:00 PM 22.98 73.364 0.11 7.78 0.91 7.75
8/15/2022 6:45:00 PM 22.74 72.932 0.111 7.72 1.09 7.73
8/15/2022 7:00:00 PM 22.51 72.518 0.111 7.63 2.84 7.78
8/15/2022 7:15:00 PM 22.28 72.104 0.111 7.64 0.95 7.81
8/15/2022 7:30:00 PM 22.02 71.636 0.112 7.58 1.03 7.75
8/15/2022 7:45:00 PM 21.78 71.204 0.112 7.51 1.24 7.71
8/15/2022 8:00:00 PM 21.55 70.79 0.112 7.49 1.16 7.66
8/15/2022 8:15:00 PM 21.33 70.394 0.112 7.46 1.09 7.62
8/15/2022 8:30:00 PM 21.18 70.124 0.112 7.4 1.28 7.6
8/15/2022 8:45:00 PM 21.03 69.854 0.112 7.41 1.09 7.58
8/15/2022 9:00:00 PM 20.89 69.602 0.112 7.39 1.2 7.57
8/15/2022 9:15:00 PM 20.77 69.386 0.112 7.36 1.19 7.56
8/15/2022 9:30:00 PM 20.67 69.206 0.112 7.3 1.28 7.55
8/15/2022 9:45:00 PM 20.57 69.026 0.112 7.33 1.14 7.55
8/15/2022 10:00:00 PM 20.48 68.864 0.113 7.29 1.41 7.57
8/15/2022 10:15:00 PM 20.41 68.738 0.113 7.29 1.1 7.56
8/15/2022 10:30:00 PM 20.33 68.594 0.113 7.24 1.19 7.58
8/15/2022 10:45:00 PM 20.24 68.432 0.113 7.26 1.18 7.58
8/15/2022 11:00:00 PM 20.17 68.306 0.113 7.26 1.31 7.58
8/15/2022 11:15:00 PM 20.12 68.216 0.113 7.26 1.26 7.62
8/15/2022 11:30:00 PM 20.04 68.07201 0.113 7.25 1.35 7.62
8/15/2022 11:45:00 PM 19.98 67.964 0.114 7.24 1.56 7.64
8/16/2022 12:00:00 AM 19.91 67.838 0.114 7.24 1.47 7.63
8/16/2022 12:15:00 AM 19.83 67.694 0.114 7.23 1.26 7.65
8/16/2022 12:30:00 AM 19.75 67.55 0.114 7.19 1.2 7.66
8/16/2022 12:45:00 AM 19.69 67.442 0.114 7.21 1.2 7.68
8/16/2022 1:00:00 AM 19.62 67.316 0.114 7.19 1.37 7.69
8/16/2022 1:15:00 AM 19.54 67.172 0.114 7.2 1.2 7.71
8/16/2022 1:30:00 AM 19.46 67.028 0.114 7.25 1.21 7.73
8/16/2022 1:45:00 AM 19.38 66.884 0.115 7.17 1.34 7.76
8/16/2022 2:00:00 AM 19.3 66.74 0.115 7.17 1.23 7.77
8/16/2022 2:15:00 AM 19.22 66.596 0.115 7.16 1.4 7.78
8/16/2022 2:30:00 AM 19.14 66.452 0.115 7.18 1.23 7.8
8/16/2022 2:45:00 AM 19.06 66.308 0.115 7.16 1.14 7.81
8/16/2022 3:00:00 AM 18.98 66.164 0.115 7.17 1.16 7.83
8/16/2022 3:15:00 AM 18.91 66.038 0.115 7.14 1.43 7.84
8/16/2022 3:30:00 AM 18.84 65.912 0.115 7.17 1.31 7.87
8/16/2022 3:45:00 AM 18.74 65.732 0.115 7.17 1.24 7.87
8/16/2022 4:00:00 AM 18.65 65.57 0.115 7.17 1.35 7.89
8/16/2022 4:15:00 AM 18.56 65.408 0.115 7.14 1.17 7.92
8/16/2022 4:30:00 AM 18.46 65.228 0.115 7.16 1.22 7.93
8/16/2022 4:45:00 AM 18.37 65.066 0.115 7.16 1.24 7.95
8/16/2022 5:00:00 AM 18.28 64.904 0.115 7.13 1.18 7.96
8/16/2022 5:15:00 AM 18.21 64.778 0.115 7.11 1.24 7.99
8/16/2022 5:30:00 AM 18.13 64.634 0.115 7.14 1.3 8
8/16/2022 5:45:00 AM 18.05 64.49 0.115 7.13 1.33 8.01
8/16/2022 6:00:00 AM 17.97 64.346 0.115 7.09 1.45 8.01
8/16/2022 6:15:00 AM 17.9 64.22 0.115 7.1 1.41 8.04
8/16/2022 6:30:00 AM 17.83 64.094 0.115 7.11 1.25 8.06
8/16/2022 6:45:00 AM 17.75 63.95 0.115 7.11 1.37 8.11
8/16/2022 7:00:00 AM 17.7 63.86 0.115 7.12 1.3 8.19
8/16/2022 7:15:00 AM 17.63 63.734 0.115 7.13 1.4 8.27
8/16/2022 7:30:00 AM 17.57 63.626 0.115 7.13 1.36 8.35
8/16/2022 7:45:00 AM 17.53 63.554 0.115 7.14 1.23 8.47
8/16/2022 8:00:00 AM 17.48 63.464 0.115 7.13 1.28 8.56
8/16/2022 8:15:00 AM 17.47 63.446 0.114 7.13 1.37 8.66
8/16/2022 8:30:00 AM 17.47 63.446 0.114 7.16 1.23 8.74
8/16/2022 8:45:00 AM 17.49 63.482 0.114 7.19 1.15 8.82
8/16/2022 9:00:00 AM 17.54 63.572 0.114 7.17 1.24 8.91
8/16/2022 9:15:00 AM 17.62 63.716 0.113 7.22 1.23 8.98
8/16/2022 9:30:00 AM 17.72 63.896 0.113 7.19 1.14 9.04
8/16/2022 9:45:00 AM 17.83 64.094 0.113 7.24 1.25 9.14
8/16/2022 10:00:00 AM 17.93 64.274 0.112 7.26 1.39 9.26
8/16/2022 10:15:00 AM 18.11 64.598 0.112 7.29 1.15 9.44
8/16/2022 10:30:00 AM 18.31 64.958 0.112 7.32 1.12 9.58
8/16/2022 10:45:00 AM 18.53 65.354 0.111 7.32 1.2 9.65
8/16/2022 11:00:00 AM 18.73 65.714 0.111 7.38 1.21 9.7
8/16/2022 11:15:00 AM 18.94 66.092 0.111 7.4 1.25 9.71
8/16/2022 11:30:00 AM 19.2 66.56 0.111 7.45 1.28 9.68
8/16/2022 11:45:00 AM 19.51 67.118 0.11 7.52 1.21 9.66
8/16/2022 12:00:00 PM 19.83 67.694 0.11 7.54 1.4 9.61
8/16/2022 12:15:00 PM 20.08 68.144 0.11 7.62 1.17 9.55
8/16/2022 12:30:00 PM 20.33 68.594 0.109 7.68 1.28 9.59
8/16/2022 12:45:00 PM 20.58 69.044 0.109 7.75 1.25 9.61
8/16/2022 1:00:00 PM 20.83 69.494 0.109 7.83 1.3 9.61
8/16/2022 1:15:00 PM 21.15 70.07 0.108 7.95 1.29 9.59
8/16/2022 1:30:00 PM 21.38 70.484 0.108 8.06 1.4 9.5
8/16/2022 1:45:00 PM 21.59 70.862 0.108 8.13 1.26 9.41
8/16/2022 2:00:00 PM 21.81 71.258 0.108 8.22 1.16 9.32
8/16/2022 2:15:00 PM 21.88 71.384 0.108 8.26 1.38 9.23
8/16/2022 2:30:00 PM 22.08 71.744 0.108 8.36 1.27 9.19
8/16/2022 2:45:00 PM 22.27 72.086 0.108 8.37 1.29 9.14
8/16/2022 3:00:00 PM 22.36 72.248 0.108 8.45 1.24 9.12
8/16/2022 3:15:00 PM 22.42 72.356 0.108 8.43 1.28 8.93
8/16/2022 3:30:00 PM 22.46 72.42799 0.108 8.39 1.22 8.81
8/16/2022 3:45:00 PM 22.63 72.734 0.108 8.36 1.35 8.82
8/16/2022 4:00:00 PM 22.6 72.68 0.108 8.32 1.2 8.74
8/16/2022 4:15:00 PM 22.52 72.536 0.108 8.29 1.24 8.7
8/16/2022 4:30:00 PM 22.52 72.536 0.108 8.26 1.22 8.62
8/16/2022 4:45:00 PM 22.53 72.554 0.108 8.22 1.34 8.64
8/16/2022 5:00:00 PM 22.66 72.788 0.108 8.23 1.19 8.72
8/16/2022 5:15:00 PM 22.67 72.806 0.108 8.19 1.23 8.67
8/16/2022 5:30:00 PM 22.67 72.806 0.108 8.14 1.25 8.57
8/16/2022 5:45:00 PM 22.53 72.554 0.109 8.03 1.2 8.38
8/16/2022 6:00:00 PM 22.38 72.284 0.109 7.9 1.42 8.29
8/16/2022 6:15:00 PM 22.25 72.05 0.109 7.8 1.56 8.24
8/16/2022 6:30:00 PM 22.12 71.816 0.109 7.77 1.16 8.2
8/16/2022 6:45:00 PM 21.99 71.582 0.109 7.7 1.32 8.14
8/16/2022 7:00:00 PM 21.87 71.366 0.109 7.66 1.35 8.08
8/16/2022 7:15:00 PM 21.75 71.15 0.109 7.59 1.27 8
8/16/2022 7:30:00 PM 21.61 70.898 0.109 7.55 1.29 7.91
8/16/2022 7:45:00 PM 21.49 70.682 0.11 7.53 1.19 7.84
8/16/2022 8:00:00 PM 21.35 70.43 0.11 7.5 1.31 7.77
8/16/2022 8:15:00 PM 21.18 70.124 0.111 7.42 1.33 7.69
8/16/2022 8:30:00 PM 21.02 69.836 0.111 7.41 1.3 7.64
8/16/2022 8:45:00 PM 20.86 69.548 0.111 7.39 1.34 7.6
8/16/2022 9:00:00 PM 20.72 69.296 0.112 7.33 1.4 7.58
8/16/2022 9:15:00 PM 20.6 69.08 0.112 7.33 1.45 7.56
8/16/2022 9:30:00 PM 20.47 68.846 0.112 7.3 1.32 7.55
8/16/2022 9:45:00 PM 20.35 68.63 0.112 7.29 1.47 7.56
8/16/2022 10:00:00 PM 20.24 68.432 0.112 7.26 1.33 7.58
8/16/2022 10:15:00 PM 20.12 68.216 0.112 7.25 1.36 7.56
8/16/2022 10:30:00 PM 20 68 0.112 7.23 1.31 7.58
8/16/2022 10:45:00 PM 19.88 67.784 0.112 7.23 1.34 7.61
8/16/2022 11:00:00 PM 19.78 67.604 0.112 7.22 1.28 7.61
8/16/2022 11:15:00 PM 19.68 67.424 0.112 7.21 1.48 7.63
8/16/2022 11:30:00 PM 19.59 67.262 0.112 7.18 1.34 7.66
8/16/2022 11:45:00 PM 19.49 67.082 0.112 7.2 1.34 7.67
8/17/2022 12:00:00 AM 19.4 66.92 0.113 7.2 1.36 7.7
8/17/2022 12:15:00 AM 19.3 66.74 0.112 7.19 1.49 7.7
8/17/2022 12:30:00 AM 19.21 66.578 0.113 7.18 1.4 7.73
8/17/2022 12:45:00 AM 19.13 66.434 0.113 7.18 1.4 7.77
8/17/2022 1:00:00 AM 19.03 66.254 0.113 7.17 1.43 7.79
8/17/2022 1:15:00 AM 18.92 66.056 0.113 7.13 1.37 7.79
8/17/2022 1:30:00 AM 18.82 65.876 0.113 7.16 1.36 7.84
8/17/2022 1:45:00 AM 18.72 65.696 0.113 7.15 1.36 7.84
8/17/2022 2:00:00 AM 18.63 65.534 0.114 7.12 1.33 7.83
8/17/2022 2:15:00 AM 18.56 65.408 0.114 7.14 1.4 7.86
8/17/2022 2:30:00 AM 18.5 65.3 0.114 7.16 1.4 7.89
8/17/2022 2:45:00 AM 18.4 65.12 0.114 7.16 1.33 7.9
8/17/2022 3:00:00 AM 18.33 64.994 0.114 7.15 1.28 7.92
8/17/2022 3:15:00 AM 18.28 64.904 0.114 7.12 1.36 7.97
8/17/2022 3:30:00 AM 18.18 64.724 0.115 7.14 1.41 8.01
8/17/2022 3:45:00 AM 18.11 64.598 0.115 7.16 1.28 8.04
8/17/2022 4:00:00 AM 18.02 64.436 0.115 7.17 1.54 8.07
8/17/2022 4:15:00 AM 17.94 64.292 0.115 7.16 1.43 8.08
8/17/2022 4:30:00 AM 17.87 64.166 0.115 7.15 1.35 8.11
8/17/2022 4:45:00 AM 17.8 64.04 0.115 7.13 1.43 8.11
8/17/2022 5:00:00 AM 17.73 63.914 0.115 7.16 1.45 8.13
8/17/2022 5:15:00 AM 17.67 63.806 0.115 7.02 1.44 8.15
8/17/2022 5:30:00 AM 17.62 63.716 0.115 7.05 1.62 8.15
8/17/2022 5:45:00 AM 17.55 63.59 0.115 7.07 1.32 8.17
8/17/2022 6:00:00 AM 17.5 63.5 0.115 7.05 1.46 8.19
8/17/2022 6:15:00 AM 17.44 63.392 0.115 7.09 1.43 8.2
8/17/2022 6:30:00 AM 17.38 63.284 0.115 7.08 1.43 8.21
8/17/2022 6:45:00 AM 17.33 63.194 0.115 7.1 1.34 8.26
8/17/2022 7:00:00 AM 17.27 63.086 0.115 7.14 1.3 8.28
8/17/2022 7:15:00 AM 17.24 63.032 0.115 7.11 1.4 8.4
8/17/2022 7:30:00 AM 17.22 62.996 0.115 7.11 1.27 8.52
8/17/2022 7:45:00 AM 17.21 62.978 0.115 7.13 1.56 8.63
8/17/2022 8:00:00 AM 17.22 62.996 0.115 7.17 1.26 8.77
8/17/2022 8:15:00 AM 17.23 63.014 0.114 7.18 1.33 8.9
8/17/2022 8:30:00 AM 17.24 63.032 0.114 7.21 1.33 8.97
8/17/2022 8:45:00 AM 17.28 63.104 0.114 7.23 1.41 9.13
8/17/2022 9:00:00 AM 17.33 63.194 0.113 7.24 1.47 9.25
8/17/2022 9:15:00 AM 17.38 63.284 0.113 7.27 1.41 9.33
8/17/2022 9:30:00 AM 17.42 63.356 0.113 7.27 1.44 9.35
8/17/2022 9:45:00 AM 17.48 63.464 0.112 7.26 1.34 9.37
8/17/2022 10:00:00 AM 17.54 63.572 0.112 7.28 1.28 9.41
8/17/2022 10:15:00 AM 17.61 63.698 0.112 7.29 1.26 9.44
8/17/2022 10:30:00 AM 17.71 63.878 0.112 7.28 1.22 9.52
8/17/2022 10:45:00 AM 17.83 64.094 0.111 7.34 1.29 9.62
8/17/2022 11:00:00 AM 17.95 64.31 0.111 7.35 1.36 9.69
8/17/2022 11:15:00 AM 18.1 64.58 0.111 7.4 1.3 9.77
8/17/2022 11:30:00 AM 18.25 64.85 0.111 7.45 1.29 9.83
8/17/2022 11:45:00 AM 18.35 65.03 0.111 7.44 1.23 9.77
8/17/2022 12:00:00 PM 18.47 65.246 0.111 7.51 1.23 9.74
8/17/2022 12:15:00 PM 18.58 65.444 0.111 7.55 1.36 9.76
8/17/2022 12:30:00 PM 18.67 65.606 0.111 7.58 1.21 9.75
8/17/2022 12:45:00 PM 18.78 65.804 0.11 7.62 1.28 9.76
8/17/2022 1:00:00 PM 18.89 66.002 0.11 7.64 1.31 9.77
8/17/2022 1:15:00 PM 19.02 66.236 0.11 7.72 1.31 9.8
8/17/2022 1:30:00 PM 19.17 66.506 0.11 7.83 1.28 9.88
8/17/2022 1:45:00 PM 19.31 66.758 0.109 7.89 1.26 9.89
8/17/2022 2:00:00 PM 19.45 67.01 0.109 7.97 1.32 9.87
8/17/2022 2:15:00 PM 19.57 67.226 0.109 8.02 1.63 9.8
8/17/2022 2:30:00 PM 19.61 67.298 0.109 8.06 1.38 9.64
8/17/2022 2:45:00 PM 19.64 67.352 0.109 8.06 1.4 9.53
8/17/2022 3:00:00 PM 19.65 67.37 0.109 8.04 1.41 9.36
8/17/2022 3:15:00 PM 19.67 67.406 0.109 8.02 1.25 9.3
8/17/2022 3:30:00 PM 19.72 67.496 0.109 8.02 1.26 9.25
8/17/2022 3:45:00 PM 19.84 67.712 0.109 8.06 1.38 9.33
8/17/2022 4:00:00 PM 19.85 67.73 0.109 8.08 1.26 9.32
8/17/2022 4:15:00 PM 19.99 67.982 0.109 8.14 1.15 9.37
8/17/2022 4:30:00 PM 20.02 68.036 0.109 8.09 1.19 9.29
8/17/2022 4:45:00 PM 20.03 68.054 0.109 8.07 1.34 9.3
8/17/2022 5:00:00 PM 20.02 68.036 0.108 8.03 1.28 9.25
8/17/2022 5:15:00 PM 19.97 67.946 0.108 7.98 1.27 9.17
8/17/2022 5:30:00 PM 20.01 68.018 0.108 7.99 1.2 9.22
8/17/2022 5:45:00 PM 20.05 68.09 0.108 7.98 1.26 9.17
8/17/2022 6:00:00 PM 20.03 68.054 0.108 7.94 1.24 8.98
8/17/2022 6:15:00 PM 20.02 68.036 0.108 7.89 1.22 8.91
8/17/2022 6:30:00 PM 19.96 67.92799 0.108 7.84 1.53 8.76
8/17/2022 6:45:00 PM 19.85 67.73 0.108 7.72 1.85 8.57
8/17/2022 7:00:00 PM 19.77 67.586 0.108 7.66 1.54 8.43
8/17/2022 7:15:00 PM 19.69 67.442 0.109 7.61 1.42 8.35
8/17/2022 7:30:00 PM 19.57 67.226 0.109 7.53 1.74 8.23
8/17/2022 7:45:00 PM 19.44 66.992 0.109 7.46 1.87 8.16
8/17/2022 8:00:00 PM 19.33 66.794 0.109 7.45 1.49 8.09
8/17/2022 8:15:00 PM 19.23 66.614 0.11 7.41 1.48 8.03
8/17/2022 8:30:00 PM 19.11 66.398 0.11 7.38 1.6 8
8/17/2022 8:45:00 PM 19.02 66.236 0.111 7.37 1.39 7.96
8/17/2022 9:00:00 PM 18.91 66.038 0.111 7.33 1.9 7.91
8/17/2022 9:15:00 PM 18.82 65.876 0.111 7.29 1.24 7.92
8/17/2022 9:30:00 PM 18.73 65.714 0.111 7.28 1.33 7.92
8/17/2022 9:45:00 PM 18.64 65.552 0.111 7.25 1.34 7.91
8/17/2022 10:00:00 PM 18.57 65.426 0.111 7.26 1.19 7.91
8/17/2022 10:15:00 PM 18.49 65.282 0.111 7.22 1.39 7.9
8/17/2022 10:30:00 PM 18.43 65.174 0.111 7.24 1.27 7.92
8/17/2022 10:45:00 PM 18.36 65.048 0.111 7.22 1.5 7.92
8/17/2022 11:00:00 PM 18.3 64.94 0.111 7.19 1.22 7.93
8/17/2022 11:15:00 PM 18.24 64.832 0.111 7.19 1.41 7.96
8/17/2022 11:30:00 PM 18.18 64.724 0.111 7.19 1.33 7.95
8/17/2022 11:45:00 PM 18.1 64.58 0.112 7.17 1.5 7.97
8/18/2022 12:00:00 AM 18.02 64.436 0.112 7.14 1.42 7.99
8/18/2022 12:15:00 AM 17.97 64.346 0.112 7.17 1.36 7.98
8/18/2022 12:30:00 AM 17.93 64.274 0.112 7.16 1.44 8.04
8/18/2022 12:45:00 AM 17.87 64.166 0.113 7.17 1.4 8.07
8/18/2022 1:00:00 AM 17.81 64.058 0.113 7.17 1.2 8.09
8/18/2022 1:15:00 AM 17.77 63.986 0.113 7.16 1.35 8.13
8/18/2022 1:30:00 AM 17.68 63.824 0.113 7.15 1.33 8.12
8/18/2022 1:45:00 AM 17.62 63.716 0.113 7.14 1.28 8.11
8/18/2022 2:00:00 AM 17.57 63.626 0.114 7.13 1.34 8.16
8/18/2022 2:15:00 AM 17.49 63.482 0.114 7.15 1.29 8.16
8/18/2022 2:30:00 AM 17.43 63.374 0.114 7.15 1.39 8.2
8/18/2022 2:45:00 AM 17.37 63.266 0.114 7.12 1.36 8.2
8/18/2022 3:00:00 AM 17.29 63.122 0.114 7.11 1.37 8.2
8/18/2022 3:15:00 AM 17.23 63.014 0.114 7.13 1.29 8.24
8/18/2022 3:30:00 AM 17.17 62.906 0.114 7.11 1.41 8.24
8/18/2022 3:45:00 AM 17.09 62.762 0.115 7.13 1.2 8.24
8/18/2022 4:00:00 AM 17.01 62.618 0.114 7.11 1.33 8.26
8/18/2022 4:15:00 AM 16.95 62.51 0.115 7.11 1.4 8.27
8/18/2022 4:30:00 AM 16.88 62.384 0.115 7.11 1.24 8.28
8/18/2022 4:45:00 AM 16.83 62.294 0.114 7.12 1.27 8.3
8/18/2022 5:00:00 AM 16.76 62.168 0.114 7.09 1.44 8.31
8/18/2022 5:15:00 AM 16.69 62.042 0.114 7.11 1.37 8.33
8/18/2022 5:30:00 AM 16.62 61.916 0.114 7.11 1.38 8.35
8/18/2022 5:45:00 AM 16.56 61.808 0.114 7.09 1.37 8.38
8/18/2022 6:00:00 AM 16.5 61.7 0.115 7.12 1.47 8.42
8/18/2022 6:15:00 AM 16.44 61.592 0.115 7.1 1.4 8.46
8/18/2022 6:30:00 AM 16.37 61.466 0.114 7.12 1.41 8.46
8/18/2022 6:45:00 AM 16.32 61.376 0.114 7.13 1.35 8.51
8/18/2022 7:00:00 AM 16.28 61.304 0.114 7.1 1.14 8.55
8/18/2022 7:15:00 AM 16.23 61.214 0.114 7.12 1.25 8.63
8/18/2022 7:30:00 AM 16.21 61.178 0.114 7.13 1.5 8.73
8/18/2022 7:45:00 AM 16.21 61.178 0.114 7.14 1.42 8.87
8/18/2022 8:00:00 AM 16.21 61.178 0.114 7.18 1.33 9
8/18/2022 8:15:00 AM 16.23 61.214 0.113 7.19 1.33 9.12
8/18/2022 8:30:00 AM 16.25 61.25 0.113 7.22 1.25 9.21
8/18/2022 8:45:00 AM 16.31 61.358 0.113 7.21 1.37 9.31
8/18/2022 9:00:00 AM 16.38 61.484 0.113 7.25 1.29 9.47
8/18/2022 9:15:00 AM 16.46 61.628 0.112 7.27 1.26 9.58
8/18/2022 9:30:00 AM 16.53 61.754 0.112 7.31 1.36 9.6
8/18/2022 9:45:00 AM 16.59 61.862 0.112 7.31 1.47 9.6
8/18/2022 10:00:00 AM 16.65 61.97 0.111 7.33 1.48 9.61
8/18/2022 10:15:00 AM 16.75 62.15 0.111 7.31 1.72 9.69
8/18/2022 10:30:00 AM 16.85 62.33 0.111 7.37 1.48 9.75
8/18/2022 10:45:00 AM 16.95 62.51 0.111 7.39 1.41 9.78
8/18/2022 11:00:00 AM 17.05 62.69 0.111 7.39 1.65 9.8
8/18/2022 11:15:00 AM 17.15 62.87 0.111 7.43 1.58 9.81
8/18/2022 11:30:00 AM 17.26 63.068 0.111 7.42 1.62 9.81
8/18/2022 11:45:00 AM 17.43 63.374 0.111 7.5 1.44 9.93
8/18/2022 12:00:00 PM 17.64 63.752 0.11 7.54 1.67 10.01
8/18/2022 12:15:00 PM 17.9 64.22 0.11 7.61 1.48 10.06
8/18/2022 12:30:00 PM 18.22 64.796 0.11 7.68 1.33 10.05
8/18/2022 12:45:00 PM 18.53 65.354 0.11 7.73 1.4 9.98
8/18/2022 1:00:00 PM 18.83 65.894 0.11 7.8 1.26 9.9
8/18/2022 1:15:00 PM 19.15 66.47 0.11 7.83 1.37 9.8
8/18/2022 1:30:00 PM 19.47 67.046 0.11 7.89 1.3 9.74
8/18/2022 1:45:00 PM 19.74 67.532 0.109 7.98 1.46 9.69
8/18/2022 2:00:00 PM 20.12 68.216 0.109 8.13 1.48 9.71
8/18/2022 2:15:00 PM 20.39 68.702 0.109 8.24 1.76 9.66
8/18/2022 2:30:00 PM 20.69 69.242 0.109 8.34 1.46 9.63
8/18/2022 2:45:00 PM 20.94 69.692 0.108 8.46 1.41 9.59
8/18/2022 3:00:00 PM 21.07 69.926 0.108 8.47 1.53 9.4
8/18/2022 3:15:00 PM 21.32 70.376 0.108 8.55 1.67 9.41
8/18/2022 3:30:00 PM 21.41 70.538 0.108 8.54 1.37 9.31
8/18/2022 3:45:00 PM 21.6 70.88 0.108 8.63 1.37 9.33
8/18/2022 4:00:00 PM 21.74 71.132 0.108 8.65 1.3 9.29
8/18/2022 4:15:00 PM 21.8 71.24 0.108 8.68 1.33 9.22
8/18/2022 4:30:00 PM 21.82 71.276 0.108 8.65 1.22 9.19
8/18/2022 4:45:00 PM 21.77 71.186 0.108 8.63 1.33 9.02
8/18/2022 5:00:00 PM 21.68 71.024 0.108 8.51 1.63 8.83
8/18/2022 5:15:00 PM 21.67 71.006 0.108 8.47 1.37 8.89
8/18/2022 5:30:00 PM 21.66 70.988 0.108 8.47 1.4 8.88
8/18/2022 5:45:00 PM 21.59 70.862 0.108 8.43 1.29 8.85
8/18/2022 6:00:00 PM 21.48 70.664 0.108 8.32 1.28 8.71
8/18/2022 6:15:00 PM 21.36 70.448 0.108 8.15 1.41 8.56
8/18/2022 6:30:00 PM 21.22 70.196 0.108 8.04 1.49 8.46
8/18/2022 6:45:00 PM 21.12 70.016 0.109 7.92 1.24 8.39
8/18/2022 7:00:00 PM 21.01 69.818 0.109 7.84 1.42 8.3
8/18/2022 7:15:00 PM 20.91 69.638 0.109 7.77 1.27 8.25
8/18/2022 7:30:00 PM 20.8 69.44 0.109 7.71 1.24 8.2
8/18/2022 7:45:00 PM 20.69 69.242 0.11 7.65 1.25 8.14
8/18/2022 8:00:00 PM 20.57 69.026 0.11 7.59 1.37 8.06
8/18/2022 8:15:00 PM 20.45 68.81 0.111 7.52 1.49 7.97
8/18/2022 8:30:00 PM 20.34 68.612 0.111 7.52 1.5 7.91
8/18/2022 8:45:00 PM 20.21 68.378 0.111 7.48 1.46 7.86
8/18/2022 9:00:00 PM 20.1 68.18 0.111 7.45 1.45 7.83
8/18/2022 9:15:00 PM 19.99 67.982 0.112 7.42 1.51 7.82
8/18/2022 9:30:00 PM 19.88 67.784 0.112 7.37 1.45 7.79
8/18/2022 9:45:00 PM 19.76 67.568 0.112 7.39 1.35 7.8
8/18/2022 10:00:00 PM 19.65 67.37 0.112 7.36 1.49 7.79
8/18/2022 10:15:00 PM 19.54 67.172 0.112 7.35 1.45 7.79
8/18/2022 10:30:00 PM 19.42 66.956 0.112 7.3 1.43 7.79
8/18/2022 10:45:00 PM 19.32 66.776 0.113 7.29 1.3 7.82
8/18/2022 11:00:00 PM 19.21 66.578 0.113 7.31 1.5 7.84
8/18/2022 11:15:00 PM 19.11 66.398 0.113 7.27 1.37 7.86
8/18/2022 11:30:00 PM 18.99 66.182 0.113 7.28 1.37 7.89
8/18/2022 11:45:00 PM 18.87 65.966 0.113 7.25 1.41 7.92
8/19/2022 12:00:00 AM 18.76 65.768 0.113 7.25 1.44 7.94
8/19/2022 12:15:00 AM 18.65 65.57 0.113 7.26 1.48 7.97
8/19/2022 12:30:00 AM 18.54 65.372 0.114 7.25 1.39 8
8/19/2022 12:45:00 AM 18.43 65.174 0.114 7.25 1.58 8.02
8/19/2022 1:00:00 AM 18.31 64.958 0.114 7.2 1.55 8.04
8/19/2022 1:15:00 AM 18.2 64.76 0.114 7.22 1.4 8.06
8/19/2022 1:30:00 AM 18.09 64.562 0.114 7.21 1.43 8.07
8/19/2022 1:45:00 AM 17.98 64.364 0.114 7.19 1.42 8.09
8/19/2022 2:00:00 AM 17.87 64.166 0.115 7.15 1.55 8.13
8/19/2022 2:15:00 AM 17.74 63.932 0.115 7.16 1.47 8.14
8/19/2022 2:30:00 AM 17.62 63.716 0.115 7.15 1.42 8.17
8/19/2022 2:45:00 AM 17.52 63.536 0.115 7.15 1.37 8.19
8/19/2022 3:00:00 AM 17.39 63.302 0.115 7.11 1.43 8.22
8/19/2022 3:15:00 AM 17.3 63.14 0.115 7.15 1.48 8.26
8/19/2022 3:30:00 AM 17.19 62.942 0.115 7.15 1.49 8.29
8/19/2022 3:45:00 AM 17.08 62.744 0.115 7.14 1.4 8.3
8/19/2022 4:00:00 AM 16.98 62.564 0.115 7.14 1.57 8.31
8/19/2022 4:15:00 AM 16.87 62.366 0.116 7.13 1.44 8.33
8/19/2022 4:30:00 AM 16.77 62.186 0.115 7.1 1.57 8.34
8/19/2022 4:45:00 AM 16.67 62.006 0.116 7.12 1.45 8.37
8/19/2022 5:00:00 AM 16.58 61.844 0.116 7.12 1.49 8.4
8/19/2022 5:15:00 AM 16.47 61.646 0.116 7.11 1.39 8.42
8/19/2022 5:30:00 AM 16.38 61.484 0.116 7.11 1.67 8.46
8/19/2022 5:45:00 AM 16.28 61.304 0.116 7.12 1.51 8.5
8/19/2022 6:00:00 AM 16.18 61.124 0.116 7.11 1.43 8.52
8/19/2022 6:15:00 AM 16.09 60.962 0.116 7.07 1.63 8.56
8/19/2022 6:30:00 AM 16 60.8 0.116 7.1 1.59 8.59
8/19/2022 6:45:00 AM 15.93 60.674 0.116 7.08 1.39 8.64
8/19/2022 7:00:00 AM 15.84 60.512 0.116 7.11 1.68 8.68
8/19/2022 7:15:00 AM 15.76 60.368 0.115 7.11 1.46 8.73
8/19/2022 7:30:00 AM 15.69 60.242 0.115 7.1 1.46 8.79
8/19/2022 7:45:00 AM 15.63 60.134 0.115 7.12 1.44 8.83
8/19/2022 8:00:00 AM 15.59 60.062 0.115 7.12 1.41 8.9
8/19/2022 8:15:00 AM 15.58 60.044 0.115 7.12 1.5 8.96
8/19/2022 8:30:00 AM 15.58 60.044 0.115 7.15 1.54 9.03
8/19/2022 8:45:00 AM 15.64 60.152 0.115 7.18 1.5 9.15
8/19/2022 9:00:00 AM 15.72 60.296 0.115 7.21 1.45 9.24
8/19/2022 9:15:00 AM 15.84 60.512 0.115 7.23 1.38 9.34
8/19/2022 9:30:00 AM 15.94 60.692 0.114 7.26 1.38 9.34
8/19/2022 9:45:00 AM 16.13 61.034 0.114 7.27 1.39 9.45
8/19/2022 10:00:00 AM 16.26 61.268 0.114 7.3 1.43 9.47
8/19/2022 10:15:00 AM 16.46 61.628 0.114 7.31 1.33 9.5
8/19/2022 10:30:00 AM 16.72 62.096 0.114 7.33 1.38 9.53
8/19/2022 10:45:00 AM 17.03 62.654 0.114 7.36 1.34 9.57
8/19/2022 11:00:00 AM 17.36 63.248 0.113 7.41 1.42 9.57
8/19/2022 11:15:00 AM 17.73 63.914 0.113 7.41 1.89 9.59
8/19/2022 11:30:00 AM 18.08 64.544 0.113 7.45 1.5 9.57
8/19/2022 11:45:00 AM 18.47 65.246 0.113 7.49 1.36 9.54
8/19/2022 12:00:00 PM 18.87 65.966 0.113 7.52 1.43 9.51
8/19/2022 12:15:00 PM 19.25 66.65 0.113 7.55 1.62 9.48
8/19/2022 12:30:00 PM 19.69 67.442 0.113 7.59 1.62 9.51
8/19/2022 12:45:00 PM 20.09 68.162 0.113 7.65 1.38 9.48
8/19/2022 1:00:00 PM 20.47 68.846 0.112 7.67 1.42 9.49
8/19/2022 1:15:00 PM 20.76 69.368 0.112 7.73 1.37 9.44
8/19/2022 1:30:00 PM 20.99 69.782 0.112 7.82 1.42 9.45
8/19/2022 1:45:00 PM 21.18 70.124 0.112 7.84 1.45 9.34
8/19/2022 2:00:00 PM 21.22 70.196 0.112 7.85 1.44 9.2
8/19/2022 2:15:00 PM 21.45 70.61 0.112 7.92 1.6 9.19
8/19/2022 2:30:00 PM 21.7 71.06 0.112 7.96 1.33 9.11
8/19/2022 2:45:00 PM 21.89 71.402 0.112 7.99 1.33 9.04
8/19/2022 3:00:00 PM 22.11 71.798 0.111 8.03 2.06 9.09
8/19/2022 3:15:00 PM 22.26 72.068 0.111 8.09 1.33 9.05
8/19/2022 3:30:00 PM 22.3 72.14 0.111 8.09 1.41 8.9
8/19/2022 3:45:00 PM 22.35 72.23 0.111 8.1 1.25 8.85
8/19/2022 4:00:00 PM 22.45 72.41 0.111 8.11 1.46 8.82
8/19/2022 4:15:00 PM 22.58 72.644 0.111 8.14 1.24 8.83
8/19/2022 4:30:00 PM 22.76 72.968 0.111 8.19 1.33 8.86
8/19/2022 4:45:00 PM 22.82 73.076 0.111 8.18 1.33 8.8
8/19/2022 5:00:00 PM 22.77 72.986 0.111 8.13 1.33 8.66
8/19/2022 5:15:00 PM 22.61 72.698 0.112 8.01 1.24 8.5
8/19/2022 5:30:00 PM 22.53 72.554 0.112 7.97 1.23 8.5
8/19/2022 5:45:00 PM 22.45 72.41 0.112 7.9 1.26 8.46
8/19/2022 6:00:00 PM 22.34 72.212 0.111 7.86 1.4 8.36
8/19/2022 6:15:00 PM 22.24 72.032 0.111 7.81 1.35 8.32
8/19/2022 6:30:00 PM 22.13 71.834 0.111 7.76 1.39 8.22
8/19/2022 6:45:00 PM 22.04 71.672 0.112 7.71 1.42 8.15
8/19/2022 7:00:00 PM 21.95 71.51 0.112 7.66 1.3 8.08
8/19/2022 7:15:00 PM 21.84 71.312 0.112 7.62 1.27 8.02
8/19/2022 7:30:00 PM 21.75 71.15 0.112 7.59 1.42 7.95
8/19/2022 7:45:00 PM 21.61 70.898 0.113 7.51 1.56 7.89
8/19/2022 8:00:00 PM 21.49 70.682 0.113 7.5 1.39 7.82
8/19/2022 8:15:00 PM 21.37 70.466 0.113 7.45 1.43 7.76
8/19/2022 8:30:00 PM 21.27 70.286 0.113 7.45 1.6 7.72
8/19/2022 8:45:00 PM 21.16 70.088 0.113 7.42 1.38 7.69
8/19/2022 9:00:00 PM 21.06 69.908 0.114 7.41 1.46 7.67
8/19/2022 9:15:00 PM 20.95 69.71 0.114 7.39 1.59 7.65
8/19/2022 9:30:00 PM 20.86 69.548 0.114 7.37 1.64 7.65
8/19/2022 9:45:00 PM 20.76 69.368 0.114 7.33 1.5 7.65
8/19/2022 10:00:00 PM 20.68 69.224 0.114 7.36 1.48 7.65
8/19/2022 10:15:00 PM 20.57 69.026 0.114 7.32 1.52 7.66
8/19/2022 10:30:00 PM 20.46 68.828 0.115 7.32 1.6 7.65
8/19/2022 10:45:00 PM 20.36 68.648 0.115 7.29 1.46 7.69
8/19/2022 11:00:00 PM 20.26 68.468 0.115 7.31 1.47 7.7
8/19/2022 11:15:00 PM 20.15 68.27 0.115 7.31 1.66 7.73
8/19/2022 11:30:00 PM 20.05 68.09 0.115 7.3 1.62 7.75
8/19/2022 11:45:00 PM 19.95 67.91 0.115 7.3 1.67 7.76
8/20/2022 12:00:00 AM 19.83 67.694 0.115 7.26 1.66 7.78
8/20/2022 12:15:00 AM 19.73 67.514 0.115 7.26 1.38 7.81
8/20/2022 12:30:00 AM 19.6 67.28 0.115 7.27 1.5 7.82
8/20/2022 12:45:00 AM 19.51 67.118 0.115 7.27 1.5 7.85
8/20/2022 1:00:00 AM 19.39 66.902 0.115 7.26 1.46 7.88
8/20/2022 1:15:00 AM 19.29 66.722 0.116 7.24 1.45 7.9
8/20/2022 1:30:00 AM 19.17 66.506 0.116 7.25 1.37 7.92
8/20/2022 1:45:00 AM 19.05 66.29 0.116 7.24 1.58 7.93
8/20/2022 2:00:00 AM 18.96 66.128 0.116 7.26 1.6 7.97
8/20/2022 2:15:00 AM 18.84 65.912 0.116 7.26 1.67 7.99
8/20/2022 2:30:00 AM 18.75 65.75 0.116 7.23 1.51 8.01
8/20/2022 2:45:00 AM 18.65 65.57 0.116 7.25 1.67 8.03
8/20/2022 3:00:00 AM 18.52 65.336 0.116 7.25 1.65 8.04
8/20/2022 3:15:00 AM 18.45 65.21 0.116 7.22 1.44 8.07
8/20/2022 3:30:00 AM 18.34 65.012 0.117 7.2 1.49 8.09
8/20/2022 3:45:00 AM 18.24 64.832 0.117 7.22 1.67 8.12
8/20/2022 4:00:00 AM 18.13 64.634 0.117 7.21 1.51 8.14
8/20/2022 4:15:00 AM 18.04 64.472 0.117 7.22 1.62 8.16
8/20/2022 4:30:00 AM 17.92 64.256 0.117 7.2 1.69 8.16
8/20/2022 4:45:00 AM 17.84 64.112 0.117 7.18 1.62 8.19
8/20/2022 5:00:00 AM 17.74 63.932 0.117 7.15 1.53 8.2
8/20/2022 5:15:00 AM 17.66 63.788 0.117 7.12 1.7 8.23
8/20/2022 5:30:00 AM 17.57 63.626 0.117 7.14 1.53 8.24
8/20/2022 5:45:00 AM 17.48 63.464 0.117 7.12 1.55 8.27
8/20/2022 6:00:00 AM 17.38 63.284 0.117 7.14 1.54 8.28
8/20/2022 6:15:00 AM 17.31 63.158 0.117 7.15 1.7 8.31
8/20/2022 6:30:00 AM 17.22 62.996 0.117 7.11 1.58 8.35
8/20/2022 6:45:00 AM 17.15 62.87 0.117 7.15 1.74 8.42
8/20/2022 7:00:00 AM 17.11 62.798 0.117 7.16 1.55 8.49
8/20/2022 7:15:00 AM 17.08 62.744 0.117 7.17 1.57 8.56
8/20/2022 7:30:00 AM 17.04 62.672 0.117 7.16 1.66 8.65
8/20/2022 7:45:00 AM 17.02 62.636 0.116 7.2 1.52 8.69
8/20/2022 8:00:00 AM 17.01 62.618 0.116 7.21 1.73 8.76
8/20/2022 8:15:00 AM 17.04 62.672 0.116 7.2 1.54 8.87
8/20/2022 8:30:00 AM 17.09 62.762 0.116 7.27 1.44 9
8/20/2022 8:45:00 AM 17.18 62.924 0.116 7.3 1.47 9.15
8/20/2022 9:00:00 AM 17.29 63.122 0.115 7.32 1.54 9.2
8/20/2022 9:15:00 AM 17.41 63.338 0.115 7.35 1.37 9.26
8/20/2022 9:30:00 AM 17.54 63.572 0.115 7.35 1.43 9.3
8/20/2022 9:45:00 AM 17.71 63.878 0.115 7.37 1.35 9.36
8/20/2022 10:00:00 AM 17.85 64.13 0.114 7.42 1.52 9.42
8/20/2022 10:15:00 AM 18.05 64.49 0.114 7.42 1.46 9.43
8/20/2022 10:30:00 AM 18.29 64.922 0.114 7.44 1.46 9.45
8/20/2022 10:45:00 AM 18.57 65.426 0.114 7.48 1.44 9.47
8/20/2022 11:00:00 AM 18.84 65.912 0.113 7.53 1.39 9.45
8/20/2022 11:15:00 AM 19.09 66.362 0.113 7.55 1.46 9.45
8/20/2022 11:30:00 AM 19.33 66.794 0.113 7.57 1.47 9.4
8/20/2022 11:45:00 AM 19.56 67.208 0.113 7.57 1.37 9.39
8/20/2022 12:00:00 PM 19.82 67.676 0.113 7.61 1.29 9.4
8/20/2022 12:15:00 PM 20.18 68.324 0.113 7.64 1.61 9.39
8/20/2022 12:30:00 PM 20.62 69.116 0.113 7.7 1.39 9.39
8/20/2022 12:45:00 PM 21.04 69.872 0.113 7.77 1.5 9.4
8/20/2022 1:00:00 PM 21.43 70.574 0.112 7.79 1.29 9.41
8/20/2022 1:15:00 PM 21.78 71.204 0.112 7.85 1.37 9.34
8/20/2022 1:30:00 PM 22.06 71.708 0.112 7.89 1.36 9.27
8/20/2022 1:45:00 PM 22.39 72.302 0.112 7.93 1.5 9.18
8/20/2022 2:00:00 PM 22.66 72.788 0.112 8 1.31 9.11
8/20/2022 2:15:00 PM 22.95 73.31 0.111 8.09 1.28 9.06
8/20/2022 2:30:00 PM 23.2 73.76 0.111 8.14 1.45 8.96
8/20/2022 2:45:00 PM 23.43 74.174 0.111 8.2 1.31 8.86
8/20/2022 3:00:00 PM 23.64 74.552 0.111 8.23 1.34 8.8
8/20/2022 3:15:00 PM 23.85 74.93 0.111 8.24 1.33 8.71
8/20/2022 3:30:00 PM 24 75.2 0.111 8.27 1.27 8.67
8/20/2022 3:45:00 PM 24.13 75.434 0.111 8.3 1.24 8.57
8/20/2022 4:00:00 PM 24.23 75.614 0.111 8.3 1.38 8.53
8/20/2022 4:15:00 PM 24.34 75.812 0.11 8.29 1.21 8.49
8/20/2022 4:30:00 PM 24.46 76.028 0.11 8.32 1.46 8.44
8/20/2022 4:45:00 PM 24.52 76.136 0.11 8.32 1.36 8.39
8/20/2022 5:00:00 PM 24.53 76.154 0.111 8.3 1.27 8.36
8/20/2022 5:15:00 PM 24.46 76.028 0.111 8.23 1.3 8.21
8/20/2022 5:30:00 PM 24.33 75.794 0.112 8.12 1.2 8.07
8/20/2022 5:45:00 PM 24.19 75.542 0.112 8.04 1.21 8.01
8/20/2022 6:00:00 PM 24.05 75.29 0.112 7.95 1.26 7.87
8/20/2022 6:15:00 PM 23.93 75.074 0.112 7.86 1.29 7.76
8/20/2022 6:30:00 PM 23.82 74.876 0.113 7.76 1.28 7.76
8/20/2022 6:45:00 PM 23.67 74.606 0.113 7.75 1.25 7.81
8/20/2022 7:00:00 PM 23.52 74.336 0.113 7.74 1.26 7.79
8/20/2022 7:15:00 PM 23.35 74.03 0.113 7.7 1.25 7.81
8/20/2022 7:30:00 PM 23.18 73.724 0.113 7.67 1.46 7.76
8/20/2022 7:45:00 PM 23.01 73.418 0.114 7.59 1.31 7.67
8/20/2022 8:00:00 PM 22.82 73.076 0.114 7.58 1.36 7.58
8/20/2022 8:15:00 PM 22.65 72.77 0.114 7.54 1.54 7.51
8/20/2022 8:30:00 PM 22.47 72.446 0.114 7.47 1.55 7.47
8/20/2022 8:45:00 PM 22.34 72.212 0.114 7.45 1.87 7.42
8/20/2022 9:00:00 PM 22.2 71.96 0.114 7.42 1.57 7.4
8/20/2022 9:15:00 PM 22.07 71.726 0.113 7.4 1.69 7.39
8/20/2022 9:30:00 PM 21.98 71.564 0.113 7.4 1.63 7.39
8/20/2022 9:45:00 PM 21.9 71.42 0.114 7.37 1.56 7.37
8/20/2022 10:00:00 PM 21.79 71.222 0.114 7.37 1.51 7.36
8/20/2022 10:15:00 PM 21.68 71.024 0.114 7.35 1.51 7.36
8/20/2022 10:30:00 PM 21.6 70.88 0.114 7.34 1.58 7.36
8/20/2022 10:45:00 PM 21.51 70.718 0.114 7.34 1.68 7.38
8/20/2022 11:00:00 PM 21.42 70.556 0.115 7.32 1.47 7.42
8/20/2022 11:15:00 PM 21.35 70.43 0.115 7.33 1.53 7.4
8/20/2022 11:30:00 PM 21.27 70.286 0.115 7.29 1.59 7.44
8/20/2022 11:45:00 PM 21.18 70.124 0.115 7.3 1.71 7.48
8/21/2022 12:00:00 AM 21.09 69.962 0.115 7.28 1.51 7.48
8/21/2022 12:15:00 AM 20.99 69.782 0.115 7.28 1.63 7.51
8/21/2022 12:30:00 AM 20.9 69.62 0.115 7.27 1.58 7.51
8/21/2022 12:45:00 AM 20.82 69.476 0.116 7.29 1.72 7.52
8/21/2022 1:00:00 AM 20.72 69.296 0.116 7.29 1.57 7.54
8/21/2022 1:15:00 AM 20.64 69.152 0.116 7.29 1.71 7.57
8/21/2022 1:30:00 AM 20.56 69.008 0.116 7.27 2.27 7.6
8/21/2022 1:45:00 AM 20.45 68.81 0.116 7.28 1.62 7.63
8/21/2022 2:00:00 AM 20.34 68.612 0.116 7.28 1.65 7.64
8/21/2022 2:15:00 AM 20.24 68.432 0.116 7.23 1.77 7.65
8/21/2022 2:30:00 AM 20.13 68.234 0.116 7.26 1.64 7.67
8/21/2022 2:45:00 AM 20.01 68.018 0.116 7.23 1.83 7.68
8/21/2022 3:00:00 AM 19.92 67.856 0.117 7.26 1.66 7.71
8/21/2022 3:15:00 AM 19.82 67.676 0.117 7.25 1.65 7.73
8/21/2022 3:30:00 AM 19.74 67.532 0.117 7.27 1.77 7.77
8/21/2022 3:45:00 AM 19.64 67.352 0.117 7.27 1.57 7.79
8/21/2022 4:00:00 AM 19.53 67.154 0.117 7.25 2.06 7.79
8/21/2022 4:15:00 AM 19.45 67.01 0.117 7.22 1.59 7.83
8/21/2022 4:30:00 AM 19.34 66.812 0.117 7.24 1.73 7.84
8/21/2022 4:45:00 AM 19.25 66.65 0.117 7.24 1.66 7.88
8/21/2022 5:00:00 AM 19.17 66.506 0.117 7.24 1.77 7.89
8/21/2022 5:15:00 AM 19.09 66.362 0.117 7.17 1.78 7.92
8/21/2022 5:30:00 AM 19 66.2 0.117 7.14 1.76 7.91
8/21/2022 5:45:00 AM 18.92 66.056 0.117 7.16 1.83 7.93
8/21/2022 6:00:00 AM 18.85 65.93 0.117 7.16 1.75 7.92
8/21/2022 6:15:00 AM 18.79 65.82201 0.117 7.17 1.77 7.95
8/21/2022 6:30:00 AM 18.73 65.714 0.117 7.19 1.94 8
8/21/2022 6:45:00 AM 18.67 65.606 0.117 7.16 1.85 8.04
8/21/2022 7:00:00 AM 18.61 65.498 0.117 7.18 1.93 8.1
8/21/2022 7:15:00 AM 18.57 65.426 0.117 7.21 1.75 8.19
8/21/2022 7:30:00 AM 18.53 65.354 0.117 7.23 1.7 8.27
8/21/2022 7:45:00 AM 18.5 65.3 0.117 7.21 1.72 8.38
8/21/2022 8:00:00 AM 18.5 65.3 0.117 7.24 1.66 8.47
8/21/2022 8:15:00 AM 18.52 65.336 0.116 7.28 1.73 8.62
8/21/2022 8:30:00 AM 18.55 65.39 0.116 7.3 1.98 8.74
8/21/2022 8:45:00 AM 18.57 65.426 0.116 7.31 1.9 8.86
8/21/2022 9:00:00 AM 18.64 65.552 0.115 7.36 2.03 8.98
8/21/2022 9:15:00 AM 18.75 65.75 0.115 7.36 1.85 9.11
8/21/2022 9:30:00 AM 18.87 65.966 0.115 7.41 1.93 9.24
8/21/2022 9:45:00 AM 18.99 66.182 0.114 7.46 1.86 9.34
8/21/2022 10:00:00 AM 19.09 66.362 0.114 7.49 1.77 9.34
8/21/2022 10:15:00 AM 19.19 66.542 0.114 7.49 1.77 9.27
8/21/2022 10:30:00 AM 19.32 66.776 0.113 7.49 1.73 9.27
8/21/2022 10:45:00 AM 19.44 66.992 0.113 7.49 1.67 9.28
8/21/2022 11:00:00 AM 19.54 67.172 0.113 7.53 1.56 9.26
8/21/2022 11:15:00 AM 19.64 67.352 0.113 7.52 1.65 9.21
8/21/2022 11:30:00 AM 19.73 67.514 0.113 7.53 1.58 9.17
8/21/2022 11:45:00 AM 19.83 67.694 0.113 7.56 1.69 9.14
8/21/2022 12:00:00 PM 19.91 67.838 0.112 7.56 1.72 9.18
8/21/2022 12:15:00 PM 19.98 67.964 0.113 7.57 1.8 9.09
8/21/2022 12:30:00 PM 20.06 68.108 0.113 7.59 1.68 9.12
8/21/2022 12:45:00 PM 20.13 68.234 0.113 7.6 1.78 9.11
8/21/2022 1:00:00 PM 20.22 68.396 0.113 7.6 1.77 9.17
8/21/2022 1:15:00 PM 20.3 68.54 0.112 7.65 1.84 9.2
8/21/2022 1:30:00 PM 20.41 68.738 0.112 7.68 1.6 9.31
8/21/2022 1:45:00 PM 20.52 68.936 0.112 7.73 1.66 9.41
8/21/2022 2:00:00 PM 20.65 69.17 0.112 7.79 1.73 9.47
8/21/2022 2:15:00 PM 20.83 69.494 0.112 7.83 1.77 9.53
8/21/2022 2:30:00 PM 20.98 69.764 0.111 7.9 1.66 9.52
8/21/2022 2:45:00 PM 21.13 70.034 0.111 7.94 1.77 9.48
8/21/2022 3:00:00 PM 21.27 70.286 0.111 7.97 1.72 9.44
8/21/2022 3:15:00 PM 21.37 70.466 0.111 8.08 1.63 9.42
8/21/2022 3:30:00 PM 21.42 70.556 0.11 8.08 1.7 9.29
8/21/2022 3:45:00 PM 21.47 70.646 0.11 8.09 1.71 9.12
8/21/2022 4:00:00 PM 21.5 70.7 0.11 8.06 1.47 8.91
8/21/2022 4:15:00 PM 21.54 70.772 0.11 7.97 1.49 8.75
8/21/2022 4:30:00 PM 21.57 70.826 0.11 7.94 1.77 8.66
8/21/2022 4:45:00 PM 21.57 70.826 0.11 7.88 1.65 8.53
8/21/2022 5:00:00 PM 21.59 70.862 0.11 7.84 1.5 8.48
8/21/2022 5:15:00 PM 21.57 70.826 0.111 7.79 1.55 8.41
8/21/2022 5:30:00 PM 21.54 70.772 0.111 7.73 1.55 8.34
8/21/2022 5:45:00 PM 21.5 70.7 0.111 7.69 1.44 8.28
8/21/2022 6:00:00 PM 21.45 70.61 0.112 7.64 1.48 8.26
8/21/2022 6:15:00 PM 21.4 70.52 0.112 7.63 1.63 8.23
8/21/2022 6:30:00 PM 21.35 70.43 0.112 7.61 1.57 8.22
8/21/2022 6:45:00 PM 21.29 70.32201 0.112 7.56 1.67 8.23
8/21/2022 7:00:00 PM 21.25 70.25 0.112 7.53 1.53 8.18
8/21/2022 7:15:00 PM 21.19 70.142 0.112 7.53 1.83 8.11
8/21/2022 7:30:00 PM 21.13 70.034 0.113 7.48 1.67 8.05
8/21/2022 7:45:00 PM 21.07 69.926 0.113 7.47 1.85 7.95
8/21/2022 8:00:00 PM 20.99 69.782 0.113 7.45 2.13 7.86
8/21/2022 8:15:00 PM 20.94 69.692 0.113 7.43 1.72 7.79
8/21/2022 8:30:00 PM 20.87 69.566 0.113 7.35 1.77 7.7
8/21/2022 8:45:00 PM 20.81 69.458 0.113 7.37 1.85 7.67
8/21/2022 9:00:00 PM 20.76 69.368 0.113 7.34 1.79 7.63
8/21/2022 9:15:00 PM 20.72 69.296 0.114 7.32 1.79 7.62
8/21/2022 9:30:00 PM 20.66 69.188 0.114 7.3 1.77 7.6
8/21/2022 9:45:00 PM 20.61 69.098 0.114 7.32 1.63 7.61
8/21/2022 10:00:00 PM 20.53 68.954 0.114 7.3 1.71 7.56
8/21/2022 10:15:00 PM 20.48 68.864 0.114 7.29 1.88 7.57
8/21/2022 10:30:00 PM 20.43 68.774 0.115 7.26 1.73 7.57
8/21/2022 10:45:00 PM 20.37 68.666 0.115 7.26 1.61 7.58
8/21/2022 11:00:00 PM 20.33 68.594 0.115 7.28 1.9 7.61
8/21/2022 11:15:00 PM 20.28 68.504 0.114 7.26 1.81 7.6
8/21/2022 11:30:00 PM 20.24 68.432 0.114 7.26 1.68 7.62
8/21/2022 11:45:00 PM 20.19 68.342 0.114 7.26 1.69 7.64
8/22/2022 12:00:00 AM 20.15 68.27 0.114 7.25 1.78 7.63
8/22/2022 12:15:00 AM 20.1 68.18 0.114 7.24 1.85 7.64
8/22/2022 12:30:00 AM 20.06 68.108 0.115 7.21 1.82 7.66
8/22/2022 12:45:00 AM 20.02 68.036 0.115 7.24 1.7 7.66
8/22/2022 1:00:00 AM 19.98 67.964 0.115 7.21 1.77 7.69
8/22/2022 1:15:00 AM 19.94 67.892 0.115 7.24 1.83 7.69
8/22/2022 1:30:00 AM 19.9 67.82 0.115 7.24 1.68 7.7
8/22/2022 1:45:00 AM 19.85 67.73 0.115 7.2 1.74 7.71
8/22/2022 2:00:00 AM 19.8 67.64 0.116 7.23 1.83 7.69
8/22/2022 2:15:00 AM 19.73 67.514 0.116 7.23 1.7 7.71
8/22/2022 2:30:00 AM 19.7 67.46 0.116 7.18 1.72 7.7
8/22/2022 2:45:00 AM 19.67 67.406 0.116 7.23 1.71 7.73
8/22/2022 3:00:00 AM 19.6 67.28 0.115 7.2 4.03 7.74
8/22/2022 3:15:00 AM 19.58 67.244 0.116 7.2 2.03 7.71
8/22/2022 3:30:00 AM 19.55 67.19 0.116 7.19 1.9 7.72
8/22/2022 3:45:00 AM 19.51 67.118 0.116 7.19 1.85 7.71
8/22/2022 4:00:00 AM 19.48 67.064 0.116 7.19 1.71 7.71
8/22/2022 4:15:00 AM 19.47 67.046 0.116 7.2 1.89 7.73
8/22/2022 4:30:00 AM 19.44 66.992 0.116 7.16 2.24 7.75
8/22/2022 4:45:00 AM 19.42 66.956 0.116 7.19 1.71 7.74
8/22/2022 5:00:00 AM 19.4 66.92 0.116 7.2 1.85 7.76
8/22/2022 5:15:00 AM 19.38 66.884 0.116 7.19 1.72 7.76
8/22/2022 5:30:00 AM 19.35 66.83 0.116 7.16 1.9 7.75
8/22/2022 5:45:00 AM 19.24 66.632 0.112 7.14 5.54 7.81
8/22/2022 6:00:00 AM 19.23 66.614 0.112 7.15 2.99 7.82
8/22/2022 6:15:00 AM 19.24 66.632 0.113 7.17 2.41 7.79
8/22/2022 6:30:00 AM 19.23 66.614 0.114 7.16 2.29 7.77
8/22/2022 6:45:00 AM 19.22 66.596 0.114 7.16 2.08 7.75
8/22/2022 7:00:00 AM 19.21 66.578 0.114 7.12 2.21 7.77
8/22/2022 7:15:00 AM 19.19 66.542 0.115 7.16 2.3 7.8
8/22/2022 7:30:00 AM 19.19 66.542 0.115 7.13 2.01 7.88
8/22/2022 7:45:00 AM 19.21 66.578 0.115 7.17 1.93 8.01
8/22/2022 8:00:00 AM 19.24 66.632 0.115 7.19 1.95 8.17
8/22/2022 8:15:00 AM 19.25 66.65 0.114 7.18 1.93 8.21
8/22/2022 8:30:00 AM 19.12 66.416 0.103 7.19 4.6 8.3
8/22/2022 8:45:00 AM 19.21 66.578 0.109 7.18 2.64 8.38
8/22/2022 9:00:00 AM 19.27 66.686 0.109 7.21 3.64 8.45
8/22/2022 9:15:00 AM 19.27 66.686 0.109 7.23 2.68 8.42
8/22/2022 9:30:00 AM 19.3 66.74 0.11 7.23 2.76 8.43
8/22/2022 9:45:00 AM 19.33 66.794 0.111 7.22 3.63 8.47
8/22/2022 10:00:00 AM 19.35 66.83 0.112 7.24 4.48 8.48
8/22/2022 10:15:00 AM 19.4 66.92 0.112 7.24 3.67 8.55
8/22/2022 10:30:00 AM 19.42 66.956 0.112 7.25 3.53 8.59
8/22/2022 10:45:00 AM 19.43 66.974 0.112 7.27 3.33 8.59
8/22/2022 11:00:00 AM 19.46 67.028 0.112 7.28 2.8 8.61
8/22/2022 11:15:00 AM 19.52 67.136 0.112 7.31 2.64 8.75
8/22/2022 11:30:00 AM 19.57 67.226 0.111 7.33 2.4 8.88
8/22/2022 11:45:00 AM 19.7 67.46 0.111 7.33 2.21 9.08
8/22/2022 12:00:00 PM 19.83 67.694 0.111 7.39 2.05 9.22
8/22/2022 12:15:00 PM 19.99 67.982 0.11 7.41 2.12 9.34
8/22/2022 12:30:00 PM 20.21 68.378 0.11 7.44 2.2 9.43
8/22/2022 12:45:00 PM 20.35 68.63 0.11 7.48 1.96 9.42
8/22/2022 1:00:00 PM 20.58 69.044 0.11 7.5 2.36 9.43
8/22/2022 1:15:00 PM 20.84 69.512 0.11 7.55 2.09 9.47
8/22/2022 1:30:00 PM 21.01 69.818 0.109 7.57 2.11 9.4
8/22/2022 1:45:00 PM 21.23 70.214 0.109 7.61 2.29 9.36
8/22/2022 2:00:00 PM 21.5 70.7 0.109 7.67 2.22 9.26
8/22/2022 2:15:00 PM 21.69 71.042 0.109 7.75 2.3 9.22
8/22/2022 2:30:00 PM 21.81 71.258 0.109 7.8 2.23 9.17
8/22/2022 2:45:00 PM 21.94 71.492 0.109 7.83 1.89 9.05
8/22/2022 3:00:00 PM 22.07 71.726 0.109 7.9 1.97 9.06
8/22/2022 3:15:00 PM 22.1 71.78 0.109 7.93 1.85 8.99
8/22/2022 3:30:00 PM 22.14 71.852 0.109 7.9 1.75 8.89
8/22/2022 3:45:00 PM 22.18 71.924 0.109 7.91 2.03 8.82
8/22/2022 4:00:00 PM 22.14 71.852 0.109 7.87 1.82 8.67
8/22/2022 4:15:00 PM 22.11 71.798 0.109 7.82 1.99 8.59
8/22/2022 4:30:00 PM 22.05 71.69 0.11 7.75 1.83 8.45
8/22/2022 4:45:00 PM 21.99 71.582 0.11 7.7 1.85 8.37
8/22/2022 5:00:00 PM 21.92 71.456 0.11 7.65 1.72 8.31
8/22/2022 5:15:00 PM 21.83 71.294 0.11 7.61 1.88 8.2
8/22/2022 5:30:00 PM 21.73 71.114 0.11 7.54 1.71 8.15
8/22/2022 5:45:00 PM 21.67 71.006 0.11 7.55 1.71 8.2
8/22/2022 6:00:00 PM 21.6 70.88 0.11 7.5 1.8 8.27
8/22/2022 6:15:00 PM 21.54 70.772 0.111 7.52 1.78 8.22
8/22/2022 6:30:00 PM 21.46 70.628 0.111 7.47 1.73 8.13
8/22/2022 6:45:00 PM 21.38 70.484 0.111 7.46 1.75 8.07
8/22/2022 7:00:00 PM 21.33 70.394 0.111 7.45 1.91 8.06
8/22/2022 7:15:00 PM 21.27 70.286 0.111 7.42 1.76 7.96
8/22/2022 7:30:00 PM 21.24 70.232 0.111 7.36 1.97 7.91
8/22/2022 7:45:00 PM 21.2 70.16 0.11 7.38 2.15 7.84
8/22/2022 8:00:00 PM 21.16 70.088 0.111 7.36 2.24 7.77
8/22/2022 8:15:00 PM 21.12 70.016 0.111 7.35 2.95 7.71
8/22/2022 8:30:00 PM 21.06 69.908 0.111 7.33 2.14 7.66
8/22/2022 8:45:00 PM 21 69.8 0.111 7.31 2.19 7.63
8/22/2022 9:00:00 PM 20.96 69.728 0.112 7.3 2.01 7.61
8/22/2022 9:15:00 PM 20.87 69.566 0.112 7.29 1.73 7.61
8/22/2022 9:30:00 PM 20.86 69.548 0.112 7.29 1.84 7.61
8/22/2022 9:45:00 PM 20.78 69.404 0.112 7.28 1.78 7.6
8/22/2022 10:00:00 PM 20.72 69.296 0.112 7.27 1.96 7.62
8/22/2022 10:15:00 PM 20.65 69.17 0.112 7.23 1.83 7.62
8/22/2022 10:30:00 PM 20.58 69.044 0.112 7.25 2.05 7.64
8/22/2022 10:45:00 PM 20.5 68.9 0.112 7.22 1.81 7.66
8/22/2022 11:00:00 PM 20.44 68.792 0.112 7.23 1.71 7.69
8/22/2022 11:15:00 PM 20.4 68.72 0.113 7.22 2.29 7.7
8/22/2022 11:30:00 PM 20.35 68.63 0.113 7.25 2.28 7.72
8/22/2022 11:45:00 PM 20.29 68.522 0.113 7.25 2 7.74
8/23/2022 12:00:00 AM 20.24 68.432 0.113 7.21 2.31 7.75
8/23/2022 12:15:00 AM 20.2 68.36 0.113 7.22 2.03 7.76
8/23/2022 12:30:00 AM 20.13 68.234 0.114 7.25 1.95 7.77
8/23/2022 12:45:00 AM 20.11 68.198 0.114 7.25 1.9 7.78
8/23/2022 1:00:00 AM 20.09 68.162 0.114 7.25 2.65 7.79
8/23/2022 1:15:00 AM 20.04 68.07201 0.114 7.2 1.92 7.79
8/23/2022 1:30:00 AM 20 68 0.115 7.24 1.93 7.79
8/23/2022 1:45:00 AM 19.95 67.91 0.115 7.24 2.13 7.8
8/23/2022 2:00:00 AM 19.84 67.712 0.115 7.23 2.03 7.83
8/23/2022 2:15:00 AM 19.87 67.766 0.115 7.23 2.01 7.81
8/23/2022 2:30:00 AM 19.82 67.676 0.115 7.23 2.46 7.82
8/23/2022 2:45:00 AM 19.79 67.622 0.115 7.24 2.1 7.84
8/23/2022 3:00:00 AM 19.76 67.568 0.115 7.24 1.75 7.85
8/23/2022 3:15:00 AM 19.72 67.496 0.115 7.2 1.97 7.85
8/23/2022 3:30:00 AM 19.65 67.37 0.115 7.23 1.89 7.88
8/23/2022 3:45:00 AM 19.65 67.37 0.115 7.23 1.77 7.89
8/23/2022 4:00:00 AM 19.62 67.316 0.115 7.23 1.89 7.88
8/23/2022 4:15:00 AM 19.59 67.262 0.115 7.19 1.79 7.89
8/23/2022 4:30:00 AM 19.56 67.208 0.115 7.21 1.93 7.9
8/23/2022 4:45:00 AM 19.53 67.154 0.115 7.23 1.89 7.91
8/23/2022 5:00:00 AM 19.49 67.082 0.115 7.22 1.93 7.91
8/23/2022 5:15:00 AM 19.47 67.046 0.116 7.19 1.77 7.91
8/23/2022 5:30:00 AM 19.44 66.992 0.116 7.2 1.77 7.91
8/23/2022 5:45:00 AM 19.42 66.956 0.116 7.22 2.18 7.91
8/23/2022 6:00:00 AM 19.38 66.884 0.116 7.22 1.83 7.91
8/23/2022 6:15:00 AM 19.35 66.83 0.116 7.21 2.1 7.91
8/23/2022 6:30:00 AM 19.34 66.812 0.116 7.21 2.1 7.92
8/23/2022 6:45:00 AM 19.31 66.758 0.116 7.2 2.26 7.93
8/23/2022 7:00:00 AM 19.28 66.704 0.116 7.2 2.33 7.94
8/23/2022 7:15:00 AM 19.25 66.65 0.116 7.17 2.11 7.97
8/23/2022 7:30:00 AM 19.26 66.668 0.116 7.19 2.08 8.01
8/23/2022 7:45:00 AM 19.25 66.65 0.116 7.21 2 8.06
8/23/2022 8:00:00 AM 19.25 66.65 0.117 7.22 1.91 8.12
8/23/2022 8:15:00 AM 19.23 66.614 0.117 7.19 1.9 8.16
8/23/2022 8:30:00 AM 19.24 66.632 0.117 7.21 1.84 8.23
8/23/2022 8:45:00 AM 19.25 66.65 0.117 7.23 1.97 8.29
8/23/2022 9:00:00 AM 19.28 66.704 0.116 7.26 1.85 8.4
8/23/2022 9:15:00 AM 19.29 66.722 0.116 7.25 1.88 8.43
8/23/2022 9:30:00 AM 19.3 66.74 0.116 7.29 1.86 8.44
8/23/2022 9:45:00 AM 19.32 66.776 0.116 7.29 1.88 8.48
8/23/2022 10:00:00 AM 19.39 66.902 0.116 7.32 1.85 8.7
8/23/2022 10:15:00 AM 19.44 66.992 0.116 7.31 1.92 8.82
8/23/2022 10:30:00 AM 19.52 67.136 0.115 7.35 1.83 8.94
8/23/2022 10:45:00 AM 19.62 67.316 0.115 7.39 1.74 9.05
8/23/2022 11:00:00 AM 19.67 67.406 0.115 7.41 1.89 8.97
8/23/2022 11:15:00 AM 19.8 67.64 0.115 7.39 1.71 9.11
8/23/2022 11:30:00 AM 19.95 67.91 0.115 7.44 1.9 9.12
8/23/2022 11:45:00 AM 20.22 68.396 0.114 7.5 1.62 9.24
8/23/2022 12:00:00 PM 20.47 68.846 0.114 7.54 1.84 9.23
8/23/2022 12:15:00 PM 20.63 69.134 0.114 7.56 2.01 9.25
8/23/2022 12:30:00 PM 20.75 69.35 0.114 7.57 1.92 9.17
8/23/2022 12:45:00 PM 20.93 69.674 0.114 7.59 1.85 9.13
8/23/2022 1:00:00 PM 21.05 69.89 0.113 7.61 1.7 9.07
8/23/2022 1:15:00 PM 21.21 70.17799 0.113 7.63 1.72 9.02
8/23/2022 1:30:00 PM 21.37 70.466 0.113 7.68 1.86 9.08
8/23/2022 1:45:00 PM 21.47 70.646 0.11 7.62 2.2 8.93
8/23/2022 2:00:00 PM 21.69 71.042 0.11 7.68 2.2 8.92
8/23/2022 2:15:00 PM 21.72 71.096 0.111 7.66 1.79 8.82
8/23/2022 2:30:00 PM 22 71.6 0.11 7.74 1.64 8.97
8/23/2022 2:45:00 PM 22.25 72.05 0.111 7.77 1.57 8.99
8/23/2022 3:00:00 PM 22.31 72.158 0.111 7.73 1.8 8.71
8/23/2022 3:15:00 PM 22.45 72.41 0.111 7.75 1.83 8.72
8/23/2022 3:30:00 PM 22.08 71.744 0.101 7.48 2.7 8.29
8/23/2022 3:45:00 PM 22.27 72.086 0.104 7.56 13 8.24
8/23/2022 4:00:00 PM 22.32 72.176 0.107 7.57 6.69 8.14
8/23/2022 4:15:00 PM 22.38 72.284 0.109 7.6 27.86 8.15
8/23/2022 4:30:00 PM 22.28 72.104 0.107 7.53 19.35 8.05
8/23/2022 4:45:00 PM 22.19 71.942 0.108 7.56 15.44 8.07
8/23/2022 5:00:00 PM 22.08 71.744 0.108 7.53 8.1 8.08
8/23/2022 5:15:00 PM 21.89 71.402 0.107 7.46 7.3 8.08
8/23/2022 5:30:00 PM 21.76 71.168 0.107 7.48 5.89 8.07
8/23/2022 5:45:00 PM 21.65 70.97 0.107 7.47 5.35 8.14
8/23/2022 6:00:00 PM 21.6 70.88 0.107 7.48 4.63 8.23
8/23/2022 6:15:00 PM 21.55 70.79 0.107 7.48 3.56 8.27
8/23/2022 6:30:00 PM 21.41 70.538 0.107 7.45 2.75 8.29
8/23/2022 6:45:00 PM 21.48 70.664 0.107 7.47 2.7 8.24
8/23/2022 7:00:00 PM 21.44 70.592 0.108 7.45 2.58 8.16
8/23/2022 7:15:00 PM 21.4 70.52 0.108 7.43 2.46 8.05
8/23/2022 7:30:00 PM 21.35 70.43 0.108 7.41 2.31 7.98
8/23/2022 7:45:00 PM 21.3 70.34 0.109 7.38 2.19 7.91
8/23/2022 8:00:00 PM 21.24 70.232 0.109 7.33 2.43 7.85
8/23/2022 8:15:00 PM 21.17 70.106 0.11 7.33 2.24 7.79
8/23/2022 8:30:00 PM 21.09 69.962 0.11 7.33 2.3 7.74
8/23/2022 8:45:00 PM 21 69.8 0.111 7.31 2.21 7.71
8/23/2022 9:00:00 PM 20.91 69.638 0.111 7.3 2.07 7.7
8/23/2022 9:15:00 PM 20.84 69.512 0.111 7.3 2.16 7.7
8/23/2022 9:30:00 PM 20.75 69.35 0.111 7.29 2.57 7.69
8/23/2022 9:45:00 PM 20.65 69.17 0.112 7.29 2.18 7.71
8/23/2022 10:00:00 PM 20.63 69.134 0.112 7.24 1.97 7.7
8/23/2022 10:15:00 PM 20.54 68.972 0.112 7.26 2.32 7.7
8/23/2022 10:30:00 PM 20.45 68.81 0.112 7.25 1.99 7.7
8/23/2022 10:45:00 PM 20.36 68.648 0.112 7.24 2.05 7.71
8/23/2022 11:00:00 PM 20.29 68.522 0.112 7.24 2.29 7.73
8/23/2022 11:15:00 PM 20.2 68.36 0.112 7.23 1.97 7.74
8/23/2022 11:30:00 PM 20.13 68.234 0.112 7.24 2.23 7.77
8/23/2022 11:45:00 PM 20.04 68.07201 0.112 7.23 1.97 7.78
8/24/2022 12:00:00 AM 19.98 67.964 0.113 7.23 2.34 7.8
8/24/2022 12:15:00 AM 19.9 67.82 0.113 7.23 2.15 7.82
8/24/2022 12:30:00 AM 19.84 67.712 0.113 7.23 2.2 7.83
8/24/2022 12:45:00 AM 19.74 67.532 0.113 7.22 2.03 7.85
8/24/2022 1:00:00 AM 19.66 67.388 0.114 7.22 2.25 7.86
8/24/2022 1:15:00 AM 19.6 67.28 0.114 7.21 2.21 7.86
8/24/2022 1:30:00 AM 19.53 67.154 0.114 7.22 2.15 7.9
8/24/2022 1:45:00 AM 19.48 67.064 0.114 7.21 2.25 7.91
8/24/2022 2:00:00 AM 19.41 66.938 0.114 7.17 2.05 7.93
8/24/2022 2:15:00 AM 19.32 66.776 0.114 7.18 2.21 7.92
8/24/2022 2:30:00 AM 19.26 66.668 0.114 7.2 2.17 7.94
8/24/2022 2:45:00 AM 19.17 66.506 0.114 7.2 2.14 7.95
8/24/2022 3:00:00 AM 19.13 66.434 0.114 7.17 3.17 7.95
8/24/2022 3:15:00 AM 19.06 66.308 0.114 7.2 2.11 7.96
8/24/2022 3:30:00 AM 19 66.2 0.114 7.16 2.19 7.97
8/24/2022 3:45:00 AM 18.93 66.074 0.114 7.1 2.2 7.99
8/24/2022 4:00:00 AM 18.87 65.966 0.113 7.13 2.37 8.01
8/24/2022 4:15:00 AM 18.8 65.84 0.113 7.14 2.21 8.03
8/24/2022 4:30:00 AM 18.73 65.714 0.113 7.1 2.21 8.02
8/24/2022 4:45:00 AM 18.68 65.624 0.113 7.13 2.03 8.05
8/24/2022 5:00:00 AM 18.6 65.48 0.113 7.14 2.1 8.08
8/24/2022 5:15:00 AM 18.53 65.354 0.113 7.14 2.06 8.08
8/24/2022 5:30:00 AM 18.47 65.246 0.113 7.1 2.13 8.09
8/24/2022 5:45:00 AM 18.41 65.138 0.113 7.14 2.12 8.1
8/24/2022 6:00:00 AM 18.34 65.012 0.113 7.1 2.28 8.1
8/24/2022 6:15:00 AM 18.29 64.922 0.114 7.13 2.09 8.13
8/24/2022 6:30:00 AM 18.23 64.814 0.114 7.12 2.12 8.16
8/24/2022 6:45:00 AM 18.15 64.67 0.114 7.11 2.18 8.18
8/24/2022 7:00:00 AM 18.11 64.598 0.114 7.14 2.19 8.23
8/24/2022 7:15:00 AM 18.06 64.508 0.114 7.14 2.26 8.28
8/24/2022 7:30:00 AM 18.03 64.454 0.114 7.16 2.27 8.37
8/24/2022 7:45:00 AM 17.99 64.382 0.114 7.18 1.93 8.48
8/24/2022 8:00:00 AM 17.96 64.328 0.114 7.19 2.17 8.58
8/24/2022 8:15:00 AM 17.94 64.292 0.114 7.17 2.08 8.7
8/24/2022 8:30:00 AM 17.96 64.328 0.114 7.23 2.15 8.86
8/24/2022 8:45:00 AM 17.97 64.346 0.114 7.26 2.03 8.9
8/24/2022 9:00:00 AM 17.99 64.382 0.114 7.27 2.07 8.92
8/24/2022 9:15:00 AM 18.06 64.508 0.114 7.26 1.9 8.99
8/24/2022 9:30:00 AM 18.15 64.67 0.113 7.29 1.96 9.04
8/24/2022 9:45:00 AM 18.28 64.904 0.113 7.31 1.97 9.11
8/24/2022 10:00:00 AM 18.44 65.192 0.113 7.36 2.12 9.22
8/24/2022 10:15:00 AM 18.62 65.516 0.113 7.38 2.05 9.27
8/24/2022 10:30:00 AM 18.82 65.876 0.113 7.41 2.11 9.26
8/24/2022 10:45:00 AM 19.06 66.308 0.113 7.42 1.99 9.28
8/24/2022 11:00:00 AM 19.29 66.722 0.113 7.45 2.02 9.23
8/24/2022 11:15:00 AM 19.57 67.226 0.113 7.44 2.19 9.25
8/24/2022 11:30:00 AM 19.88 67.784 0.112 7.51 2.05 9.32
8/24/2022 11:45:00 AM 20.18 68.324 0.112 7.49 2.06 9.27
8/24/2022 12:00:00 PM 20.49 68.882 0.112 7.56 2.07 9.29
8/24/2022 12:15:00 PM 20.76 69.368 0.112 7.57 2.25 9.24
8/24/2022 12:30:00 PM 21.03 69.854 0.112 7.62 2.2 9.19
8/24/2022 12:45:00 PM 21.27 70.286 0.112 7.64 1.95 9.18
8/24/2022 1:00:00 PM 21.54 70.772 0.112 7.65 2.13 9.15
8/24/2022 1:15:00 PM 21.78 71.204 0.112 7.67 2.12 9.11
8/24/2022 1:30:00 PM 21.99 71.582 0.112 7.7 2.14 9.04
8/24/2022 1:45:00 PM 22.21 71.978 0.111 7.69 2.14 8.99
8/24/2022 2:00:00 PM 22.44 72.392 0.111 7.77 2.12 8.85
8/24/2022 2:15:00 PM 22.73 72.914 0.111 7.79 1.91 8.81
8/24/2022 2:30:00 PM 22.85 73.13 0.111 7.8 2.18 8.67
8/24/2022 2:45:00 PM 22.97 73.346 0.111 7.8 1.95 8.62
8/24/2022 3:00:00 PM 23.18 73.724 0.111 7.8 2.08 8.57
8/24/2022 3:15:00 PM 23.32 73.976 0.111 7.76 1.78 8.5
8/24/2022 3:30:00 PM 23.45 74.21 0.111 7.78 1.91 8.46
8/24/2022 3:45:00 PM 23.59 74.462 0.111 7.79 1.99 8.46
8/24/2022 4:00:00 PM 23.69 74.642 0.111 7.79 1.77 8.43
8/24/2022 4:15:00 PM 23.77 74.786 0.111 7.76 1.85 8.36
8/24/2022 4:30:00 PM 23.72 74.696 0.111 7.74 1.76 8.19
8/24/2022 4:45:00 PM 23.71 74.67799 0.111 7.69 1.69 8.14
8/24/2022 5:00:00 PM 23.68 74.624 0.112 7.7 1.66 8.1
8/24/2022 5:15:00 PM 23.61 74.498 0.112 7.66 1.73 8
8/24/2022 5:30:00 PM 23.56 74.408 0.112 7.63 1.77 8.01
8/24/2022 5:45:00 PM 23.44 74.192 0.113 7.56 1.86 7.97
8/24/2022 6:00:00 PM 23.3 73.94 0.113 7.57 1.94 7.95
8/24/2022 6:15:00 PM 23.11 73.598 0.113 7.52 1.71 7.88
8/24/2022 6:30:00 PM 22.96 73.328 0.113 7.49 1.82 7.87
8/24/2022 6:45:00 PM 22.79 73.022 0.113 7.47 1.8 7.81
8/24/2022 7:00:00 PM 22.64 72.752 0.113 7.45 1.79 7.77
8/24/2022 7:15:00 PM 22.48 72.464 0.113 7.42 1.77 7.7
8/24/2022 7:30:00 PM 22.32 72.176 0.113 7.35 1.92 7.65
8/24/2022 7:45:00 PM 22.18 71.924 0.113 7.38 1.91 7.63
8/24/2022 8:00:00 PM 22.05 71.69 0.113 7.36 1.88 7.58
8/24/2022 8:15:00 PM 21.93 71.474 0.113 7.35 1.9 7.54
8/24/2022 8:30:00 PM 21.79 71.222 0.114 7.32 1.96 7.51
8/24/2022 8:45:00 PM 21.67 71.006 0.114 7.32 1.94 7.46
8/24/2022 9:00:00 PM 21.56 70.808 0.114 7.28 1.96 7.44
8/24/2022 9:15:00 PM 21.46 70.628 0.114 7.29 2.37 7.45